<?xml version="1.0" encoding="UTF-8" ?>
<gpx version="1.1" xmlns:xsi="http://www.w3.org/2001/XMLSchema-instance"
    xmlns="http://www.topografix.com/GPX/1/1"
    xsi:schemaLocation="http://www.topografix.com/GPX/1/1 http://www.topografix.com/GPX/1/1/gpx.xsd"
    creator="Openrunner - https://www.openrunner.com" >	<trk>
	                   <name>TOUT COMMENCE EN FINISTERE LADIES CLASSIC-23709261</name>
						<trkseg>
					<trkpt lat="47.954490" lon="-4.361770">
						<ele>54</ele>
						<time>2026-06-27T18:16:56Z</time>
					</trkpt>
					<trkpt lat="47.954320" lon="-4.362140">
						<ele>53</ele>
						<time>2026-06-27T18:17:01Z</time>
					</trkpt>
					<trkpt lat="47.954240" lon="-4.362260">
						<ele>52</ele>
						<time>2026-06-27T18:17:03Z</time>
					</trkpt>
					<trkpt lat="47.954020" lon="-4.362560">
						<ele>51</ele>
						<time>2026-06-27T18:17:09Z</time>
					</trkpt>
					<trkpt lat="47.953630" lon="-4.362990">
						<ele>50</ele>
						<time>2026-06-27T18:17:17Z</time>
					</trkpt>
					<trkpt lat="47.953360" lon="-4.363150">
						<ele>50</ele>
						<time>2026-06-27T18:17:22Z</time>
					</trkpt>
					<trkpt lat="47.952670" lon="-4.363430">
						<ele>47</ele>
						<time>2026-06-27T18:17:35Z</time>
					</trkpt>
					<trkpt lat="47.951930" lon="-4.364070">
						<ele>46</ele>
						<time>2026-06-27T18:17:50Z</time>
					</trkpt>
					<trkpt lat="47.951460" lon="-4.364530">
						<ele>46</ele>
						<time>2026-06-27T18:18:00Z</time>
					</trkpt>
					<trkpt lat="47.950470" lon="-4.365710">
						<ele>42</ele>
						<time>2026-06-27T18:18:23Z</time>
					</trkpt>
					<trkpt lat="47.949710" lon="-4.366570">
						<ele>41</ele>
						<time>2026-06-27T18:18:40Z</time>
					</trkpt>
					<trkpt lat="47.949440" lon="-4.367030">
						<ele>40</ele>
						<time>2026-06-27T18:18:47Z</time>
					</trkpt>
					<trkpt lat="47.949380" lon="-4.367190">
						<ele>40</ele>
						<time>2026-06-27T18:18:49Z</time>
					</trkpt>
					<trkpt lat="47.949290" lon="-4.367500">
						<ele>40</ele>
						<time>2026-06-27T18:18:53Z</time>
					</trkpt>
					<trkpt lat="47.949210" lon="-4.368000">
						<ele>41</ele>
						<time>2026-06-27T18:19:00Z</time>
					</trkpt>
					<trkpt lat="47.949040" lon="-4.369730">
						<ele>40</ele>
						<time>2026-06-27T18:19:20Z</time>
					</trkpt>
					<trkpt lat="47.948620" lon="-4.371970">
						<ele>36</ele>
						<time>2026-06-27T18:19:48Z</time>
					</trkpt>
					<trkpt lat="47.948330" lon="-4.373050">
						<ele>35</ele>
						<time>2026-06-27T18:20:02Z</time>
					</trkpt>
					<trkpt lat="47.946380" lon="-4.379760">
						<ele>29</ele>
						<time>2026-06-27T18:21:29Z</time>
					</trkpt>
					<trkpt lat="47.946250" lon="-4.380430">
						<ele>28</ele>
						<time>2026-06-27T18:21:37Z</time>
					</trkpt>
					<trkpt lat="47.946110" lon="-4.381520">
						<ele>28</ele>
						<time>2026-06-27T18:21:51Z</time>
					</trkpt>
					<trkpt lat="47.946020" lon="-4.384420">
						<ele>26</ele>
						<time>2026-06-27T18:22:25Z</time>
					</trkpt>
					<trkpt lat="47.945900" lon="-4.386060">
						<ele>26</ele>
						<time>2026-06-27T18:22:45Z</time>
					</trkpt>
					<trkpt lat="47.945650" lon="-4.388750">
						<ele>23</ele>
						<time>2026-06-27T18:23:17Z</time>
					</trkpt>
					<trkpt lat="47.945100" lon="-4.392320">
						<ele>18</ele>
						<time>2026-06-27T18:24:01Z</time>
					</trkpt>
					<trkpt lat="47.944600" lon="-4.394700">
						<ele>16</ele>
						<time>2026-06-27T18:24:31Z</time>
					</trkpt>
					<trkpt lat="47.944560" lon="-4.394680">
						<ele>16</ele>
						<time>2026-06-27T18:24:31Z</time>
					</trkpt>
					<trkpt lat="47.944490" lon="-4.394710">
						<ele>15</ele>
						<time>2026-06-27T18:24:33Z</time>
					</trkpt>
					<trkpt lat="47.943540" lon="-4.395550">
						<ele>11</ele>
						<time>2026-06-27T18:24:52Z</time>
					</trkpt>
					<trkpt lat="47.943240" lon="-4.395650">
						<ele>9</ele>
						<time>2026-06-27T18:24:58Z</time>
					</trkpt>
					<trkpt lat="47.942000" lon="-4.395840">
						<ele>8</ele>
						<time>2026-06-27T18:25:20Z</time>
					</trkpt>
					<trkpt lat="47.941490" lon="-4.397010">
						<ele>11</ele>
						<time>2026-06-27T18:25:37Z</time>
					</trkpt>
					<trkpt lat="47.941070" lon="-4.398440">
						<ele>14</ele>
						<time>2026-06-27T18:25:55Z</time>
					</trkpt>
					<trkpt lat="47.940790" lon="-4.399070">
						<ele>15</ele>
						<time>2026-06-27T18:26:04Z</time>
					</trkpt>
					<trkpt lat="47.940650" lon="-4.399680">
						<ele>13</ele>
						<time>2026-06-27T18:26:12Z</time>
					</trkpt>
					<trkpt lat="47.940580" lon="-4.399870">
						<ele>12</ele>
						<time>2026-06-27T18:26:15Z</time>
					</trkpt>
					<trkpt lat="47.940200" lon="-4.400530">
						<ele>10</ele>
						<time>2026-06-27T18:26:25Z</time>
					</trkpt>
					<trkpt lat="47.939430" lon="-4.401720">
						<ele>5</ele>
						<time>2026-06-27T18:26:45Z</time>
					</trkpt>
					<trkpt lat="47.939680" lon="-4.402460">
						<ele>5</ele>
						<time>2026-06-27T18:26:55Z</time>
					</trkpt>
					<trkpt lat="47.939830" lon="-4.402660">
						<ele>5</ele>
						<time>2026-06-27T18:26:58Z</time>
					</trkpt>
					<trkpt lat="47.939960" lon="-4.402780">
						<ele>6</ele>
						<time>2026-06-27T18:27:01Z</time>
					</trkpt>
					<trkpt lat="47.941550" lon="-4.404020">
						<ele>10</ele>
						<time>2026-06-27T18:27:33Z</time>
					</trkpt>
					<trkpt lat="47.941810" lon="-4.404160">
						<ele>10</ele>
						<time>2026-06-27T18:27:38Z</time>
					</trkpt>
					<trkpt lat="47.942600" lon="-4.404220">
						<ele>11</ele>
						<time>2026-06-27T18:27:52Z</time>
					</trkpt>
					<trkpt lat="47.942980" lon="-4.404200">
						<ele>11</ele>
						<time>2026-06-27T18:27:59Z</time>
					</trkpt>
					<trkpt lat="47.943270" lon="-4.404080">
						<ele>11</ele>
						<time>2026-06-27T18:28:04Z</time>
					</trkpt>
					<trkpt lat="47.943550" lon="-4.403910">
						<ele>11</ele>
						<time>2026-06-27T18:28:09Z</time>
					</trkpt>
					<trkpt lat="47.943600" lon="-4.403850">
						<ele>11</ele>
						<time>2026-06-27T18:28:10Z</time>
					</trkpt>
					<trkpt lat="47.943680" lon="-4.404290">
						<ele>10</ele>
						<time>2026-06-27T18:28:16Z</time>
					</trkpt>
					<trkpt lat="47.943730" lon="-4.404420">
						<ele>10</ele>
						<time>2026-06-27T18:28:18Z</time>
					</trkpt>
					<trkpt lat="47.943810" lon="-4.404530">
						<ele>10</ele>
						<time>2026-06-27T18:28:20Z</time>
					</trkpt>
					<trkpt lat="47.947240" lon="-4.407440">
						<ele>8</ele>
						<time>2026-06-27T18:29:30Z</time>
					</trkpt>
					<trkpt lat="47.947650" lon="-4.407710">
						<ele>7</ele>
						<time>2026-06-27T18:29:38Z</time>
					</trkpt>
					<trkpt lat="47.951370" lon="-4.409600">
						<ele>10</ele>
						<time>2026-06-27T18:30:48Z</time>
					</trkpt>
					<trkpt lat="47.951770" lon="-4.409830">
						<ele>10</ele>
						<time>2026-06-27T18:30:55Z</time>
					</trkpt>
					<trkpt lat="47.952110" lon="-4.410080">
						<ele>11</ele>
						<time>2026-06-27T18:31:02Z</time>
					</trkpt>
					<trkpt lat="47.952360" lon="-4.410300">
						<ele>12</ele>
						<time>2026-06-27T18:31:07Z</time>
					</trkpt>
					<trkpt lat="47.952750" lon="-4.410700">
						<ele>12</ele>
						<time>2026-06-27T18:31:16Z</time>
					</trkpt>
					<trkpt lat="47.953110" lon="-4.411110">
						<ele>12</ele>
						<time>2026-06-27T18:31:24Z</time>
					</trkpt>
					<trkpt lat="47.956980" lon="-4.415750">
						<ele>8</ele>
						<time>2026-06-27T18:32:52Z</time>
					</trkpt>
					<trkpt lat="47.957300" lon="-4.416070">
						<ele>8</ele>
						<time>2026-06-27T18:32:59Z</time>
					</trkpt>
					<trkpt lat="47.960450" lon="-4.419530">
						<ele>6</ele>
						<time>2026-06-27T18:34:08Z</time>
					</trkpt>
					<trkpt lat="47.960710" lon="-4.419750">
						<ele>7</ele>
						<time>2026-06-27T18:34:14Z</time>
					</trkpt>
					<trkpt lat="47.961290" lon="-4.420000">
						<ele>7</ele>
						<time>2026-06-27T18:34:24Z</time>
					</trkpt>
					<trkpt lat="47.961440" lon="-4.420040">
						<ele>7</ele>
						<time>2026-06-27T18:34:27Z</time>
					</trkpt>
					<trkpt lat="47.961810" lon="-4.420030">
						<ele>7</ele>
						<time>2026-06-27T18:34:34Z</time>
					</trkpt>
					<trkpt lat="47.962350" lon="-4.419940">
						<ele>5</ele>
						<time>2026-06-27T18:34:43Z</time>
					</trkpt>
					<trkpt lat="47.962530" lon="-4.419860">
						<ele>5</ele>
						<time>2026-06-27T18:34:47Z</time>
					</trkpt>
					<trkpt lat="47.962680" lon="-4.419730">
						<ele>5</ele>
						<time>2026-06-27T18:34:50Z</time>
					</trkpt>
					<trkpt lat="47.962920" lon="-4.419340">
						<ele>4</ele>
						<time>2026-06-27T18:34:56Z</time>
					</trkpt>
					<trkpt lat="47.963090" lon="-4.419120">
						<ele>4</ele>
						<time>2026-06-27T18:35:00Z</time>
					</trkpt>
					<trkpt lat="47.963260" lon="-4.418960">
						<ele>3</ele>
						<time>2026-06-27T18:35:04Z</time>
					</trkpt>
					<trkpt lat="47.963390" lon="-4.418880">
						<ele>3</ele>
						<time>2026-06-27T18:35:06Z</time>
					</trkpt>
					<trkpt lat="47.963660" lon="-4.418820">
						<ele>3</ele>
						<time>2026-06-27T18:35:11Z</time>
					</trkpt>
					<trkpt lat="47.964720" lon="-4.418800">
						<ele>7</ele>
						<time>2026-06-27T18:35:30Z</time>
					</trkpt>
					<trkpt lat="47.965170" lon="-4.418840">
						<ele>9</ele>
						<time>2026-06-27T18:35:38Z</time>
					</trkpt>
					<trkpt lat="47.965610" lon="-4.418940">
						<ele>11</ele>
						<time>2026-06-27T18:35:46Z</time>
					</trkpt>
					<trkpt lat="47.965730" lon="-4.418930">
						<ele>12</ele>
						<time>2026-06-27T18:35:48Z</time>
					</trkpt>
					<trkpt lat="47.966640" lon="-4.418610">
						<ele>19</ele>
						<time>2026-06-27T18:36:05Z</time>
					</trkpt>
					<trkpt lat="47.966700" lon="-4.420080">
						<ele>17</ele>
						<time>2026-06-27T18:36:22Z</time>
					</trkpt>
					<trkpt lat="47.966410" lon="-4.422580">
						<ele>13</ele>
						<time>2026-06-27T18:36:52Z</time>
					</trkpt>
					<trkpt lat="47.966290" lon="-4.423080">
						<ele>12</ele>
						<time>2026-06-27T18:36:59Z</time>
					</trkpt>
					<trkpt lat="47.965740" lon="-4.424520">
						<ele>7</ele>
						<time>2026-06-27T18:37:18Z</time>
					</trkpt>
					<trkpt lat="47.965430" lon="-4.425660">
						<ele>5</ele>
						<time>2026-06-27T18:37:33Z</time>
					</trkpt>
					<trkpt lat="47.965320" lon="-4.426200">
						<ele>4</ele>
						<time>2026-06-27T18:37:40Z</time>
					</trkpt>
					<trkpt lat="47.965290" lon="-4.426490">
						<ele>4</ele>
						<time>2026-06-27T18:37:43Z</time>
					</trkpt>
					<trkpt lat="47.965180" lon="-4.428080">
						<ele>6</ele>
						<time>2026-06-27T18:38:02Z</time>
					</trkpt>
					<trkpt lat="47.965180" lon="-4.428530">
						<ele>5</ele>
						<time>2026-06-27T18:38:08Z</time>
					</trkpt>
					<trkpt lat="47.965230" lon="-4.428650">
						<ele>5</ele>
						<time>2026-06-27T18:38:09Z</time>
					</trkpt>
					<trkpt lat="47.965310" lon="-4.428760">
						<ele>5</ele>
						<time>2026-06-27T18:38:11Z</time>
					</trkpt>
					<trkpt lat="47.965500" lon="-4.428860">
						<ele>6</ele>
						<time>2026-06-27T18:38:15Z</time>
					</trkpt>
					<trkpt lat="47.965760" lon="-4.428920">
						<ele>7</ele>
						<time>2026-06-27T18:38:20Z</time>
					</trkpt>
					<trkpt lat="47.966200" lon="-4.428940">
						<ele>8</ele>
						<time>2026-06-27T18:38:27Z</time>
					</trkpt>
					<trkpt lat="47.967180" lon="-4.429150">
						<ele>12</ele>
						<time>2026-06-27T18:38:45Z</time>
					</trkpt>
					<trkpt lat="47.967550" lon="-4.429120">
						<ele>14</ele>
						<time>2026-06-27T18:38:52Z</time>
					</trkpt>
					<trkpt lat="47.967870" lon="-4.429020">
						<ele>15</ele>
						<time>2026-06-27T18:38:58Z</time>
					</trkpt>
					<trkpt lat="47.969610" lon="-4.433260">
						<ele>13</ele>
						<time>2026-06-27T18:39:57Z</time>
					</trkpt>
					<trkpt lat="47.969940" lon="-4.433970">
						<ele>12</ele>
						<time>2026-06-27T18:40:07Z</time>
					</trkpt>
					<trkpt lat="47.976120" lon="-4.443910">
						<ele>10</ele>
						<time>2026-06-27T18:42:49Z</time>
					</trkpt>
					<trkpt lat="47.977800" lon="-4.446570">
						<ele>12</ele>
						<time>2026-06-27T18:43:32Z</time>
					</trkpt>
					<trkpt lat="47.977930" lon="-4.446710">
						<ele>12</ele>
						<time>2026-06-27T18:43:35Z</time>
					</trkpt>
					<trkpt lat="47.977900" lon="-4.446790">
						<ele>11</ele>
						<time>2026-06-27T18:43:36Z</time>
					</trkpt>
					<trkpt lat="47.977890" lon="-4.446980">
						<ele>11</ele>
						<time>2026-06-27T18:43:38Z</time>
					</trkpt>
					<trkpt lat="47.977940" lon="-4.447240">
						<ele>10</ele>
						<time>2026-06-27T18:43:42Z</time>
					</trkpt>
					<trkpt lat="47.978130" lon="-4.447920">
						<ele>7</ele>
						<time>2026-06-27T18:43:50Z</time>
					</trkpt>
					<trkpt lat="47.978380" lon="-4.448370">
						<ele>5</ele>
						<time>2026-06-27T18:43:57Z</time>
					</trkpt>
					<trkpt lat="47.978630" lon="-4.448700">
						<ele>6</ele>
						<time>2026-06-27T18:44:03Z</time>
					</trkpt>
					<trkpt lat="47.978770" lon="-4.448790">
						<ele>6</ele>
						<time>2026-06-27T18:44:06Z</time>
					</trkpt>
					<trkpt lat="47.978960" lon="-4.448790">
						<ele>7</ele>
						<time>2026-06-27T18:44:09Z</time>
					</trkpt>
					<trkpt lat="47.979310" lon="-4.448740">
						<ele>9</ele>
						<time>2026-06-27T18:44:16Z</time>
					</trkpt>
					<trkpt lat="47.979420" lon="-4.448760">
						<ele>9</ele>
						<time>2026-06-27T18:44:18Z</time>
					</trkpt>
					<trkpt lat="47.979520" lon="-4.448810">
						<ele>9</ele>
						<time>2026-06-27T18:44:20Z</time>
					</trkpt>
					<trkpt lat="47.980730" lon="-4.449720">
						<ele>10</ele>
						<time>2026-06-27T18:44:44Z</time>
					</trkpt>
					<trkpt lat="47.980990" lon="-4.449800">
						<ele>12</ele>
						<time>2026-06-27T18:44:48Z</time>
					</trkpt>
					<trkpt lat="47.981100" lon="-4.449860">
						<ele>13</ele>
						<time>2026-06-27T18:44:50Z</time>
					</trkpt>
					<trkpt lat="47.981190" lon="-4.449940">
						<ele>14</ele>
						<time>2026-06-27T18:44:52Z</time>
					</trkpt>
					<trkpt lat="47.981350" lon="-4.450210">
						<ele>14</ele>
						<time>2026-06-27T18:44:57Z</time>
					</trkpt>
					<trkpt lat="47.981800" lon="-4.451460">
						<ele>12</ele>
						<time>2026-06-27T18:45:13Z</time>
					</trkpt>
					<trkpt lat="47.982300" lon="-4.453070">
						<ele>14</ele>
						<time>2026-06-27T18:45:35Z</time>
					</trkpt>
					<trkpt lat="47.983210" lon="-4.455850">
						<ele>18</ele>
						<time>2026-06-27T18:46:11Z</time>
					</trkpt>
					<trkpt lat="47.983510" lon="-4.457470">
						<ele>15</ele>
						<time>2026-06-27T18:46:32Z</time>
					</trkpt>
					<trkpt lat="47.984630" lon="-4.460650">
						<ele>8</ele>
						<time>2026-06-27T18:47:14Z</time>
					</trkpt>
					<trkpt lat="47.985060" lon="-4.462040">
						<ele>5</ele>
						<time>2026-06-27T18:47:33Z</time>
					</trkpt>
					<trkpt lat="47.985130" lon="-4.462150">
						<ele>5</ele>
						<time>2026-06-27T18:47:34Z</time>
					</trkpt>
					<trkpt lat="47.985170" lon="-4.462170">
						<ele>5</ele>
						<time>2026-06-27T18:47:35Z</time>
					</trkpt>
					<trkpt lat="47.985420" lon="-4.462190">
						<ele>5</ele>
						<time>2026-06-27T18:47:40Z</time>
					</trkpt>
					<trkpt lat="47.985780" lon="-4.462150">
						<ele>7</ele>
						<time>2026-06-27T18:47:46Z</time>
					</trkpt>
					<trkpt lat="47.985920" lon="-4.462180">
						<ele>7</ele>
						<time>2026-06-27T18:47:48Z</time>
					</trkpt>
					<trkpt lat="47.986100" lon="-4.462320">
						<ele>8</ele>
						<time>2026-06-27T18:47:52Z</time>
					</trkpt>
					<trkpt lat="47.986200" lon="-4.462550">
						<ele>8</ele>
						<time>2026-06-27T18:47:55Z</time>
					</trkpt>
					<trkpt lat="47.986210" lon="-4.462810">
						<ele>9</ele>
						<time>2026-06-27T18:47:58Z</time>
					</trkpt>
					<trkpt lat="47.985990" lon="-4.463490">
						<ele>9</ele>
						<time>2026-06-27T18:48:07Z</time>
					</trkpt>
					<trkpt lat="47.985980" lon="-4.463850">
						<ele>11</ele>
						<time>2026-06-27T18:48:12Z</time>
					</trkpt>
					<trkpt lat="47.986000" lon="-4.463920">
						<ele>12</ele>
						<time>2026-06-27T18:48:13Z</time>
					</trkpt>
					<trkpt lat="47.986040" lon="-4.464020">
						<ele>13</ele>
						<time>2026-06-27T18:48:14Z</time>
					</trkpt>
					<trkpt lat="47.986150" lon="-4.464150">
						<ele>14</ele>
						<time>2026-06-27T18:48:17Z</time>
					</trkpt>
					<trkpt lat="47.986590" lon="-4.464470">
						<ele>18</ele>
						<time>2026-06-27T18:48:25Z</time>
					</trkpt>
					<trkpt lat="47.986700" lon="-4.464580">
						<ele>19</ele>
						<time>2026-06-27T18:48:28Z</time>
					</trkpt>
					<trkpt lat="47.987090" lon="-4.465150">
						<ele>21</ele>
						<time>2026-06-27T18:48:37Z</time>
					</trkpt>
					<trkpt lat="47.987010" lon="-4.465230">
						<ele>21</ele>
						<time>2026-06-27T18:48:39Z</time>
					</trkpt>
					<trkpt lat="47.986680" lon="-4.465360">
						<ele>21</ele>
						<time>2026-06-27T18:48:45Z</time>
					</trkpt>
					<trkpt lat="47.986650" lon="-4.465440">
						<ele>21</ele>
						<time>2026-06-27T18:48:46Z</time>
					</trkpt>
					<trkpt lat="47.986630" lon="-4.465940">
						<ele>23</ele>
						<time>2026-06-27T18:48:52Z</time>
					</trkpt>
					<trkpt lat="47.986670" lon="-4.466460">
						<ele>25</ele>
						<time>2026-06-27T18:48:58Z</time>
					</trkpt>
					<trkpt lat="47.987220" lon="-4.469420">
						<ele>30</ele>
						<time>2026-06-27T18:49:35Z</time>
					</trkpt>
					<trkpt lat="47.987570" lon="-4.471560">
						<ele>29</ele>
						<time>2026-06-27T18:50:01Z</time>
					</trkpt>
					<trkpt lat="47.987880" lon="-4.473660">
						<ele>29</ele>
						<time>2026-06-27T18:50:27Z</time>
					</trkpt>
					<trkpt lat="47.987940" lon="-4.473930">
						<ele>29</ele>
						<time>2026-06-27T18:50:30Z</time>
					</trkpt>
					<trkpt lat="47.988290" lon="-4.474980">
						<ele>29</ele>
						<time>2026-06-27T18:50:44Z</time>
					</trkpt>
					<trkpt lat="47.988810" lon="-4.476800">
						<ele>16</ele>
						<time>2026-06-27T18:51:08Z</time>
					</trkpt>
					<trkpt lat="47.988920" lon="-4.477100">
						<ele>15</ele>
						<time>2026-06-27T18:51:12Z</time>
					</trkpt>
					<trkpt lat="47.988990" lon="-4.477230">
						<ele>14</ele>
						<time>2026-06-27T18:51:14Z</time>
					</trkpt>
					<trkpt lat="47.989070" lon="-4.477320">
						<ele>14</ele>
						<time>2026-06-27T18:51:16Z</time>
					</trkpt>
					<trkpt lat="47.989230" lon="-4.477430">
						<ele>14</ele>
						<time>2026-06-27T18:51:19Z</time>
					</trkpt>
					<trkpt lat="47.989380" lon="-4.477490">
						<ele>13</ele>
						<time>2026-06-27T18:51:21Z</time>
					</trkpt>
					<trkpt lat="47.990220" lon="-4.477530">
						<ele>10</ele>
						<time>2026-06-27T18:51:36Z</time>
					</trkpt>
					<trkpt lat="47.990590" lon="-4.477660">
						<ele>9</ele>
						<time>2026-06-27T18:51:43Z</time>
					</trkpt>
					<trkpt lat="47.990780" lon="-4.477790">
						<ele>9</ele>
						<time>2026-06-27T18:51:47Z</time>
					</trkpt>
					<trkpt lat="47.992250" lon="-4.479450">
						<ele>15</ele>
						<time>2026-06-27T18:52:20Z</time>
					</trkpt>
					<trkpt lat="47.993770" lon="-4.481080">
						<ele>29</ele>
						<time>2026-06-27T18:52:53Z</time>
					</trkpt>
					<trkpt lat="47.994590" lon="-4.481760">
						<ele>35</ele>
						<time>2026-06-27T18:53:10Z</time>
					</trkpt>
					<trkpt lat="47.995210" lon="-4.482380">
						<ele>37</ele>
						<time>2026-06-27T18:53:23Z</time>
					</trkpt>
					<trkpt lat="47.995340" lon="-4.482530">
						<ele>38</ele>
						<time>2026-06-27T18:53:26Z</time>
					</trkpt>
					<trkpt lat="47.996690" lon="-4.484440">
						<ele>47</ele>
						<time>2026-06-27T18:53:59Z</time>
					</trkpt>
					<trkpt lat="47.996820" lon="-4.484660">
						<ele>47</ele>
						<time>2026-06-27T18:54:02Z</time>
					</trkpt>
					<trkpt lat="47.997050" lon="-4.485220">
						<ele>48</ele>
						<time>2026-06-27T18:54:10Z</time>
					</trkpt>
					<trkpt lat="47.997210" lon="-4.485790">
						<ele>48</ele>
						<time>2026-06-27T18:54:18Z</time>
					</trkpt>
					<trkpt lat="47.997570" lon="-4.486740">
						<ele>49</ele>
						<time>2026-06-27T18:54:31Z</time>
					</trkpt>
					<trkpt lat="47.997660" lon="-4.486830">
						<ele>49</ele>
						<time>2026-06-27T18:54:33Z</time>
					</trkpt>
					<trkpt lat="47.997700" lon="-4.486840">
						<ele>49</ele>
						<time>2026-06-27T18:54:33Z</time>
					</trkpt>
					<trkpt lat="47.997830" lon="-4.486770">
						<ele>50</ele>
						<time>2026-06-27T18:54:36Z</time>
					</trkpt>
					<trkpt lat="47.998970" lon="-4.485860">
						<ele>60</ele>
						<time>2026-06-27T18:54:59Z</time>
					</trkpt>
					<trkpt lat="47.999100" lon="-4.485720">
						<ele>61</ele>
						<time>2026-06-27T18:55:02Z</time>
					</trkpt>
					<trkpt lat="47.999300" lon="-4.485440">
						<ele>63</ele>
						<time>2026-06-27T18:55:06Z</time>
					</trkpt>
					<trkpt lat="47.999870" lon="-4.484580">
						<ele>68</ele>
						<time>2026-06-27T18:55:21Z</time>
					</trkpt>
					<trkpt lat="47.999990" lon="-4.484460">
						<ele>70</ele>
						<time>2026-06-27T18:55:23Z</time>
					</trkpt>
					<trkpt lat="48.000100" lon="-4.484390">
						<ele>70</ele>
						<time>2026-06-27T18:55:26Z</time>
					</trkpt>
					<trkpt lat="48.000240" lon="-4.484340">
						<ele>71</ele>
						<time>2026-06-27T18:55:28Z</time>
					</trkpt>
					<trkpt lat="48.000360" lon="-4.484330">
						<ele>71</ele>
						<time>2026-06-27T18:55:30Z</time>
					</trkpt>
					<trkpt lat="48.000500" lon="-4.484360">
						<ele>71</ele>
						<time>2026-06-27T18:55:33Z</time>
					</trkpt>
					<trkpt lat="48.000990" lon="-4.484630">
						<ele>72</ele>
						<time>2026-06-27T18:55:42Z</time>
					</trkpt>
					<trkpt lat="48.002570" lon="-4.485180">
						<ele>77</ele>
						<time>2026-06-27T18:56:11Z</time>
					</trkpt>
					<trkpt lat="48.002780" lon="-4.485210">
						<ele>78</ele>
						<time>2026-06-27T18:56:15Z</time>
					</trkpt>
					<trkpt lat="48.004130" lon="-4.485130">
						<ele>85</ele>
						<time>2026-06-27T18:56:39Z</time>
					</trkpt>
					<trkpt lat="48.004150" lon="-4.485150">
						<ele>86</ele>
						<time>2026-06-27T18:56:39Z</time>
					</trkpt>
					<trkpt lat="48.004180" lon="-4.486470">
						<ele>84</ele>
						<time>2026-06-27T18:56:55Z</time>
					</trkpt>
					<trkpt lat="48.004020" lon="-4.488360">
						<ele>81</ele>
						<time>2026-06-27T18:57:18Z</time>
					</trkpt>
					<trkpt lat="48.003770" lon="-4.490360">
						<ele>71</ele>
						<time>2026-06-27T18:57:42Z</time>
					</trkpt>
					<trkpt lat="48.003770" lon="-4.490690">
						<ele>70</ele>
						<time>2026-06-27T18:57:46Z</time>
					</trkpt>
					<trkpt lat="48.003840" lon="-4.491030">
						<ele>69</ele>
						<time>2026-06-27T18:57:50Z</time>
					</trkpt>
					<trkpt lat="48.004540" lon="-4.493330">
						<ele>63</ele>
						<time>2026-06-27T18:58:20Z</time>
					</trkpt>
					<trkpt lat="48.005000" lon="-4.495480">
						<ele>54</ele>
						<time>2026-06-27T18:58:47Z</time>
					</trkpt>
					<trkpt lat="48.005190" lon="-4.496290">
						<ele>51</ele>
						<time>2026-06-27T18:58:57Z</time>
					</trkpt>
					<trkpt lat="48.005220" lon="-4.496340">
						<ele>51</ele>
						<time>2026-06-27T18:58:58Z</time>
					</trkpt>
					<trkpt lat="48.008470" lon="-4.494520">
						<ele>67</ele>
						<time>2026-06-27T19:00:00Z</time>
					</trkpt>
					<trkpt lat="48.008650" lon="-4.494350">
						<ele>68</ele>
						<time>2026-06-27T19:00:03Z</time>
					</trkpt>
					<trkpt lat="48.008910" lon="-4.493920">
						<ele>70</ele>
						<time>2026-06-27T19:00:10Z</time>
					</trkpt>
					<trkpt lat="48.009110" lon="-4.493730">
						<ele>71</ele>
						<time>2026-06-27T19:00:15Z</time>
					</trkpt>
					<trkpt lat="48.009360" lon="-4.493540">
						<ele>71</ele>
						<time>2026-06-27T19:00:20Z</time>
					</trkpt>
					<trkpt lat="48.009520" lon="-4.493450">
						<ele>72</ele>
						<time>2026-06-27T19:00:23Z</time>
					</trkpt>
					<trkpt lat="48.009470" lon="-4.493360">
						<ele>72</ele>
						<time>2026-06-27T19:00:24Z</time>
					</trkpt>
					<trkpt lat="48.009270" lon="-4.493190">
						<ele>71</ele>
						<time>2026-06-27T19:00:28Z</time>
					</trkpt>
					<trkpt lat="48.009160" lon="-4.493020">
						<ele>71</ele>
						<time>2026-06-27T19:00:31Z</time>
					</trkpt>
					<trkpt lat="48.009070" lon="-4.492520">
						<ele>72</ele>
						<time>2026-06-27T19:00:37Z</time>
					</trkpt>
					<trkpt lat="48.009020" lon="-4.492360">
						<ele>73</ele>
						<time>2026-06-27T19:00:39Z</time>
					</trkpt>
					<trkpt lat="48.008950" lon="-4.492260">
						<ele>73</ele>
						<time>2026-06-27T19:00:41Z</time>
					</trkpt>
					<trkpt lat="48.008730" lon="-4.492050">
						<ele>74</ele>
						<time>2026-06-27T19:00:46Z</time>
					</trkpt>
					<trkpt lat="48.008380" lon="-4.491460">
						<ele>76</ele>
						<time>2026-06-27T19:00:55Z</time>
					</trkpt>
					<trkpt lat="48.008340" lon="-4.491410">
						<ele>76</ele>
						<time>2026-06-27T19:00:56Z</time>
					</trkpt>
					<trkpt lat="48.008190" lon="-4.491350">
						<ele>76</ele>
						<time>2026-06-27T19:00:59Z</time>
					</trkpt>
					<trkpt lat="48.008000" lon="-4.491380">
						<ele>76</ele>
						<time>2026-06-27T19:01:02Z</time>
					</trkpt>
					<trkpt lat="48.007880" lon="-4.491430">
						<ele>76</ele>
						<time>2026-06-27T19:01:04Z</time>
					</trkpt>
					<trkpt lat="48.007850" lon="-4.491350">
						<ele>76</ele>
						<time>2026-06-27T19:01:05Z</time>
					</trkpt>
					<trkpt lat="48.007770" lon="-4.490280">
						<ele>79</ele>
						<time>2026-06-27T19:01:18Z</time>
					</trkpt>
					<trkpt lat="48.007720" lon="-4.489930">
						<ele>80</ele>
						<time>2026-06-27T19:01:22Z</time>
					</trkpt>
					<trkpt lat="48.007360" lon="-4.487920">
						<ele>84</ele>
						<time>2026-06-27T19:01:47Z</time>
					</trkpt>
					<trkpt lat="48.007070" lon="-4.486440">
						<ele>86</ele>
						<time>2026-06-27T19:02:06Z</time>
					</trkpt>
					<trkpt lat="48.006840" lon="-4.485410">
						<ele>87</ele>
						<time>2026-06-27T19:02:18Z</time>
					</trkpt>
					<trkpt lat="48.006860" lon="-4.485310">
						<ele>87</ele>
						<time>2026-06-27T19:02:20Z</time>
					</trkpt>
					<trkpt lat="48.007310" lon="-4.485140">
						<ele>88</ele>
						<time>2026-06-27T19:02:28Z</time>
					</trkpt>
					<trkpt lat="48.008180" lon="-4.485000">
						<ele>87</ele>
						<time>2026-06-27T19:02:44Z</time>
					</trkpt>
					<trkpt lat="48.008350" lon="-4.485000">
						<ele>87</ele>
						<time>2026-06-27T19:02:47Z</time>
					</trkpt>
					<trkpt lat="48.008650" lon="-4.485040">
						<ele>87</ele>
						<time>2026-06-27T19:02:52Z</time>
					</trkpt>
					<trkpt lat="48.008940" lon="-4.485110">
						<ele>88</ele>
						<time>2026-06-27T19:02:57Z</time>
					</trkpt>
					<trkpt lat="48.010240" lon="-4.485230">
						<ele>91</ele>
						<time>2026-06-27T19:03:20Z</time>
					</trkpt>
					<trkpt lat="48.013700" lon="-4.485650">
						<ele>99</ele>
						<time>2026-06-27T19:04:22Z</time>
					</trkpt>
					<trkpt lat="48.013790" lon="-4.485640">
						<ele>100</ele>
						<time>2026-06-27T19:04:24Z</time>
					</trkpt>
					<trkpt lat="48.013830" lon="-4.485680">
						<ele>100</ele>
						<time>2026-06-27T19:04:25Z</time>
					</trkpt>
					<trkpt lat="48.013860" lon="-4.485530">
						<ele>100</ele>
						<time>2026-06-27T19:04:26Z</time>
					</trkpt>
					<trkpt lat="48.013640" lon="-4.484320">
						<ele>100</ele>
						<time>2026-06-27T19:04:41Z</time>
					</trkpt>
					<trkpt lat="48.013280" lon="-4.484330">
						<ele>100</ele>
						<time>2026-06-27T19:04:48Z</time>
					</trkpt>
					<trkpt lat="48.013010" lon="-4.484310">
						<ele>99</ele>
						<time>2026-06-27T19:04:53Z</time>
					</trkpt>
					<trkpt lat="48.012790" lon="-4.484200">
						<ele>99</ele>
						<time>2026-06-27T19:04:57Z</time>
					</trkpt>
					<trkpt lat="48.012630" lon="-4.484070">
						<ele>98</ele>
						<time>2026-06-27T19:05:00Z</time>
					</trkpt>
					<trkpt lat="48.012350" lon="-4.483750">
						<ele>98</ele>
						<time>2026-06-27T19:05:06Z</time>
					</trkpt>
					<trkpt lat="48.009600" lon="-4.480020">
						<ele>94</ele>
						<time>2026-06-27T19:06:12Z</time>
					</trkpt>
					<trkpt lat="48.009210" lon="-4.479530">
						<ele>93</ele>
						<time>2026-06-27T19:06:21Z</time>
					</trkpt>
					<trkpt lat="48.008630" lon="-4.478730">
						<ele>93</ele>
						<time>2026-06-27T19:06:35Z</time>
					</trkpt>
					<trkpt lat="48.008090" lon="-4.478060">
						<ele>93</ele>
						<time>2026-06-27T19:06:48Z</time>
					</trkpt>
					<trkpt lat="48.007820" lon="-4.477760">
						<ele>93</ele>
						<time>2026-06-27T19:06:54Z</time>
					</trkpt>
					<trkpt lat="48.007230" lon="-4.477210">
						<ele>94</ele>
						<time>2026-06-27T19:07:06Z</time>
					</trkpt>
					<trkpt lat="48.006750" lon="-4.476810">
						<ele>93</ele>
						<time>2026-06-27T19:07:16Z</time>
					</trkpt>
					<trkpt lat="48.005290" lon="-4.475770">
						<ele>90</ele>
						<time>2026-06-27T19:07:45Z</time>
					</trkpt>
					<trkpt lat="48.004870" lon="-4.475350">
						<ele>90</ele>
						<time>2026-06-27T19:07:54Z</time>
					</trkpt>
					<trkpt lat="48.004560" lon="-4.474860">
						<ele>90</ele>
						<time>2026-06-27T19:08:02Z</time>
					</trkpt>
					<trkpt lat="48.003860" lon="-4.473570">
						<ele>91</ele>
						<time>2026-06-27T19:08:22Z</time>
					</trkpt>
					<trkpt lat="48.003680" lon="-4.473290">
						<ele>91</ele>
						<time>2026-06-27T19:08:26Z</time>
					</trkpt>
					<trkpt lat="48.002470" lon="-4.471740">
						<ele>89</ele>
						<time>2026-06-27T19:08:55Z</time>
					</trkpt>
					<trkpt lat="48.000130" lon="-4.468930">
						<ele>79</ele>
						<time>2026-06-27T19:09:48Z</time>
					</trkpt>
					<trkpt lat="47.999780" lon="-4.468560">
						<ele>77</ele>
						<time>2026-06-27T19:09:56Z</time>
					</trkpt>
					<trkpt lat="47.999550" lon="-4.468410">
						<ele>77</ele>
						<time>2026-06-27T19:10:00Z</time>
					</trkpt>
					<trkpt lat="47.999220" lon="-4.468260">
						<ele>76</ele>
						<time>2026-06-27T19:10:06Z</time>
					</trkpt>
					<trkpt lat="47.997990" lon="-4.468030">
						<ele>71</ele>
						<time>2026-06-27T19:10:28Z</time>
					</trkpt>
					<trkpt lat="47.996640" lon="-4.467740">
						<ele>66</ele>
						<time>2026-06-27T19:10:52Z</time>
					</trkpt>
					<trkpt lat="47.996270" lon="-4.467690">
						<ele>65</ele>
						<time>2026-06-27T19:10:59Z</time>
					</trkpt>
					<trkpt lat="47.995920" lon="-4.467690">
						<ele>63</ele>
						<time>2026-06-27T19:11:05Z</time>
					</trkpt>
					<trkpt lat="47.995440" lon="-4.467780">
						<ele>62</ele>
						<time>2026-06-27T19:11:14Z</time>
					</trkpt>
					<trkpt lat="47.994580" lon="-4.468030">
						<ele>61</ele>
						<time>2026-06-27T19:11:30Z</time>
					</trkpt>
					<trkpt lat="47.994300" lon="-4.468050">
						<ele>61</ele>
						<time>2026-06-27T19:11:35Z</time>
					</trkpt>
					<trkpt lat="47.994040" lon="-4.467990">
						<ele>61</ele>
						<time>2026-06-27T19:11:39Z</time>
					</trkpt>
					<trkpt lat="47.993730" lon="-4.467870">
						<ele>60</ele>
						<time>2026-06-27T19:11:45Z</time>
					</trkpt>
					<trkpt lat="47.993560" lon="-4.467770">
						<ele>60</ele>
						<time>2026-06-27T19:11:48Z</time>
					</trkpt>
					<trkpt lat="47.993370" lon="-4.467590">
						<ele>60</ele>
						<time>2026-06-27T19:11:52Z</time>
					</trkpt>
					<trkpt lat="47.993140" lon="-4.467290">
						<ele>59</ele>
						<time>2026-06-27T19:11:58Z</time>
					</trkpt>
					<trkpt lat="47.992330" lon="-4.466010">
						<ele>54</ele>
						<time>2026-06-27T19:12:19Z</time>
					</trkpt>
					<trkpt lat="47.992190" lon="-4.465830">
						<ele>53</ele>
						<time>2026-06-27T19:12:22Z</time>
					</trkpt>
					<trkpt lat="47.991990" lon="-4.465630">
						<ele>51</ele>
						<time>2026-06-27T19:12:26Z</time>
					</trkpt>
					<trkpt lat="47.991760" lon="-4.465550">
						<ele>49</ele>
						<time>2026-06-27T19:12:30Z</time>
					</trkpt>
					<trkpt lat="47.990480" lon="-4.465430">
						<ele>39</ele>
						<time>2026-06-27T19:12:53Z</time>
					</trkpt>
					<trkpt lat="47.989630" lon="-4.465460">
						<ele>37</ele>
						<time>2026-06-27T19:13:08Z</time>
					</trkpt>
					<trkpt lat="47.989300" lon="-4.465550">
						<ele>36</ele>
						<time>2026-06-27T19:13:14Z</time>
					</trkpt>
					<trkpt lat="47.988600" lon="-4.465820">
						<ele>32</ele>
						<time>2026-06-27T19:13:27Z</time>
					</trkpt>
					<trkpt lat="47.988290" lon="-4.465870">
						<ele>30</ele>
						<time>2026-06-27T19:13:33Z</time>
					</trkpt>
					<trkpt lat="47.988080" lon="-4.465830">
						<ele>28</ele>
						<time>2026-06-27T19:13:36Z</time>
					</trkpt>
					<trkpt lat="47.987940" lon="-4.465770">
						<ele>27</ele>
						<time>2026-06-27T19:13:39Z</time>
					</trkpt>
					<trkpt lat="47.987690" lon="-4.465600">
						<ele>25</ele>
						<time>2026-06-27T19:13:44Z</time>
					</trkpt>
					<trkpt lat="47.987450" lon="-4.465390">
						<ele>23</ele>
						<time>2026-06-27T19:13:49Z</time>
					</trkpt>
					<trkpt lat="47.987110" lon="-4.465160">
						<ele>22</ele>
						<time>2026-06-27T19:13:55Z</time>
					</trkpt>
					<trkpt lat="47.987010" lon="-4.465230">
						<ele>21</ele>
						<time>2026-06-27T19:13:57Z</time>
					</trkpt>
					<trkpt lat="47.986680" lon="-4.465360">
						<ele>21</ele>
						<time>2026-06-27T19:14:04Z</time>
					</trkpt>
					<trkpt lat="47.986640" lon="-4.465510">
						<ele>21</ele>
						<time>2026-06-27T19:14:05Z</time>
					</trkpt>
					<trkpt lat="47.986630" lon="-4.465870">
						<ele>23</ele>
						<time>2026-06-27T19:14:10Z</time>
					</trkpt>
					<trkpt lat="47.986670" lon="-4.466470">
						<ele>25</ele>
						<time>2026-06-27T19:14:17Z</time>
					</trkpt>
					<trkpt lat="47.987220" lon="-4.469420">
						<ele>30</ele>
						<time>2026-06-27T19:14:53Z</time>
					</trkpt>
					<trkpt lat="47.987570" lon="-4.471560">
						<ele>29</ele>
						<time>2026-06-27T19:15:20Z</time>
					</trkpt>
					<trkpt lat="47.987880" lon="-4.473660">
						<ele>29</ele>
						<time>2026-06-27T19:15:45Z</time>
					</trkpt>
					<trkpt lat="47.987940" lon="-4.473930">
						<ele>29</ele>
						<time>2026-06-27T19:15:49Z</time>
					</trkpt>
					<trkpt lat="47.988290" lon="-4.474980">
						<ele>29</ele>
						<time>2026-06-27T19:16:03Z</time>
					</trkpt>
					<trkpt lat="47.988860" lon="-4.476970">
						<ele>15</ele>
						<time>2026-06-27T19:16:28Z</time>
					</trkpt>
					<trkpt lat="47.988990" lon="-4.477230">
						<ele>14</ele>
						<time>2026-06-27T19:16:32Z</time>
					</trkpt>
					<trkpt lat="47.989070" lon="-4.477320">
						<ele>14</ele>
						<time>2026-06-27T19:16:34Z</time>
					</trkpt>
					<trkpt lat="47.989230" lon="-4.477430">
						<ele>14</ele>
						<time>2026-06-27T19:16:37Z</time>
					</trkpt>
					<trkpt lat="47.989380" lon="-4.477490">
						<ele>13</ele>
						<time>2026-06-27T19:16:40Z</time>
					</trkpt>
					<trkpt lat="47.990130" lon="-4.477520">
						<ele>10</ele>
						<time>2026-06-27T19:16:53Z</time>
					</trkpt>
					<trkpt lat="47.990320" lon="-4.477550">
						<ele>10</ele>
						<time>2026-06-27T19:16:57Z</time>
					</trkpt>
					<trkpt lat="47.990590" lon="-4.477660">
						<ele>9</ele>
						<time>2026-06-27T19:17:02Z</time>
					</trkpt>
					<trkpt lat="47.990780" lon="-4.477790">
						<ele>9</ele>
						<time>2026-06-27T19:17:05Z</time>
					</trkpt>
					<trkpt lat="47.992250" lon="-4.479450">
						<ele>15</ele>
						<time>2026-06-27T19:17:38Z</time>
					</trkpt>
					<trkpt lat="47.993770" lon="-4.481080">
						<ele>29</ele>
						<time>2026-06-27T19:18:11Z</time>
					</trkpt>
					<trkpt lat="47.994300" lon="-4.481540">
						<ele>33</ele>
						<time>2026-06-27T19:18:22Z</time>
					</trkpt>
					<trkpt lat="47.994590" lon="-4.481760">
						<ele>35</ele>
						<time>2026-06-27T19:18:28Z</time>
					</trkpt>
					<trkpt lat="47.995210" lon="-4.482380">
						<ele>37</ele>
						<time>2026-06-27T19:18:41Z</time>
					</trkpt>
					<trkpt lat="47.995340" lon="-4.482530">
						<ele>38</ele>
						<time>2026-06-27T19:18:44Z</time>
					</trkpt>
					<trkpt lat="47.996690" lon="-4.484440">
						<ele>47</ele>
						<time>2026-06-27T19:19:17Z</time>
					</trkpt>
					<trkpt lat="47.996820" lon="-4.484660">
						<ele>47</ele>
						<time>2026-06-27T19:19:21Z</time>
					</trkpt>
					<trkpt lat="47.997050" lon="-4.485220">
						<ele>48</ele>
						<time>2026-06-27T19:19:29Z</time>
					</trkpt>
					<trkpt lat="47.997210" lon="-4.485790">
						<ele>48</ele>
						<time>2026-06-27T19:19:36Z</time>
					</trkpt>
					<trkpt lat="47.997570" lon="-4.486740">
						<ele>49</ele>
						<time>2026-06-27T19:19:49Z</time>
					</trkpt>
					<trkpt lat="47.997660" lon="-4.486830">
						<ele>49</ele>
						<time>2026-06-27T19:19:51Z</time>
					</trkpt>
					<trkpt lat="47.997700" lon="-4.486840">
						<ele>49</ele>
						<time>2026-06-27T19:19:52Z</time>
					</trkpt>
					<trkpt lat="47.997830" lon="-4.486770">
						<ele>50</ele>
						<time>2026-06-27T19:19:54Z</time>
					</trkpt>
					<trkpt lat="47.998970" lon="-4.485860">
						<ele>60</ele>
						<time>2026-06-27T19:20:17Z</time>
					</trkpt>
					<trkpt lat="47.999100" lon="-4.485720">
						<ele>61</ele>
						<time>2026-06-27T19:20:20Z</time>
					</trkpt>
					<trkpt lat="47.999300" lon="-4.485440">
						<ele>63</ele>
						<time>2026-06-27T19:20:25Z</time>
					</trkpt>
					<trkpt lat="47.999870" lon="-4.484580">
						<ele>68</ele>
						<time>2026-06-27T19:20:39Z</time>
					</trkpt>
					<trkpt lat="47.999990" lon="-4.484460">
						<ele>70</ele>
						<time>2026-06-27T19:20:42Z</time>
					</trkpt>
					<trkpt lat="48.000100" lon="-4.484390">
						<ele>70</ele>
						<time>2026-06-27T19:20:44Z</time>
					</trkpt>
					<trkpt lat="48.000240" lon="-4.484340">
						<ele>71</ele>
						<time>2026-06-27T19:20:47Z</time>
					</trkpt>
					<trkpt lat="48.000360" lon="-4.484330">
						<ele>71</ele>
						<time>2026-06-27T19:20:49Z</time>
					</trkpt>
					<trkpt lat="48.000500" lon="-4.484360">
						<ele>71</ele>
						<time>2026-06-27T19:20:51Z</time>
					</trkpt>
					<trkpt lat="48.000990" lon="-4.484630">
						<ele>72</ele>
						<time>2026-06-27T19:21:01Z</time>
					</trkpt>
					<trkpt lat="48.002570" lon="-4.485180">
						<ele>77</ele>
						<time>2026-06-27T19:21:29Z</time>
					</trkpt>
					<trkpt lat="48.002780" lon="-4.485210">
						<ele>78</ele>
						<time>2026-06-27T19:21:33Z</time>
					</trkpt>
					<trkpt lat="48.004130" lon="-4.485130">
						<ele>85</ele>
						<time>2026-06-27T19:21:57Z</time>
					</trkpt>
					<trkpt lat="48.004150" lon="-4.485150">
						<ele>86</ele>
						<time>2026-06-27T19:21:58Z</time>
					</trkpt>
					<trkpt lat="48.004170" lon="-4.486590">
						<ele>84</ele>
						<time>2026-06-27T19:22:15Z</time>
					</trkpt>
					<trkpt lat="48.004020" lon="-4.488360">
						<ele>81</ele>
						<time>2026-06-27T19:22:36Z</time>
					</trkpt>
					<trkpt lat="48.003770" lon="-4.490360">
						<ele>71</ele>
						<time>2026-06-27T19:23:00Z</time>
					</trkpt>
					<trkpt lat="48.003770" lon="-4.490690">
						<ele>70</ele>
						<time>2026-06-27T19:23:04Z</time>
					</trkpt>
					<trkpt lat="48.003840" lon="-4.491030">
						<ele>69</ele>
						<time>2026-06-27T19:23:08Z</time>
					</trkpt>
					<trkpt lat="48.004540" lon="-4.493330">
						<ele>63</ele>
						<time>2026-06-27T19:23:38Z</time>
					</trkpt>
					<trkpt lat="48.005000" lon="-4.495480">
						<ele>54</ele>
						<time>2026-06-27T19:24:05Z</time>
					</trkpt>
					<trkpt lat="48.005190" lon="-4.496290">
						<ele>51</ele>
						<time>2026-06-27T19:24:16Z</time>
					</trkpt>
					<trkpt lat="48.005220" lon="-4.496340">
						<ele>51</ele>
						<time>2026-06-27T19:24:16Z</time>
					</trkpt>
					<trkpt lat="48.008470" lon="-4.494520">
						<ele>67</ele>
						<time>2026-06-27T19:25:18Z</time>
					</trkpt>
					<trkpt lat="48.008650" lon="-4.494350">
						<ele>68</ele>
						<time>2026-06-27T19:25:22Z</time>
					</trkpt>
					<trkpt lat="48.008910" lon="-4.493920">
						<ele>70</ele>
						<time>2026-06-27T19:25:29Z</time>
					</trkpt>
					<trkpt lat="48.009110" lon="-4.493730">
						<ele>71</ele>
						<time>2026-06-27T19:25:33Z</time>
					</trkpt>
					<trkpt lat="48.009360" lon="-4.493540">
						<ele>71</ele>
						<time>2026-06-27T19:25:38Z</time>
					</trkpt>
					<trkpt lat="48.009520" lon="-4.493450">
						<ele>72</ele>
						<time>2026-06-27T19:25:41Z</time>
					</trkpt>
					<trkpt lat="48.009470" lon="-4.493360">
						<ele>72</ele>
						<time>2026-06-27T19:25:42Z</time>
					</trkpt>
					<trkpt lat="48.009270" lon="-4.493190">
						<ele>71</ele>
						<time>2026-06-27T19:25:47Z</time>
					</trkpt>
					<trkpt lat="48.009160" lon="-4.493020">
						<ele>71</ele>
						<time>2026-06-27T19:25:49Z</time>
					</trkpt>
					<trkpt lat="48.009070" lon="-4.492520">
						<ele>72</ele>
						<time>2026-06-27T19:25:55Z</time>
					</trkpt>
					<trkpt lat="48.009020" lon="-4.492360">
						<ele>73</ele>
						<time>2026-06-27T19:25:58Z</time>
					</trkpt>
					<trkpt lat="48.008950" lon="-4.492260">
						<ele>73</ele>
						<time>2026-06-27T19:25:59Z</time>
					</trkpt>
					<trkpt lat="48.008730" lon="-4.492050">
						<ele>74</ele>
						<time>2026-06-27T19:26:04Z</time>
					</trkpt>
					<trkpt lat="48.008380" lon="-4.491460">
						<ele>76</ele>
						<time>2026-06-27T19:26:13Z</time>
					</trkpt>
					<trkpt lat="48.008340" lon="-4.491410">
						<ele>76</ele>
						<time>2026-06-27T19:26:14Z</time>
					</trkpt>
					<trkpt lat="48.008190" lon="-4.491350">
						<ele>76</ele>
						<time>2026-06-27T19:26:17Z</time>
					</trkpt>
					<trkpt lat="48.008000" lon="-4.491380">
						<ele>76</ele>
						<time>2026-06-27T19:26:20Z</time>
					</trkpt>
					<trkpt lat="48.007880" lon="-4.491430">
						<ele>76</ele>
						<time>2026-06-27T19:26:23Z</time>
					</trkpt>
					<trkpt lat="48.007850" lon="-4.491350">
						<ele>76</ele>
						<time>2026-06-27T19:26:24Z</time>
					</trkpt>
					<trkpt lat="48.007770" lon="-4.490280">
						<ele>79</ele>
						<time>2026-06-27T19:26:37Z</time>
					</trkpt>
					<trkpt lat="48.007720" lon="-4.489930">
						<ele>80</ele>
						<time>2026-06-27T19:26:41Z</time>
					</trkpt>
					<trkpt lat="48.007360" lon="-4.487920">
						<ele>84</ele>
						<time>2026-06-27T19:27:06Z</time>
					</trkpt>
					<trkpt lat="48.007070" lon="-4.486440">
						<ele>86</ele>
						<time>2026-06-27T19:27:24Z</time>
					</trkpt>
					<trkpt lat="48.006840" lon="-4.485410">
						<ele>87</ele>
						<time>2026-06-27T19:27:37Z</time>
					</trkpt>
					<trkpt lat="48.006860" lon="-4.485310">
						<ele>87</ele>
						<time>2026-06-27T19:27:38Z</time>
					</trkpt>
					<trkpt lat="48.007310" lon="-4.485140">
						<ele>88</ele>
						<time>2026-06-27T19:27:46Z</time>
					</trkpt>
					<trkpt lat="48.008180" lon="-4.485000">
						<ele>87</ele>
						<time>2026-06-27T19:28:02Z</time>
					</trkpt>
					<trkpt lat="48.008350" lon="-4.485000">
						<ele>87</ele>
						<time>2026-06-27T19:28:05Z</time>
					</trkpt>
					<trkpt lat="48.008650" lon="-4.485040">
						<ele>87</ele>
						<time>2026-06-27T19:28:10Z</time>
					</trkpt>
					<trkpt lat="48.008940" lon="-4.485110">
						<ele>88</ele>
						<time>2026-06-27T19:28:16Z</time>
					</trkpt>
					<trkpt lat="48.010240" lon="-4.485230">
						<ele>91</ele>
						<time>2026-06-27T19:28:39Z</time>
					</trkpt>
					<trkpt lat="48.013700" lon="-4.485650">
						<ele>99</ele>
						<time>2026-06-27T19:29:41Z</time>
					</trkpt>
					<trkpt lat="48.013790" lon="-4.485640">
						<ele>100</ele>
						<time>2026-06-27T19:29:42Z</time>
					</trkpt>
					<trkpt lat="48.013830" lon="-4.485680">
						<ele>100</ele>
						<time>2026-06-27T19:29:43Z</time>
					</trkpt>
					<trkpt lat="48.013860" lon="-4.485530">
						<ele>100</ele>
						<time>2026-06-27T19:29:45Z</time>
					</trkpt>
					<trkpt lat="48.013640" lon="-4.484320">
						<ele>100</ele>
						<time>2026-06-27T19:30:00Z</time>
					</trkpt>
					<trkpt lat="48.013280" lon="-4.484330">
						<ele>100</ele>
						<time>2026-06-27T19:30:06Z</time>
					</trkpt>
					<trkpt lat="48.013010" lon="-4.484310">
						<ele>99</ele>
						<time>2026-06-27T19:30:11Z</time>
					</trkpt>
					<trkpt lat="48.012790" lon="-4.484200">
						<ele>99</ele>
						<time>2026-06-27T19:30:15Z</time>
					</trkpt>
					<trkpt lat="48.012630" lon="-4.484070">
						<ele>98</ele>
						<time>2026-06-27T19:30:18Z</time>
					</trkpt>
					<trkpt lat="48.012350" lon="-4.483750">
						<ele>98</ele>
						<time>2026-06-27T19:30:25Z</time>
					</trkpt>
					<trkpt lat="48.009600" lon="-4.480020">
						<ele>94</ele>
						<time>2026-06-27T19:31:31Z</time>
					</trkpt>
					<trkpt lat="48.009210" lon="-4.479530">
						<ele>93</ele>
						<time>2026-06-27T19:31:40Z</time>
					</trkpt>
					<trkpt lat="48.008630" lon="-4.478730">
						<ele>93</ele>
						<time>2026-06-27T19:31:54Z</time>
					</trkpt>
					<trkpt lat="48.008090" lon="-4.478060">
						<ele>93</ele>
						<time>2026-06-27T19:32:06Z</time>
					</trkpt>
					<trkpt lat="48.007820" lon="-4.477760">
						<ele>93</ele>
						<time>2026-06-27T19:32:12Z</time>
					</trkpt>
					<trkpt lat="48.007230" lon="-4.477210">
						<ele>94</ele>
						<time>2026-06-27T19:32:25Z</time>
					</trkpt>
					<trkpt lat="48.006750" lon="-4.476810">
						<ele>93</ele>
						<time>2026-06-27T19:32:34Z</time>
					</trkpt>
					<trkpt lat="48.005290" lon="-4.475770">
						<ele>90</ele>
						<time>2026-06-27T19:33:03Z</time>
					</trkpt>
					<trkpt lat="48.004870" lon="-4.475350">
						<ele>90</ele>
						<time>2026-06-27T19:33:12Z</time>
					</trkpt>
					<trkpt lat="48.004560" lon="-4.474860">
						<ele>90</ele>
						<time>2026-06-27T19:33:20Z</time>
					</trkpt>
					<trkpt lat="48.003860" lon="-4.473570">
						<ele>91</ele>
						<time>2026-06-27T19:33:40Z</time>
					</trkpt>
					<trkpt lat="48.003680" lon="-4.473290">
						<ele>91</ele>
						<time>2026-06-27T19:33:45Z</time>
					</trkpt>
					<trkpt lat="48.002470" lon="-4.471740">
						<ele>89</ele>
						<time>2026-06-27T19:34:13Z</time>
					</trkpt>
					<trkpt lat="48.000130" lon="-4.468930">
						<ele>79</ele>
						<time>2026-06-27T19:35:06Z</time>
					</trkpt>
					<trkpt lat="47.999780" lon="-4.468560">
						<ele>77</ele>
						<time>2026-06-27T19:35:14Z</time>
					</trkpt>
					<trkpt lat="47.999550" lon="-4.468410">
						<ele>77</ele>
						<time>2026-06-27T19:35:18Z</time>
					</trkpt>
					<trkpt lat="47.999220" lon="-4.468260">
						<ele>76</ele>
						<time>2026-06-27T19:35:25Z</time>
					</trkpt>
					<trkpt lat="47.997990" lon="-4.468030">
						<ele>71</ele>
						<time>2026-06-27T19:35:47Z</time>
					</trkpt>
					<trkpt lat="47.996640" lon="-4.467740">
						<ele>66</ele>
						<time>2026-06-27T19:36:11Z</time>
					</trkpt>
					<trkpt lat="47.996270" lon="-4.467690">
						<ele>65</ele>
						<time>2026-06-27T19:36:18Z</time>
					</trkpt>
					<trkpt lat="47.995920" lon="-4.467690">
						<ele>63</ele>
						<time>2026-06-27T19:36:24Z</time>
					</trkpt>
					<trkpt lat="47.995440" lon="-4.467780">
						<ele>62</ele>
						<time>2026-06-27T19:36:32Z</time>
					</trkpt>
					<trkpt lat="47.994580" lon="-4.468030">
						<ele>61</ele>
						<time>2026-06-27T19:36:48Z</time>
					</trkpt>
					<trkpt lat="47.994300" lon="-4.468050">
						<ele>61</ele>
						<time>2026-06-27T19:36:53Z</time>
					</trkpt>
					<trkpt lat="47.994040" lon="-4.467990">
						<ele>61</ele>
						<time>2026-06-27T19:36:58Z</time>
					</trkpt>
					<trkpt lat="47.993730" lon="-4.467870">
						<ele>60</ele>
						<time>2026-06-27T19:37:03Z</time>
					</trkpt>
					<trkpt lat="47.993560" lon="-4.467770">
						<ele>60</ele>
						<time>2026-06-27T19:37:07Z</time>
					</trkpt>
					<trkpt lat="47.993370" lon="-4.467590">
						<ele>60</ele>
						<time>2026-06-27T19:37:11Z</time>
					</trkpt>
					<trkpt lat="47.993140" lon="-4.467290">
						<ele>59</ele>
						<time>2026-06-27T19:37:16Z</time>
					</trkpt>
					<trkpt lat="47.992330" lon="-4.466010">
						<ele>54</ele>
						<time>2026-06-27T19:37:37Z</time>
					</trkpt>
					<trkpt lat="47.992190" lon="-4.465830">
						<ele>53</ele>
						<time>2026-06-27T19:37:40Z</time>
					</trkpt>
					<trkpt lat="47.991990" lon="-4.465630">
						<ele>51</ele>
						<time>2026-06-27T19:37:45Z</time>
					</trkpt>
					<trkpt lat="47.991760" lon="-4.465550">
						<ele>49</ele>
						<time>2026-06-27T19:37:49Z</time>
					</trkpt>
					<trkpt lat="47.990480" lon="-4.465430">
						<ele>39</ele>
						<time>2026-06-27T19:38:12Z</time>
					</trkpt>
					<trkpt lat="47.989630" lon="-4.465460">
						<ele>37</ele>
						<time>2026-06-27T19:38:27Z</time>
					</trkpt>
					<trkpt lat="47.989300" lon="-4.465550">
						<ele>36</ele>
						<time>2026-06-27T19:38:33Z</time>
					</trkpt>
					<trkpt lat="47.988600" lon="-4.465820">
						<ele>32</ele>
						<time>2026-06-27T19:38:46Z</time>
					</trkpt>
					<trkpt lat="47.988290" lon="-4.465870">
						<ele>30</ele>
						<time>2026-06-27T19:38:51Z</time>
					</trkpt>
					<trkpt lat="47.988080" lon="-4.465830">
						<ele>28</ele>
						<time>2026-06-27T19:38:55Z</time>
					</trkpt>
					<trkpt lat="47.987940" lon="-4.465770">
						<ele>27</ele>
						<time>2026-06-27T19:38:57Z</time>
					</trkpt>
					<trkpt lat="47.987690" lon="-4.465600">
						<ele>25</ele>
						<time>2026-06-27T19:39:02Z</time>
					</trkpt>
					<trkpt lat="47.987450" lon="-4.465390">
						<ele>23</ele>
						<time>2026-06-27T19:39:07Z</time>
					</trkpt>
					<trkpt lat="47.987110" lon="-4.465160">
						<ele>22</ele>
						<time>2026-06-27T19:39:14Z</time>
					</trkpt>
					<trkpt lat="47.987010" lon="-4.465230">
						<ele>21</ele>
						<time>2026-06-27T19:39:16Z</time>
					</trkpt>
					<trkpt lat="47.986680" lon="-4.465360">
						<ele>21</ele>
						<time>2026-06-27T19:39:22Z</time>
					</trkpt>
					<trkpt lat="47.986640" lon="-4.465510">
						<ele>21</ele>
						<time>2026-06-27T19:39:24Z</time>
					</trkpt>
					<trkpt lat="47.986630" lon="-4.465870">
						<ele>23</ele>
						<time>2026-06-27T19:39:28Z</time>
					</trkpt>
					<trkpt lat="47.986670" lon="-4.466470">
						<ele>25</ele>
						<time>2026-06-27T19:39:35Z</time>
					</trkpt>
					<trkpt lat="47.987220" lon="-4.469420">
						<ele>30</ele>
						<time>2026-06-27T19:40:12Z</time>
					</trkpt>
					<trkpt lat="47.987570" lon="-4.471560">
						<ele>29</ele>
						<time>2026-06-27T19:40:38Z</time>
					</trkpt>
					<trkpt lat="47.987880" lon="-4.473660">
						<ele>29</ele>
						<time>2026-06-27T19:41:04Z</time>
					</trkpt>
					<trkpt lat="47.987940" lon="-4.473930">
						<ele>29</ele>
						<time>2026-06-27T19:41:07Z</time>
					</trkpt>
					<trkpt lat="47.988290" lon="-4.474980">
						<ele>29</ele>
						<time>2026-06-27T19:41:21Z</time>
					</trkpt>
					<trkpt lat="47.988860" lon="-4.476970">
						<ele>15</ele>
						<time>2026-06-27T19:41:47Z</time>
					</trkpt>
					<trkpt lat="47.988990" lon="-4.477230">
						<ele>14</ele>
						<time>2026-06-27T19:41:51Z</time>
					</trkpt>
					<trkpt lat="47.989070" lon="-4.477320">
						<ele>14</ele>
						<time>2026-06-27T19:41:52Z</time>
					</trkpt>
					<trkpt lat="47.989230" lon="-4.477430">
						<ele>14</ele>
						<time>2026-06-27T19:41:56Z</time>
					</trkpt>
					<trkpt lat="47.989380" lon="-4.477490">
						<ele>13</ele>
						<time>2026-06-27T19:41:58Z</time>
					</trkpt>
					<trkpt lat="47.990130" lon="-4.477520">
						<ele>10</ele>
						<time>2026-06-27T19:42:12Z</time>
					</trkpt>
					<trkpt lat="47.990320" lon="-4.477550">
						<ele>10</ele>
						<time>2026-06-27T19:42:15Z</time>
					</trkpt>
					<trkpt lat="47.990590" lon="-4.477660">
						<ele>9</ele>
						<time>2026-06-27T19:42:20Z</time>
					</trkpt>
					<trkpt lat="47.990780" lon="-4.477790">
						<ele>9</ele>
						<time>2026-06-27T19:42:24Z</time>
					</trkpt>
					<trkpt lat="47.992250" lon="-4.479450">
						<ele>15</ele>
						<time>2026-06-27T19:42:57Z</time>
					</trkpt>
					<trkpt lat="47.993770" lon="-4.481080">
						<ele>29</ele>
						<time>2026-06-27T19:43:30Z</time>
					</trkpt>
					<trkpt lat="47.994300" lon="-4.481540">
						<ele>33</ele>
						<time>2026-06-27T19:43:41Z</time>
					</trkpt>
					<trkpt lat="47.994590" lon="-4.481760">
						<ele>35</ele>
						<time>2026-06-27T19:43:47Z</time>
					</trkpt>
					<trkpt lat="47.995210" lon="-4.482380">
						<ele>37</ele>
						<time>2026-06-27T19:44:00Z</time>
					</trkpt>
					<trkpt lat="47.995340" lon="-4.482530">
						<ele>38</ele>
						<time>2026-06-27T19:44:03Z</time>
					</trkpt>
					<trkpt lat="47.996690" lon="-4.484440">
						<ele>47</ele>
						<time>2026-06-27T19:44:36Z</time>
					</trkpt>
					<trkpt lat="47.996820" lon="-4.484660">
						<ele>47</ele>
						<time>2026-06-27T19:44:39Z</time>
					</trkpt>
					<trkpt lat="47.997050" lon="-4.485220">
						<ele>48</ele>
						<time>2026-06-27T19:44:47Z</time>
					</trkpt>
					<trkpt lat="47.997210" lon="-4.485790">
						<ele>48</ele>
						<time>2026-06-27T19:44:54Z</time>
					</trkpt>
					<trkpt lat="47.997570" lon="-4.486740">
						<ele>49</ele>
						<time>2026-06-27T19:45:07Z</time>
					</trkpt>
					<trkpt lat="47.997660" lon="-4.486830">
						<ele>49</ele>
						<time>2026-06-27T19:45:09Z</time>
					</trkpt>
					<trkpt lat="47.997700" lon="-4.486840">
						<ele>49</ele>
						<time>2026-06-27T19:45:10Z</time>
					</trkpt>
					<trkpt lat="47.997830" lon="-4.486770">
						<ele>50</ele>
						<time>2026-06-27T19:45:13Z</time>
					</trkpt>
					<trkpt lat="47.998970" lon="-4.485860">
						<ele>60</ele>
						<time>2026-06-27T19:45:36Z</time>
					</trkpt>
					<trkpt lat="47.999100" lon="-4.485720">
						<ele>61</ele>
						<time>2026-06-27T19:45:38Z</time>
					</trkpt>
					<trkpt lat="47.999300" lon="-4.485440">
						<ele>63</ele>
						<time>2026-06-27T19:45:43Z</time>
					</trkpt>
					<trkpt lat="47.999870" lon="-4.484580">
						<ele>68</ele>
						<time>2026-06-27T19:45:58Z</time>
					</trkpt>
					<trkpt lat="47.999990" lon="-4.484460">
						<ele>70</ele>
						<time>2026-06-27T19:46:00Z</time>
					</trkpt>
					<trkpt lat="48.000100" lon="-4.484390">
						<ele>70</ele>
						<time>2026-06-27T19:46:02Z</time>
					</trkpt>
					<trkpt lat="48.000240" lon="-4.484340">
						<ele>71</ele>
						<time>2026-06-27T19:46:05Z</time>
					</trkpt>
					<trkpt lat="48.000360" lon="-4.484330">
						<ele>71</ele>
						<time>2026-06-27T19:46:07Z</time>
					</trkpt>
					<trkpt lat="48.000500" lon="-4.484360">
						<ele>71</ele>
						<time>2026-06-27T19:46:10Z</time>
					</trkpt>
					<trkpt lat="48.000990" lon="-4.484630">
						<ele>72</ele>
						<time>2026-06-27T19:46:19Z</time>
					</trkpt>
					<trkpt lat="48.002570" lon="-4.485180">
						<ele>77</ele>
						<time>2026-06-27T19:46:48Z</time>
					</trkpt>
					<trkpt lat="48.002780" lon="-4.485210">
						<ele>78</ele>
						<time>2026-06-27T19:46:52Z</time>
					</trkpt>
					<trkpt lat="48.004130" lon="-4.485130">
						<ele>85</ele>
						<time>2026-06-27T19:47:16Z</time>
					</trkpt>
					<trkpt lat="48.004150" lon="-4.485150">
						<ele>86</ele>
						<time>2026-06-27T19:47:16Z</time>
					</trkpt>
					<trkpt lat="48.004170" lon="-4.486590">
						<ele>84</ele>
						<time>2026-06-27T19:47:33Z</time>
					</trkpt>
					<trkpt lat="48.004020" lon="-4.488360">
						<ele>81</ele>
						<time>2026-06-27T19:47:54Z</time>
					</trkpt>
					<trkpt lat="48.003770" lon="-4.490360">
						<ele>71</ele>
						<time>2026-06-27T19:48:19Z</time>
					</trkpt>
					<trkpt lat="48.003770" lon="-4.490690">
						<ele>70</ele>
						<time>2026-06-27T19:48:23Z</time>
					</trkpt>
					<trkpt lat="48.003840" lon="-4.491030">
						<ele>69</ele>
						<time>2026-06-27T19:48:27Z</time>
					</trkpt>
					<trkpt lat="48.004540" lon="-4.493330">
						<ele>63</ele>
						<time>2026-06-27T19:48:57Z</time>
					</trkpt>
					<trkpt lat="48.005000" lon="-4.495480">
						<ele>54</ele>
						<time>2026-06-27T19:49:24Z</time>
					</trkpt>
					<trkpt lat="48.005190" lon="-4.496290">
						<ele>51</ele>
						<time>2026-06-27T19:49:34Z</time>
					</trkpt>
					<trkpt lat="48.005220" lon="-4.496340">
						<ele>51</ele>
						<time>2026-06-27T19:49:35Z</time>
					</trkpt>
					<trkpt lat="48.008470" lon="-4.494520">
						<ele>67</ele>
						<time>2026-06-27T19:50:37Z</time>
					</trkpt>
					<trkpt lat="48.008650" lon="-4.494350">
						<ele>68</ele>
						<time>2026-06-27T19:50:40Z</time>
					</trkpt>
					<trkpt lat="48.008910" lon="-4.493920">
						<ele>70</ele>
						<time>2026-06-27T19:50:47Z</time>
					</trkpt>
					<trkpt lat="48.009110" lon="-4.493730">
						<ele>71</ele>
						<time>2026-06-27T19:50:51Z</time>
					</trkpt>
					<trkpt lat="48.009360" lon="-4.493540">
						<ele>71</ele>
						<time>2026-06-27T19:50:56Z</time>
					</trkpt>
					<trkpt lat="48.009520" lon="-4.493450">
						<ele>72</ele>
						<time>2026-06-27T19:50:59Z</time>
					</trkpt>
					<trkpt lat="48.009470" lon="-4.493360">
						<ele>72</ele>
						<time>2026-06-27T19:51:01Z</time>
					</trkpt>
					<trkpt lat="48.009270" lon="-4.493190">
						<ele>71</ele>
						<time>2026-06-27T19:51:05Z</time>
					</trkpt>
					<trkpt lat="48.009160" lon="-4.493020">
						<ele>71</ele>
						<time>2026-06-27T19:51:08Z</time>
					</trkpt>
					<trkpt lat="48.009070" lon="-4.492520">
						<ele>72</ele>
						<time>2026-06-27T19:51:14Z</time>
					</trkpt>
					<trkpt lat="48.009020" lon="-4.492360">
						<ele>73</ele>
						<time>2026-06-27T19:51:16Z</time>
					</trkpt>
					<trkpt lat="48.008950" lon="-4.492260">
						<ele>73</ele>
						<time>2026-06-27T19:51:18Z</time>
					</trkpt>
					<trkpt lat="48.008730" lon="-4.492050">
						<ele>74</ele>
						<time>2026-06-27T19:51:22Z</time>
					</trkpt>
					<trkpt lat="48.008380" lon="-4.491460">
						<ele>76</ele>
						<time>2026-06-27T19:51:32Z</time>
					</trkpt>
					<trkpt lat="48.008340" lon="-4.491410">
						<ele>76</ele>
						<time>2026-06-27T19:51:33Z</time>
					</trkpt>
					<trkpt lat="48.008190" lon="-4.491350">
						<ele>76</ele>
						<time>2026-06-27T19:51:35Z</time>
					</trkpt>
					<trkpt lat="48.008000" lon="-4.491380">
						<ele>76</ele>
						<time>2026-06-27T19:51:39Z</time>
					</trkpt>
					<trkpt lat="48.007880" lon="-4.491430">
						<ele>76</ele>
						<time>2026-06-27T19:51:41Z</time>
					</trkpt>
					<trkpt lat="48.007850" lon="-4.491350">
						<ele>76</ele>
						<time>2026-06-27T19:51:42Z</time>
					</trkpt>
					<trkpt lat="48.007770" lon="-4.490280">
						<ele>79</ele>
						<time>2026-06-27T19:51:55Z</time>
					</trkpt>
					<trkpt lat="48.007720" lon="-4.489930">
						<ele>80</ele>
						<time>2026-06-27T19:51:59Z</time>
					</trkpt>
					<trkpt lat="48.007360" lon="-4.487920">
						<ele>84</ele>
						<time>2026-06-27T19:52:24Z</time>
					</trkpt>
					<trkpt lat="48.007070" lon="-4.486440">
						<ele>86</ele>
						<time>2026-06-27T19:52:42Z</time>
					</trkpt>
					<trkpt lat="48.006840" lon="-4.485410">
						<ele>87</ele>
						<time>2026-06-27T19:52:55Z</time>
					</trkpt>
					<trkpt lat="48.006860" lon="-4.485310">
						<ele>87</ele>
						<time>2026-06-27T19:52:57Z</time>
					</trkpt>
					<trkpt lat="48.007310" lon="-4.485140">
						<ele>88</ele>
						<time>2026-06-27T19:53:05Z</time>
					</trkpt>
					<trkpt lat="48.008180" lon="-4.485000">
						<ele>87</ele>
						<time>2026-06-27T19:53:20Z</time>
					</trkpt>
					<trkpt lat="48.008350" lon="-4.485000">
						<ele>87</ele>
						<time>2026-06-27T19:53:23Z</time>
					</trkpt>
					<trkpt lat="48.008650" lon="-4.485040">
						<ele>87</ele>
						<time>2026-06-27T19:53:29Z</time>
					</trkpt>
					<trkpt lat="48.008940" lon="-4.485110">
						<ele>88</ele>
						<time>2026-06-27T19:53:34Z</time>
					</trkpt>
					<trkpt lat="48.010240" lon="-4.485230">
						<ele>91</ele>
						<time>2026-06-27T19:53:57Z</time>
					</trkpt>
					<trkpt lat="48.013700" lon="-4.485650">
						<ele>99</ele>
						<time>2026-06-27T19:54:59Z</time>
					</trkpt>
					<trkpt lat="48.013790" lon="-4.485640">
						<ele>100</ele>
						<time>2026-06-27T19:55:01Z</time>
					</trkpt>
					<trkpt lat="48.013830" lon="-4.485680">
						<ele>100</ele>
						<time>2026-06-27T19:55:01Z</time>
					</trkpt>
					<trkpt lat="48.013860" lon="-4.485530">
						<ele>100</ele>
						<time>2026-06-27T19:55:03Z</time>
					</trkpt>
					<trkpt lat="48.013640" lon="-4.484320">
						<ele>100</ele>
						<time>2026-06-27T19:55:18Z</time>
					</trkpt>
					<trkpt lat="48.013280" lon="-4.484330">
						<ele>100</ele>
						<time>2026-06-27T19:55:25Z</time>
					</trkpt>
					<trkpt lat="48.013010" lon="-4.484310">
						<ele>99</ele>
						<time>2026-06-27T19:55:29Z</time>
					</trkpt>
					<trkpt lat="48.012790" lon="-4.484200">
						<ele>99</ele>
						<time>2026-06-27T19:55:34Z</time>
					</trkpt>
					<trkpt lat="48.012630" lon="-4.484070">
						<ele>98</ele>
						<time>2026-06-27T19:55:37Z</time>
					</trkpt>
					<trkpt lat="48.012350" lon="-4.483750">
						<ele>98</ele>
						<time>2026-06-27T19:55:43Z</time>
					</trkpt>
					<trkpt lat="48.009600" lon="-4.480020">
						<ele>94</ele>
						<time>2026-06-27T19:56:49Z</time>
					</trkpt>
					<trkpt lat="48.009210" lon="-4.479530">
						<ele>93</ele>
						<time>2026-06-27T19:56:58Z</time>
					</trkpt>
					<trkpt lat="48.008630" lon="-4.478730">
						<ele>93</ele>
						<time>2026-06-27T19:57:12Z</time>
					</trkpt>
					<trkpt lat="48.008090" lon="-4.478060">
						<ele>93</ele>
						<time>2026-06-27T19:57:25Z</time>
					</trkpt>
					<trkpt lat="48.007820" lon="-4.477760">
						<ele>93</ele>
						<time>2026-06-27T19:57:31Z</time>
					</trkpt>
					<trkpt lat="48.007230" lon="-4.477210">
						<ele>94</ele>
						<time>2026-06-27T19:57:43Z</time>
					</trkpt>
					<trkpt lat="48.006750" lon="-4.476810">
						<ele>93</ele>
						<time>2026-06-27T19:57:53Z</time>
					</trkpt>
					<trkpt lat="48.005290" lon="-4.475770">
						<ele>90</ele>
						<time>2026-06-27T19:58:22Z</time>
					</trkpt>
					<trkpt lat="48.004870" lon="-4.475350">
						<ele>90</ele>
						<time>2026-06-27T19:58:31Z</time>
					</trkpt>
					<trkpt lat="48.004560" lon="-4.474860">
						<ele>90</ele>
						<time>2026-06-27T19:58:39Z</time>
					</trkpt>
					<trkpt lat="48.003860" lon="-4.473570">
						<ele>91</ele>
						<time>2026-06-27T19:58:58Z</time>
					</trkpt>
					<trkpt lat="48.003680" lon="-4.473290">
						<ele>91</ele>
						<time>2026-06-27T19:59:03Z</time>
					</trkpt>
					<trkpt lat="48.002470" lon="-4.471740">
						<ele>89</ele>
						<time>2026-06-27T19:59:31Z</time>
					</trkpt>
					<trkpt lat="48.000130" lon="-4.468930">
						<ele>79</ele>
						<time>2026-06-27T20:00:25Z</time>
					</trkpt>
					<trkpt lat="47.999780" lon="-4.468560">
						<ele>77</ele>
						<time>2026-06-27T20:00:32Z</time>
					</trkpt>
					<trkpt lat="47.999550" lon="-4.468410">
						<ele>77</ele>
						<time>2026-06-27T20:00:37Z</time>
					</trkpt>
					<trkpt lat="47.999220" lon="-4.468260">
						<ele>76</ele>
						<time>2026-06-27T20:00:43Z</time>
					</trkpt>
					<trkpt lat="47.997990" lon="-4.468030">
						<ele>71</ele>
						<time>2026-06-27T20:01:05Z</time>
					</trkpt>
					<trkpt lat="47.996640" lon="-4.467740">
						<ele>66</ele>
						<time>2026-06-27T20:01:29Z</time>
					</trkpt>
					<trkpt lat="47.996270" lon="-4.467690">
						<ele>65</ele>
						<time>2026-06-27T20:01:36Z</time>
					</trkpt>
					<trkpt lat="47.995920" lon="-4.467690">
						<ele>63</ele>
						<time>2026-06-27T20:01:42Z</time>
					</trkpt>
					<trkpt lat="47.995440" lon="-4.467780">
						<ele>62</ele>
						<time>2026-06-27T20:01:51Z</time>
					</trkpt>
					<trkpt lat="47.994580" lon="-4.468030">
						<ele>61</ele>
						<time>2026-06-27T20:02:06Z</time>
					</trkpt>
					<trkpt lat="47.994300" lon="-4.468050">
						<ele>61</ele>
						<time>2026-06-27T20:02:11Z</time>
					</trkpt>
					<trkpt lat="47.994040" lon="-4.467990">
						<ele>61</ele>
						<time>2026-06-27T20:02:16Z</time>
					</trkpt>
					<trkpt lat="47.993730" lon="-4.467870">
						<ele>60</ele>
						<time>2026-06-27T20:02:22Z</time>
					</trkpt>
					<trkpt lat="47.993560" lon="-4.467770">
						<ele>60</ele>
						<time>2026-06-27T20:02:25Z</time>
					</trkpt>
					<trkpt lat="47.993370" lon="-4.467590">
						<ele>60</ele>
						<time>2026-06-27T20:02:29Z</time>
					</trkpt>
					<trkpt lat="47.993140" lon="-4.467290">
						<ele>59</ele>
						<time>2026-06-27T20:02:34Z</time>
					</trkpt>
					<trkpt lat="47.992330" lon="-4.466010">
						<ele>54</ele>
						<time>2026-06-27T20:02:55Z</time>
					</trkpt>
					<trkpt lat="47.992190" lon="-4.465830">
						<ele>53</ele>
						<time>2026-06-27T20:02:59Z</time>
					</trkpt>
					<trkpt lat="47.991990" lon="-4.465630">
						<ele>51</ele>
						<time>2026-06-27T20:03:03Z</time>
					</trkpt>
					<trkpt lat="47.991760" lon="-4.465550">
						<ele>49</ele>
						<time>2026-06-27T20:03:07Z</time>
					</trkpt>
					<trkpt lat="47.990480" lon="-4.465430">
						<ele>39</ele>
						<time>2026-06-27T20:03:30Z</time>
					</trkpt>
					<trkpt lat="47.989630" lon="-4.465460">
						<ele>37</ele>
						<time>2026-06-27T20:03:45Z</time>
					</trkpt>
					<trkpt lat="47.989300" lon="-4.465550">
						<ele>36</ele>
						<time>2026-06-27T20:03:51Z</time>
					</trkpt>
					<trkpt lat="47.988600" lon="-4.465820">
						<ele>32</ele>
						<time>2026-06-27T20:04:04Z</time>
					</trkpt>
					<trkpt lat="47.988290" lon="-4.465870">
						<ele>30</ele>
						<time>2026-06-27T20:04:10Z</time>
					</trkpt>
					<trkpt lat="47.988080" lon="-4.465830">
						<ele>28</ele>
						<time>2026-06-27T20:04:13Z</time>
					</trkpt>
					<trkpt lat="47.987940" lon="-4.465770">
						<ele>27</ele>
						<time>2026-06-27T20:04:16Z</time>
					</trkpt>
					<trkpt lat="47.987690" lon="-4.465600">
						<ele>25</ele>
						<time>2026-06-27T20:04:21Z</time>
					</trkpt>
					<trkpt lat="47.987450" lon="-4.465390">
						<ele>23</ele>
						<time>2026-06-27T20:04:26Z</time>
					</trkpt>
					<trkpt lat="47.987110" lon="-4.465160">
						<ele>22</ele>
						<time>2026-06-27T20:04:32Z</time>
					</trkpt>
					<trkpt lat="47.987010" lon="-4.465230">
						<ele>21</ele>
						<time>2026-06-27T20:04:34Z</time>
					</trkpt>
					<trkpt lat="47.986680" lon="-4.465360">
						<ele>21</ele>
						<time>2026-06-27T20:04:40Z</time>
					</trkpt>
					<trkpt lat="47.986640" lon="-4.465510">
						<ele>21</ele>
						<time>2026-06-27T20:04:42Z</time>
					</trkpt>
					<trkpt lat="47.986630" lon="-4.465870">
						<ele>23</ele>
						<time>2026-06-27T20:04:47Z</time>
					</trkpt>
					<trkpt lat="47.986670" lon="-4.466470">
						<ele>25</ele>
						<time>2026-06-27T20:04:54Z</time>
					</trkpt>
					<trkpt lat="47.987220" lon="-4.469420">
						<ele>30</ele>
						<time>2026-06-27T20:05:30Z</time>
					</trkpt>
					<trkpt lat="47.987570" lon="-4.471560">
						<ele>29</ele>
						<time>2026-06-27T20:05:56Z</time>
					</trkpt>
					<trkpt lat="47.987880" lon="-4.473660">
						<ele>29</ele>
						<time>2026-06-27T20:06:22Z</time>
					</trkpt>
					<trkpt lat="47.987940" lon="-4.473930">
						<ele>29</ele>
						<time>2026-06-27T20:06:25Z</time>
					</trkpt>
					<trkpt lat="47.988290" lon="-4.474980">
						<ele>29</ele>
						<time>2026-06-27T20:06:39Z</time>
					</trkpt>
					<trkpt lat="47.988860" lon="-4.476970">
						<ele>15</ele>
						<time>2026-06-27T20:07:05Z</time>
					</trkpt>
					<trkpt lat="47.988990" lon="-4.477230">
						<ele>14</ele>
						<time>2026-06-27T20:07:09Z</time>
					</trkpt>
					<trkpt lat="47.989070" lon="-4.477320">
						<ele>14</ele>
						<time>2026-06-27T20:07:11Z</time>
					</trkpt>
					<trkpt lat="47.989230" lon="-4.477430">
						<ele>14</ele>
						<time>2026-06-27T20:07:14Z</time>
					</trkpt>
					<trkpt lat="47.989380" lon="-4.477490">
						<ele>13</ele>
						<time>2026-06-27T20:07:17Z</time>
					</trkpt>
					<trkpt lat="47.990130" lon="-4.477520">
						<ele>10</ele>
						<time>2026-06-27T20:07:30Z</time>
					</trkpt>
					<trkpt lat="47.990320" lon="-4.477550">
						<ele>10</ele>
						<time>2026-06-27T20:07:34Z</time>
					</trkpt>
					<trkpt lat="47.990590" lon="-4.477660">
						<ele>9</ele>
						<time>2026-06-27T20:07:38Z</time>
					</trkpt>
					<trkpt lat="47.990780" lon="-4.477790">
						<ele>9</ele>
						<time>2026-06-27T20:07:42Z</time>
					</trkpt>
					<trkpt lat="47.992250" lon="-4.479450">
						<ele>15</ele>
						<time>2026-06-27T20:08:15Z</time>
					</trkpt>
					<trkpt lat="47.993770" lon="-4.481080">
						<ele>29</ele>
						<time>2026-06-27T20:08:48Z</time>
					</trkpt>
					<trkpt lat="47.994300" lon="-4.481540">
						<ele>33</ele>
						<time>2026-06-27T20:08:59Z</time>
					</trkpt>
					<trkpt lat="47.994590" lon="-4.481760">
						<ele>35</ele>
						<time>2026-06-27T20:09:05Z</time>
					</trkpt>
					<trkpt lat="47.995210" lon="-4.482380">
						<ele>37</ele>
						<time>2026-06-27T20:09:18Z</time>
					</trkpt>
					<trkpt lat="47.995340" lon="-4.482530">
						<ele>38</ele>
						<time>2026-06-27T20:09:21Z</time>
					</trkpt>
					<trkpt lat="47.996690" lon="-4.484440">
						<ele>47</ele>
						<time>2026-06-27T20:09:54Z</time>
					</trkpt>
					<trkpt lat="47.996820" lon="-4.484660">
						<ele>47</ele>
						<time>2026-06-27T20:09:58Z</time>
					</trkpt>
					<trkpt lat="47.997050" lon="-4.485220">
						<ele>48</ele>
						<time>2026-06-27T20:10:06Z</time>
					</trkpt>
					<trkpt lat="47.997210" lon="-4.485790">
						<ele>48</ele>
						<time>2026-06-27T20:10:13Z</time>
					</trkpt>
					<trkpt lat="47.997570" lon="-4.486740">
						<ele>49</ele>
						<time>2026-06-27T20:10:26Z</time>
					</trkpt>
					<trkpt lat="47.997660" lon="-4.486830">
						<ele>49</ele>
						<time>2026-06-27T20:10:28Z</time>
					</trkpt>
					<trkpt lat="47.997700" lon="-4.486840">
						<ele>49</ele>
						<time>2026-06-27T20:10:29Z</time>
					</trkpt>
					<trkpt lat="47.997830" lon="-4.486770">
						<ele>50</ele>
						<time>2026-06-27T20:10:31Z</time>
					</trkpt>
					<trkpt lat="47.998970" lon="-4.485860">
						<ele>60</ele>
						<time>2026-06-27T20:10:54Z</time>
					</trkpt>
					<trkpt lat="47.999100" lon="-4.485720">
						<ele>61</ele>
						<time>2026-06-27T20:10:57Z</time>
					</trkpt>
					<trkpt lat="47.999300" lon="-4.485440">
						<ele>63</ele>
						<time>2026-06-27T20:11:02Z</time>
					</trkpt>
					<trkpt lat="47.999870" lon="-4.484580">
						<ele>68</ele>
						<time>2026-06-27T20:11:16Z</time>
					</trkpt>
					<trkpt lat="47.999990" lon="-4.484460">
						<ele>70</ele>
						<time>2026-06-27T20:11:19Z</time>
					</trkpt>
					<trkpt lat="48.000100" lon="-4.484390">
						<ele>70</ele>
						<time>2026-06-27T20:11:21Z</time>
					</trkpt>
					<trkpt lat="48.000240" lon="-4.484340">
						<ele>71</ele>
						<time>2026-06-27T20:11:23Z</time>
					</trkpt>
					<trkpt lat="48.000360" lon="-4.484330">
						<ele>71</ele>
						<time>2026-06-27T20:11:26Z</time>
					</trkpt>
					<trkpt lat="48.000500" lon="-4.484360">
						<ele>71</ele>
						<time>2026-06-27T20:11:28Z</time>
					</trkpt>
					<trkpt lat="48.000990" lon="-4.484630">
						<ele>72</ele>
						<time>2026-06-27T20:11:37Z</time>
					</trkpt>
					<trkpt lat="48.002570" lon="-4.485180">
						<ele>77</ele>
						<time>2026-06-27T20:12:06Z</time>
					</trkpt>
					<trkpt lat="48.002780" lon="-4.485210">
						<ele>78</ele>
						<time>2026-06-27T20:12:10Z</time>
					</trkpt>
					<trkpt lat="48.004130" lon="-4.485130">
						<ele>85</ele>
						<time>2026-06-27T20:12:34Z</time>
					</trkpt>
					<trkpt lat="48.004150" lon="-4.485150">
						<ele>86</ele>
						<time>2026-06-27T20:12:34Z</time>
					</trkpt>
					<trkpt lat="48.004170" lon="-4.486590">
						<ele>84</ele>
						<time>2026-06-27T20:12:52Z</time>
					</trkpt>
					<trkpt lat="48.004020" lon="-4.488360">
						<ele>81</ele>
						<time>2026-06-27T20:13:13Z</time>
					</trkpt>
					<trkpt lat="48.003770" lon="-4.490360">
						<ele>71</ele>
						<time>2026-06-27T20:13:37Z</time>
					</trkpt>
					<trkpt lat="48.003770" lon="-4.490690">
						<ele>70</ele>
						<time>2026-06-27T20:13:41Z</time>
					</trkpt>
					<trkpt lat="48.003840" lon="-4.491030">
						<ele>69</ele>
						<time>2026-06-27T20:13:45Z</time>
					</trkpt>
					<trkpt lat="48.004540" lon="-4.493330">
						<ele>63</ele>
						<time>2026-06-27T20:14:15Z</time>
					</trkpt>
					<trkpt lat="48.005000" lon="-4.495480">
						<ele>54</ele>
						<time>2026-06-27T20:14:42Z</time>
					</trkpt>
					<trkpt lat="48.005190" lon="-4.496290">
						<ele>51</ele>
						<time>2026-06-27T20:14:52Z</time>
					</trkpt>
					<trkpt lat="48.005220" lon="-4.496340">
						<ele>51</ele>
						<time>2026-06-27T20:14:53Z</time>
					</trkpt>
					<trkpt lat="48.008470" lon="-4.494520">
						<ele>67</ele>
						<time>2026-06-27T20:15:55Z</time>
					</trkpt>
					<trkpt lat="48.008650" lon="-4.494350">
						<ele>68</ele>
						<time>2026-06-27T20:15:59Z</time>
					</trkpt>
					<trkpt lat="48.008910" lon="-4.493920">
						<ele>70</ele>
						<time>2026-06-27T20:16:06Z</time>
					</trkpt>
					<trkpt lat="48.009110" lon="-4.493730">
						<ele>71</ele>
						<time>2026-06-27T20:16:10Z</time>
					</trkpt>
					<trkpt lat="48.009360" lon="-4.493540">
						<ele>71</ele>
						<time>2026-06-27T20:16:15Z</time>
					</trkpt>
					<trkpt lat="48.009520" lon="-4.493450">
						<ele>72</ele>
						<time>2026-06-27T20:16:18Z</time>
					</trkpt>
					<trkpt lat="48.009470" lon="-4.493360">
						<ele>72</ele>
						<time>2026-06-27T20:16:19Z</time>
					</trkpt>
					<trkpt lat="48.009270" lon="-4.493190">
						<ele>71</ele>
						<time>2026-06-27T20:16:23Z</time>
					</trkpt>
					<trkpt lat="48.009160" lon="-4.493020">
						<ele>71</ele>
						<time>2026-06-27T20:16:26Z</time>
					</trkpt>
					<trkpt lat="48.009070" lon="-4.492520">
						<ele>72</ele>
						<time>2026-06-27T20:16:32Z</time>
					</trkpt>
					<trkpt lat="48.009020" lon="-4.492360">
						<ele>73</ele>
						<time>2026-06-27T20:16:34Z</time>
					</trkpt>
					<trkpt lat="48.008950" lon="-4.492260">
						<ele>73</ele>
						<time>2026-06-27T20:16:36Z</time>
					</trkpt>
					<trkpt lat="48.008730" lon="-4.492050">
						<ele>74</ele>
						<time>2026-06-27T20:16:41Z</time>
					</trkpt>
					<trkpt lat="48.008380" lon="-4.491460">
						<ele>76</ele>
						<time>2026-06-27T20:16:50Z</time>
					</trkpt>
					<trkpt lat="48.008340" lon="-4.491410">
						<ele>76</ele>
						<time>2026-06-27T20:16:51Z</time>
					</trkpt>
					<trkpt lat="48.008190" lon="-4.491350">
						<ele>76</ele>
						<time>2026-06-27T20:16:54Z</time>
					</trkpt>
					<trkpt lat="48.008000" lon="-4.491380">
						<ele>76</ele>
						<time>2026-06-27T20:16:57Z</time>
					</trkpt>
					<trkpt lat="48.007880" lon="-4.491430">
						<ele>76</ele>
						<time>2026-06-27T20:17:00Z</time>
					</trkpt>
					<trkpt lat="48.007850" lon="-4.491350">
						<ele>76</ele>
						<time>2026-06-27T20:17:01Z</time>
					</trkpt>
					<trkpt lat="48.007770" lon="-4.490280">
						<ele>79</ele>
						<time>2026-06-27T20:17:13Z</time>
					</trkpt>
					<trkpt lat="48.007720" lon="-4.489930">
						<ele>80</ele>
						<time>2026-06-27T20:17:18Z</time>
					</trkpt>
					<trkpt lat="48.007360" lon="-4.487920">
						<ele>84</ele>
						<time>2026-06-27T20:17:42Z</time>
					</trkpt>
					<trkpt lat="48.007070" lon="-4.486440">
						<ele>86</ele>
						<time>2026-06-27T20:18:01Z</time>
					</trkpt>
					<trkpt lat="48.006840" lon="-4.485410">
						<ele>87</ele>
						<time>2026-06-27T20:18:14Z</time>
					</trkpt>
					<trkpt lat="48.006860" lon="-4.485310">
						<ele>87</ele>
						<time>2026-06-27T20:18:15Z</time>
					</trkpt>
					<trkpt lat="48.007310" lon="-4.485140">
						<ele>88</ele>
						<time>2026-06-27T20:18:23Z</time>
					</trkpt>
					<trkpt lat="48.008180" lon="-4.485000">
						<ele>87</ele>
						<time>2026-06-27T20:18:39Z</time>
					</trkpt>
					<trkpt lat="48.008350" lon="-4.485000">
						<ele>87</ele>
						<time>2026-06-27T20:18:42Z</time>
					</trkpt>
					<trkpt lat="48.008650" lon="-4.485040">
						<ele>87</ele>
						<time>2026-06-27T20:18:47Z</time>
					</trkpt>
					<trkpt lat="48.008940" lon="-4.485110">
						<ele>88</ele>
						<time>2026-06-27T20:18:52Z</time>
					</trkpt>
					<trkpt lat="48.010240" lon="-4.485230">
						<ele>91</ele>
						<time>2026-06-27T20:19:16Z</time>
					</trkpt>
					<trkpt lat="48.013700" lon="-4.485650">
						<ele>99</ele>
						<time>2026-06-27T20:20:17Z</time>
					</trkpt>
					<trkpt lat="48.013790" lon="-4.485640">
						<ele>100</ele>
						<time>2026-06-27T20:20:19Z</time>
					</trkpt>
					<trkpt lat="48.013830" lon="-4.485680">
						<ele>100</ele>
						<time>2026-06-27T20:20:20Z</time>
					</trkpt>
					<trkpt lat="48.013860" lon="-4.485530">
						<ele>100</ele>
						<time>2026-06-27T20:20:22Z</time>
					</trkpt>
					<trkpt lat="48.013640" lon="-4.484320">
						<ele>100</ele>
						<time>2026-06-27T20:20:37Z</time>
					</trkpt>
					<trkpt lat="48.013280" lon="-4.484330">
						<ele>100</ele>
						<time>2026-06-27T20:20:43Z</time>
					</trkpt>
					<trkpt lat="48.013010" lon="-4.484310">
						<ele>99</ele>
						<time>2026-06-27T20:20:48Z</time>
					</trkpt>
					<trkpt lat="48.012790" lon="-4.484200">
						<ele>99</ele>
						<time>2026-06-27T20:20:52Z</time>
					</trkpt>
					<trkpt lat="48.012630" lon="-4.484070">
						<ele>98</ele>
						<time>2026-06-27T20:20:55Z</time>
					</trkpt>
					<trkpt lat="48.012350" lon="-4.483750">
						<ele>98</ele>
						<time>2026-06-27T20:21:01Z</time>
					</trkpt>
					<trkpt lat="48.009600" lon="-4.480020">
						<ele>94</ele>
						<time>2026-06-27T20:22:08Z</time>
					</trkpt>
					<trkpt lat="48.009210" lon="-4.479530">
						<ele>93</ele>
						<time>2026-06-27T20:22:17Z</time>
					</trkpt>
					<trkpt lat="48.008630" lon="-4.478730">
						<ele>93</ele>
						<time>2026-06-27T20:22:31Z</time>
					</trkpt>
					<trkpt lat="48.008090" lon="-4.478060">
						<ele>93</ele>
						<time>2026-06-27T20:22:43Z</time>
					</trkpt>
					<trkpt lat="48.007820" lon="-4.477760">
						<ele>93</ele>
						<time>2026-06-27T20:22:49Z</time>
					</trkpt>
					<trkpt lat="48.007230" lon="-4.477210">
						<ele>94</ele>
						<time>2026-06-27T20:23:01Z</time>
					</trkpt>
					<trkpt lat="48.006750" lon="-4.476810">
						<ele>93</ele>
						<time>2026-06-27T20:23:11Z</time>
					</trkpt>
					<trkpt lat="48.005290" lon="-4.475770">
						<ele>90</ele>
						<time>2026-06-27T20:23:40Z</time>
					</trkpt>
					<trkpt lat="48.004870" lon="-4.475350">
						<ele>90</ele>
						<time>2026-06-27T20:23:49Z</time>
					</trkpt>
					<trkpt lat="48.004560" lon="-4.474860">
						<ele>90</ele>
						<time>2026-06-27T20:23:57Z</time>
					</trkpt>
					<trkpt lat="48.003860" lon="-4.473570">
						<ele>91</ele>
						<time>2026-06-27T20:24:17Z</time>
					</trkpt>
					<trkpt lat="48.003680" lon="-4.473290">
						<ele>91</ele>
						<time>2026-06-27T20:24:21Z</time>
					</trkpt>
					<trkpt lat="48.002470" lon="-4.471740">
						<ele>89</ele>
						<time>2026-06-27T20:24:50Z</time>
					</trkpt>
					<trkpt lat="48.000130" lon="-4.468930">
						<ele>79</ele>
						<time>2026-06-27T20:25:43Z</time>
					</trkpt>
					<trkpt lat="47.999780" lon="-4.468560">
						<ele>77</ele>
						<time>2026-06-27T20:25:51Z</time>
					</trkpt>
					<trkpt lat="47.999550" lon="-4.468410">
						<ele>77</ele>
						<time>2026-06-27T20:25:55Z</time>
					</trkpt>
					<trkpt lat="47.999220" lon="-4.468260">
						<ele>76</ele>
						<time>2026-06-27T20:26:01Z</time>
					</trkpt>
					<trkpt lat="47.997990" lon="-4.468030">
						<ele>71</ele>
						<time>2026-06-27T20:26:24Z</time>
					</trkpt>
					<trkpt lat="47.996640" lon="-4.467740">
						<ele>66</ele>
						<time>2026-06-27T20:26:48Z</time>
					</trkpt>
					<trkpt lat="47.996270" lon="-4.467690">
						<ele>65</ele>
						<time>2026-06-27T20:26:54Z</time>
					</trkpt>
					<trkpt lat="47.995920" lon="-4.467690">
						<ele>63</ele>
						<time>2026-06-27T20:27:01Z</time>
					</trkpt>
					<trkpt lat="47.995440" lon="-4.467780">
						<ele>62</ele>
						<time>2026-06-27T20:27:09Z</time>
					</trkpt>
					<trkpt lat="47.994580" lon="-4.468030">
						<ele>61</ele>
						<time>2026-06-27T20:27:25Z</time>
					</trkpt>
					<trkpt lat="47.994300" lon="-4.468050">
						<ele>61</ele>
						<time>2026-06-27T20:27:30Z</time>
					</trkpt>
					<trkpt lat="47.994040" lon="-4.467990">
						<ele>61</ele>
						<time>2026-06-27T20:27:34Z</time>
					</trkpt>
					<trkpt lat="47.993730" lon="-4.467870">
						<ele>60</ele>
						<time>2026-06-27T20:27:40Z</time>
					</trkpt>
					<trkpt lat="47.993560" lon="-4.467770">
						<ele>60</ele>
						<time>2026-06-27T20:27:43Z</time>
					</trkpt>
					<trkpt lat="47.993370" lon="-4.467590">
						<ele>60</ele>
						<time>2026-06-27T20:27:47Z</time>
					</trkpt>
					<trkpt lat="47.993140" lon="-4.467290">
						<ele>59</ele>
						<time>2026-06-27T20:27:53Z</time>
					</trkpt>
					<trkpt lat="47.992330" lon="-4.466010">
						<ele>54</ele>
						<time>2026-06-27T20:28:14Z</time>
					</trkpt>
					<trkpt lat="47.992190" lon="-4.465830">
						<ele>53</ele>
						<time>2026-06-27T20:28:17Z</time>
					</trkpt>
					<trkpt lat="47.991990" lon="-4.465630">
						<ele>51</ele>
						<time>2026-06-27T20:28:21Z</time>
					</trkpt>
					<trkpt lat="47.991760" lon="-4.465550">
						<ele>49</ele>
						<time>2026-06-27T20:28:26Z</time>
					</trkpt>
					<trkpt lat="47.990480" lon="-4.465430">
						<ele>39</ele>
						<time>2026-06-27T20:28:48Z</time>
					</trkpt>
					<trkpt lat="47.989630" lon="-4.465460">
						<ele>37</ele>
						<time>2026-06-27T20:29:04Z</time>
					</trkpt>
					<trkpt lat="47.989300" lon="-4.465550">
						<ele>36</ele>
						<time>2026-06-27T20:29:10Z</time>
					</trkpt>
					<trkpt lat="47.988600" lon="-4.465820">
						<ele>32</ele>
						<time>2026-06-27T20:29:22Z</time>
					</trkpt>
					<trkpt lat="47.988290" lon="-4.465870">
						<ele>30</ele>
						<time>2026-06-27T20:29:28Z</time>
					</trkpt>
					<trkpt lat="47.988080" lon="-4.465830">
						<ele>28</ele>
						<time>2026-06-27T20:29:32Z</time>
					</trkpt>
					<trkpt lat="47.987940" lon="-4.465770">
						<ele>27</ele>
						<time>2026-06-27T20:29:34Z</time>
					</trkpt>
					<trkpt lat="47.987690" lon="-4.465600">
						<ele>25</ele>
						<time>2026-06-27T20:29:39Z</time>
					</trkpt>
					<trkpt lat="47.987450" lon="-4.465390">
						<ele>23</ele>
						<time>2026-06-27T20:29:44Z</time>
					</trkpt>
					<trkpt lat="47.987110" lon="-4.465160">
						<ele>22</ele>
						<time>2026-06-27T20:29:51Z</time>
					</trkpt>
					<trkpt lat="47.987010" lon="-4.465230">
						<ele>21</ele>
						<time>2026-06-27T20:29:53Z</time>
					</trkpt>
					<trkpt lat="47.986680" lon="-4.465360">
						<ele>21</ele>
						<time>2026-06-27T20:29:59Z</time>
					</trkpt>
					<trkpt lat="47.986640" lon="-4.465510">
						<ele>21</ele>
						<time>2026-06-27T20:30:01Z</time>
					</trkpt>
					<trkpt lat="47.986630" lon="-4.465870">
						<ele>23</ele>
						<time>2026-06-27T20:30:05Z</time>
					</trkpt>
					<trkpt lat="47.986670" lon="-4.466470">
						<ele>25</ele>
						<time>2026-06-27T20:30:12Z</time>
					</trkpt>
					<trkpt lat="47.987220" lon="-4.469420">
						<ele>30</ele>
						<time>2026-06-27T20:30:49Z</time>
					</trkpt>
					<trkpt lat="47.987570" lon="-4.471560">
						<ele>29</ele>
						<time>2026-06-27T20:31:15Z</time>
					</trkpt>
					<trkpt lat="47.987880" lon="-4.473660">
						<ele>29</ele>
						<time>2026-06-27T20:31:41Z</time>
					</trkpt>
					<trkpt lat="47.987940" lon="-4.473930">
						<ele>29</ele>
						<time>2026-06-27T20:31:44Z</time>
					</trkpt>
					<trkpt lat="47.988290" lon="-4.474980">
						<ele>29</ele>
						<time>2026-06-27T20:31:58Z</time>
					</trkpt>
					<trkpt lat="47.988860" lon="-4.476970">
						<ele>15</ele>
						<time>2026-06-27T20:32:24Z</time>
					</trkpt>
					<trkpt lat="47.988990" lon="-4.477230">
						<ele>14</ele>
						<time>2026-06-27T20:32:28Z</time>
					</trkpt>
					<trkpt lat="47.989070" lon="-4.477320">
						<ele>14</ele>
						<time>2026-06-27T20:32:29Z</time>
					</trkpt>
					<trkpt lat="47.989230" lon="-4.477430">
						<ele>14</ele>
						<time>2026-06-27T20:32:32Z</time>
					</trkpt>
					<trkpt lat="47.989380" lon="-4.477490">
						<ele>13</ele>
						<time>2026-06-27T20:32:35Z</time>
					</trkpt>
					<trkpt lat="47.990130" lon="-4.477520">
						<ele>10</ele>
						<time>2026-06-27T20:32:49Z</time>
					</trkpt>
					<trkpt lat="47.990320" lon="-4.477550">
						<ele>10</ele>
						<time>2026-06-27T20:32:52Z</time>
					</trkpt>
					<trkpt lat="47.990590" lon="-4.477660">
						<ele>9</ele>
						<time>2026-06-27T20:32:57Z</time>
					</trkpt>
					<trkpt lat="47.990780" lon="-4.477790">
						<ele>9</ele>
						<time>2026-06-27T20:33:01Z</time>
					</trkpt>
					<trkpt lat="47.992250" lon="-4.479450">
						<ele>15</ele>
						<time>2026-06-27T20:33:33Z</time>
					</trkpt>
					<trkpt lat="47.993770" lon="-4.481080">
						<ele>29</ele>
						<time>2026-06-27T20:34:07Z</time>
					</trkpt>
					<trkpt lat="47.994300" lon="-4.481540">
						<ele>33</ele>
						<time>2026-06-27T20:34:18Z</time>
					</trkpt>
					<trkpt lat="47.994590" lon="-4.481760">
						<ele>35</ele>
						<time>2026-06-27T20:34:23Z</time>
					</trkpt>
					<trkpt lat="47.995210" lon="-4.482380">
						<ele>37</ele>
						<time>2026-06-27T20:34:37Z</time>
					</trkpt>
					<trkpt lat="47.995340" lon="-4.482530">
						<ele>38</ele>
						<time>2026-06-27T20:34:40Z</time>
					</trkpt>
					<trkpt lat="47.996690" lon="-4.484440">
						<ele>47</ele>
						<time>2026-06-27T20:35:13Z</time>
					</trkpt>
					<trkpt lat="47.996820" lon="-4.484660">
						<ele>47</ele>
						<time>2026-06-27T20:35:16Z</time>
					</trkpt>
					<trkpt lat="47.997050" lon="-4.485220">
						<ele>48</ele>
						<time>2026-06-27T20:35:24Z</time>
					</trkpt>
					<trkpt lat="47.997210" lon="-4.485790">
						<ele>48</ele>
						<time>2026-06-27T20:35:31Z</time>
					</trkpt>
					<trkpt lat="47.997570" lon="-4.486740">
						<ele>49</ele>
						<time>2026-06-27T20:35:44Z</time>
					</trkpt>
					<trkpt lat="47.997660" lon="-4.486830">
						<ele>49</ele>
						<time>2026-06-27T20:35:46Z</time>
					</trkpt>
					<trkpt lat="47.997700" lon="-4.486840">
						<ele>49</ele>
						<time>2026-06-27T20:35:47Z</time>
					</trkpt>
					<trkpt lat="47.997830" lon="-4.486770">
						<ele>50</ele>
						<time>2026-06-27T20:35:49Z</time>
					</trkpt>
					<trkpt lat="47.998970" lon="-4.485860">
						<ele>60</ele>
						<time>2026-06-27T20:36:12Z</time>
					</trkpt>
					<trkpt lat="47.999100" lon="-4.485720">
						<ele>61</ele>
						<time>2026-06-27T20:36:15Z</time>
					</trkpt>
					<trkpt lat="47.999300" lon="-4.485440">
						<ele>63</ele>
						<time>2026-06-27T20:36:20Z</time>
					</trkpt>
					<trkpt lat="47.999870" lon="-4.484580">
						<ele>68</ele>
						<time>2026-06-27T20:36:35Z</time>
					</trkpt>
					<trkpt lat="47.999990" lon="-4.484460">
						<ele>70</ele>
						<time>2026-06-27T20:36:37Z</time>
					</trkpt>
					<trkpt lat="48.000100" lon="-4.484390">
						<ele>70</ele>
						<time>2026-06-27T20:36:39Z</time>
					</trkpt>
					<trkpt lat="48.000240" lon="-4.484340">
						<ele>71</ele>
						<time>2026-06-27T20:36:42Z</time>
					</trkpt>
					<trkpt lat="48.000360" lon="-4.484330">
						<ele>71</ele>
						<time>2026-06-27T20:36:44Z</time>
					</trkpt>
					<trkpt lat="48.000500" lon="-4.484360">
						<ele>71</ele>
						<time>2026-06-27T20:36:47Z</time>
					</trkpt>
					<trkpt lat="48.000990" lon="-4.484630">
						<ele>72</ele>
						<time>2026-06-27T20:36:56Z</time>
					</trkpt>
					<trkpt lat="48.002570" lon="-4.485180">
						<ele>77</ele>
						<time>2026-06-27T20:37:25Z</time>
					</trkpt>
					<trkpt lat="48.002780" lon="-4.485210">
						<ele>78</ele>
						<time>2026-06-27T20:37:28Z</time>
					</trkpt>
					<trkpt lat="48.004130" lon="-4.485130">
						<ele>85</ele>
						<time>2026-06-27T20:37:52Z</time>
					</trkpt>
					<trkpt lat="48.004150" lon="-4.485150">
						<ele>86</ele>
						<time>2026-06-27T20:37:53Z</time>
					</trkpt>
					<trkpt lat="48.004170" lon="-4.486590">
						<ele>84</ele>
						<time>2026-06-27T20:38:10Z</time>
					</trkpt>
					<trkpt lat="48.004020" lon="-4.488360">
						<ele>81</ele>
						<time>2026-06-27T20:38:31Z</time>
					</trkpt>
					<trkpt lat="48.003770" lon="-4.490360">
						<ele>71</ele>
						<time>2026-06-27T20:38:56Z</time>
					</trkpt>
					<trkpt lat="48.003770" lon="-4.490690">
						<ele>70</ele>
						<time>2026-06-27T20:38:59Z</time>
					</trkpt>
					<trkpt lat="48.003840" lon="-4.491030">
						<ele>69</ele>
						<time>2026-06-27T20:39:04Z</time>
					</trkpt>
					<trkpt lat="48.004540" lon="-4.493330">
						<ele>63</ele>
						<time>2026-06-27T20:39:34Z</time>
					</trkpt>
					<trkpt lat="48.005000" lon="-4.495480">
						<ele>54</ele>
						<time>2026-06-27T20:40:01Z</time>
					</trkpt>
					<trkpt lat="48.005190" lon="-4.496290">
						<ele>51</ele>
						<time>2026-06-27T20:40:11Z</time>
					</trkpt>
					<trkpt lat="48.005220" lon="-4.496340">
						<ele>51</ele>
						<time>2026-06-27T20:40:12Z</time>
					</trkpt>
					<trkpt lat="48.008470" lon="-4.494520">
						<ele>67</ele>
						<time>2026-06-27T20:41:13Z</time>
					</trkpt>
					<trkpt lat="48.008650" lon="-4.494350">
						<ele>68</ele>
						<time>2026-06-27T20:41:17Z</time>
					</trkpt>
					<trkpt lat="48.008910" lon="-4.493920">
						<ele>70</ele>
						<time>2026-06-27T20:41:24Z</time>
					</trkpt>
					<trkpt lat="48.009110" lon="-4.493730">
						<ele>71</ele>
						<time>2026-06-27T20:41:28Z</time>
					</trkpt>
					<trkpt lat="48.009360" lon="-4.493540">
						<ele>71</ele>
						<time>2026-06-27T20:41:33Z</time>
					</trkpt>
					<trkpt lat="48.009520" lon="-4.493450">
						<ele>72</ele>
						<time>2026-06-27T20:41:36Z</time>
					</trkpt>
					<trkpt lat="48.009470" lon="-4.493360">
						<ele>72</ele>
						<time>2026-06-27T20:41:38Z</time>
					</trkpt>
					<trkpt lat="48.009270" lon="-4.493190">
						<ele>71</ele>
						<time>2026-06-27T20:41:42Z</time>
					</trkpt>
					<trkpt lat="48.009160" lon="-4.493020">
						<ele>71</ele>
						<time>2026-06-27T20:41:45Z</time>
					</trkpt>
					<trkpt lat="48.009070" lon="-4.492520">
						<ele>72</ele>
						<time>2026-06-27T20:41:51Z</time>
					</trkpt>
					<trkpt lat="48.009020" lon="-4.492360">
						<ele>73</ele>
						<time>2026-06-27T20:41:53Z</time>
					</trkpt>
					<trkpt lat="48.008950" lon="-4.492260">
						<ele>73</ele>
						<time>2026-06-27T20:41:55Z</time>
					</trkpt>
					<trkpt lat="48.008730" lon="-4.492050">
						<ele>74</ele>
						<time>2026-06-27T20:41:59Z</time>
					</trkpt>
					<trkpt lat="48.008380" lon="-4.491460">
						<ele>76</ele>
						<time>2026-06-27T20:42:09Z</time>
					</trkpt>
					<trkpt lat="48.008340" lon="-4.491410">
						<ele>76</ele>
						<time>2026-06-27T20:42:10Z</time>
					</trkpt>
					<trkpt lat="48.008190" lon="-4.491350">
						<ele>76</ele>
						<time>2026-06-27T20:42:12Z</time>
					</trkpt>
					<trkpt lat="48.008000" lon="-4.491380">
						<ele>76</ele>
						<time>2026-06-27T20:42:16Z</time>
					</trkpt>
					<trkpt lat="48.007880" lon="-4.491430">
						<ele>76</ele>
						<time>2026-06-27T20:42:18Z</time>
					</trkpt>
					<trkpt lat="48.007850" lon="-4.491350">
						<ele>76</ele>
						<time>2026-06-27T20:42:19Z</time>
					</trkpt>
					<trkpt lat="48.007770" lon="-4.490280">
						<ele>79</ele>
						<time>2026-06-27T20:42:32Z</time>
					</trkpt>
					<trkpt lat="48.007720" lon="-4.489930">
						<ele>80</ele>
						<time>2026-06-27T20:42:36Z</time>
					</trkpt>
					<trkpt lat="48.007360" lon="-4.487920">
						<ele>84</ele>
						<time>2026-06-27T20:43:01Z</time>
					</trkpt>
					<trkpt lat="48.007070" lon="-4.486440">
						<ele>86</ele>
						<time>2026-06-27T20:43:19Z</time>
					</trkpt>
					<trkpt lat="48.006840" lon="-4.485410">
						<ele>87</ele>
						<time>2026-06-27T20:43:32Z</time>
					</trkpt>
					<trkpt lat="48.006860" lon="-4.485310">
						<ele>87</ele>
						<time>2026-06-27T20:43:33Z</time>
					</trkpt>
					<trkpt lat="48.007310" lon="-4.485140">
						<ele>88</ele>
						<time>2026-06-27T20:43:42Z</time>
					</trkpt>
					<trkpt lat="48.008180" lon="-4.485000">
						<ele>87</ele>
						<time>2026-06-27T20:43:57Z</time>
					</trkpt>
					<trkpt lat="48.008350" lon="-4.485000">
						<ele>87</ele>
						<time>2026-06-27T20:44:00Z</time>
					</trkpt>
					<trkpt lat="48.008650" lon="-4.485040">
						<ele>87</ele>
						<time>2026-06-27T20:44:06Z</time>
					</trkpt>
					<trkpt lat="48.008940" lon="-4.485110">
						<ele>88</ele>
						<time>2026-06-27T20:44:11Z</time>
					</trkpt>
					<trkpt lat="48.010240" lon="-4.485230">
						<ele>91</ele>
						<time>2026-06-27T20:44:34Z</time>
					</trkpt>
					<trkpt lat="48.013700" lon="-4.485650">
						<ele>99</ele>
						<time>2026-06-27T20:45:36Z</time>
					</trkpt>
					<trkpt lat="48.013790" lon="-4.485640">
						<ele>100</ele>
						<time>2026-06-27T20:45:37Z</time>
					</trkpt>
					<trkpt lat="48.013830" lon="-4.485680">
						<ele>100</ele>
						<time>2026-06-27T20:45:38Z</time>
					</trkpt>
					<trkpt lat="48.013860" lon="-4.485530">
						<ele>100</ele>
						<time>2026-06-27T20:45:40Z</time>
					</trkpt>
					<trkpt lat="48.013640" lon="-4.484320">
						<ele>100</ele>
						<time>2026-06-27T20:45:55Z</time>
					</trkpt>
					<trkpt lat="48.013280" lon="-4.484330">
						<ele>100</ele>
						<time>2026-06-27T20:46:01Z</time>
					</trkpt>
					<trkpt lat="48.013010" lon="-4.484310">
						<ele>99</ele>
						<time>2026-06-27T20:46:06Z</time>
					</trkpt>
					<trkpt lat="48.012790" lon="-4.484200">
						<ele>99</ele>
						<time>2026-06-27T20:46:10Z</time>
					</trkpt>
					<trkpt lat="48.012630" lon="-4.484070">
						<ele>98</ele>
						<time>2026-06-27T20:46:14Z</time>
					</trkpt>
					<trkpt lat="48.012350" lon="-4.483750">
						<ele>98</ele>
						<time>2026-06-27T20:46:20Z</time>
					</trkpt>
					<trkpt lat="48.009600" lon="-4.480020">
						<ele>94</ele>
						<time>2026-06-27T20:47:26Z</time>
					</trkpt>
					<trkpt lat="48.009210" lon="-4.479530">
						<ele>93</ele>
						<time>2026-06-27T20:47:35Z</time>
					</trkpt>
					<trkpt lat="48.008630" lon="-4.478730">
						<ele>93</ele>
						<time>2026-06-27T20:47:49Z</time>
					</trkpt>
					<trkpt lat="48.008090" lon="-4.478060">
						<ele>93</ele>
						<time>2026-06-27T20:48:02Z</time>
					</trkpt>
					<trkpt lat="48.007820" lon="-4.477760">
						<ele>93</ele>
						<time>2026-06-27T20:48:08Z</time>
					</trkpt>
					<trkpt lat="48.007230" lon="-4.477210">
						<ele>94</ele>
						<time>2026-06-27T20:48:20Z</time>
					</trkpt>
					<trkpt lat="48.006750" lon="-4.476810">
						<ele>93</ele>
						<time>2026-06-27T20:48:30Z</time>
					</trkpt>
					<trkpt lat="48.005290" lon="-4.475770">
						<ele>90</ele>
						<time>2026-06-27T20:48:58Z</time>
					</trkpt>
					<trkpt lat="48.004870" lon="-4.475350">
						<ele>90</ele>
						<time>2026-06-27T20:49:07Z</time>
					</trkpt>
					<trkpt lat="48.004560" lon="-4.474860">
						<ele>90</ele>
						<time>2026-06-27T20:49:16Z</time>
					</trkpt>
					<trkpt lat="48.003860" lon="-4.473570">
						<ele>91</ele>
						<time>2026-06-27T20:49:35Z</time>
					</trkpt>
					<trkpt lat="48.003680" lon="-4.473290">
						<ele>91</ele>
						<time>2026-06-27T20:49:40Z</time>
					</trkpt>
					<trkpt lat="48.002470" lon="-4.471740">
						<ele>89</ele>
						<time>2026-06-27T20:50:08Z</time>
					</trkpt>
					<trkpt lat="48.000130" lon="-4.468930">
						<ele>79</ele>
						<time>2026-06-27T20:51:02Z</time>
					</trkpt>
					<trkpt lat="47.999780" lon="-4.468560">
						<ele>77</ele>
						<time>2026-06-27T20:51:09Z</time>
					</trkpt>
					<trkpt lat="47.999550" lon="-4.468410">
						<ele>77</ele>
						<time>2026-06-27T20:51:14Z</time>
					</trkpt>
					<trkpt lat="47.999220" lon="-4.468260">
						<ele>76</ele>
						<time>2026-06-27T20:51:20Z</time>
					</trkpt>
					<trkpt lat="47.997990" lon="-4.468030">
						<ele>71</ele>
						<time>2026-06-27T20:51:42Z</time>
					</trkpt>
					<trkpt lat="47.996640" lon="-4.467740">
						<ele>66</ele>
						<time>2026-06-27T20:52:06Z</time>
					</trkpt>
					<trkpt lat="47.996270" lon="-4.467690">
						<ele>65</ele>
						<time>2026-06-27T20:52:13Z</time>
					</trkpt>
					<trkpt lat="47.995920" lon="-4.467690">
						<ele>63</ele>
						<time>2026-06-27T20:52:19Z</time>
					</trkpt>
					<trkpt lat="47.995440" lon="-4.467780">
						<ele>62</ele>
						<time>2026-06-27T20:52:28Z</time>
					</trkpt>
					<trkpt lat="47.994580" lon="-4.468030">
						<ele>61</ele>
						<time>2026-06-27T20:52:43Z</time>
					</trkpt>
					<trkpt lat="47.994300" lon="-4.468050">
						<ele>61</ele>
						<time>2026-06-27T20:52:48Z</time>
					</trkpt>
					<trkpt lat="47.994040" lon="-4.467990">
						<ele>61</ele>
						<time>2026-06-27T20:52:53Z</time>
					</trkpt>
					<trkpt lat="47.993730" lon="-4.467870">
						<ele>60</ele>
						<time>2026-06-27T20:52:59Z</time>
					</trkpt>
					<trkpt lat="47.993560" lon="-4.467770">
						<ele>60</ele>
						<time>2026-06-27T20:53:02Z</time>
					</trkpt>
					<trkpt lat="47.993370" lon="-4.467590">
						<ele>60</ele>
						<time>2026-06-27T20:53:06Z</time>
					</trkpt>
					<trkpt lat="47.993140" lon="-4.467290">
						<ele>59</ele>
						<time>2026-06-27T20:53:11Z</time>
					</trkpt>
					<trkpt lat="47.992330" lon="-4.466010">
						<ele>54</ele>
						<time>2026-06-27T20:53:32Z</time>
					</trkpt>
					<trkpt lat="47.992190" lon="-4.465830">
						<ele>53</ele>
						<time>2026-06-27T20:53:36Z</time>
					</trkpt>
					<trkpt lat="47.991990" lon="-4.465630">
						<ele>51</ele>
						<time>2026-06-27T20:53:40Z</time>
					</trkpt>
					<trkpt lat="47.991760" lon="-4.465550">
						<ele>49</ele>
						<time>2026-06-27T20:53:44Z</time>
					</trkpt>
					<trkpt lat="47.990480" lon="-4.465430">
						<ele>39</ele>
						<time>2026-06-27T20:54:07Z</time>
					</trkpt>
					<trkpt lat="47.989630" lon="-4.465460">
						<ele>37</ele>
						<time>2026-06-27T20:54:22Z</time>
					</trkpt>
					<trkpt lat="47.989300" lon="-4.465550">
						<ele>36</ele>
						<time>2026-06-27T20:54:28Z</time>
					</trkpt>
					<trkpt lat="47.988600" lon="-4.465820">
						<ele>32</ele>
						<time>2026-06-27T20:54:41Z</time>
					</trkpt>
					<trkpt lat="47.988290" lon="-4.465870">
						<ele>30</ele>
						<time>2026-06-27T20:54:46Z</time>
					</trkpt>
					<trkpt lat="47.988080" lon="-4.465830">
						<ele>28</ele>
						<time>2026-06-27T20:54:50Z</time>
					</trkpt>
					<trkpt lat="47.987940" lon="-4.465770">
						<ele>27</ele>
						<time>2026-06-27T20:54:53Z</time>
					</trkpt>
					<trkpt lat="47.987690" lon="-4.465600">
						<ele>25</ele>
						<time>2026-06-27T20:54:58Z</time>
					</trkpt>
					<trkpt lat="47.987450" lon="-4.465390">
						<ele>23</ele>
						<time>2026-06-27T20:55:03Z</time>
					</trkpt>
					<trkpt lat="47.987110" lon="-4.465160">
						<ele>22</ele>
						<time>2026-06-27T20:55:09Z</time>
					</trkpt>
					<trkpt lat="47.987010" lon="-4.465230">
						<ele>21</ele>
						<time>2026-06-27T20:55:11Z</time>
					</trkpt>
					<trkpt lat="47.986680" lon="-4.465360">
						<ele>21</ele>
						<time>2026-06-27T20:55:17Z</time>
					</trkpt>
					<trkpt lat="47.986640" lon="-4.465510">
						<ele>21</ele>
						<time>2026-06-27T20:55:19Z</time>
					</trkpt>
					<trkpt lat="47.986630" lon="-4.465870">
						<ele>23</ele>
						<time>2026-06-27T20:55:23Z</time>
					</trkpt>
					<trkpt lat="47.986670" lon="-4.466470">
						<ele>25</ele>
						<time>2026-06-27T20:55:31Z</time>
					</trkpt>
					<trkpt lat="47.987220" lon="-4.469420">
						<ele>30</ele>
						<time>2026-06-27T20:56:07Z</time>
					</trkpt>
					<trkpt lat="47.987570" lon="-4.471560">
						<ele>29</ele>
						<time>2026-06-27T20:56:33Z</time>
					</trkpt>
					<trkpt lat="47.987880" lon="-4.473660">
						<ele>29</ele>
						<time>2026-06-27T20:56:59Z</time>
					</trkpt>
					<trkpt lat="47.987940" lon="-4.473930">
						<ele>29</ele>
						<time>2026-06-27T20:57:02Z</time>
					</trkpt>
					<trkpt lat="47.988290" lon="-4.474980">
						<ele>29</ele>
						<time>2026-06-27T20:57:16Z</time>
					</trkpt>
					<trkpt lat="47.988860" lon="-4.476970">
						<ele>15</ele>
						<time>2026-06-27T20:57:42Z</time>
					</trkpt>
					<trkpt lat="47.988990" lon="-4.477230">
						<ele>14</ele>
						<time>2026-06-27T20:57:46Z</time>
					</trkpt>
					<trkpt lat="47.989070" lon="-4.477320">
						<ele>14</ele>
						<time>2026-06-27T20:57:48Z</time>
					</trkpt>
					<trkpt lat="47.989230" lon="-4.477430">
						<ele>14</ele>
						<time>2026-06-27T20:57:51Z</time>
					</trkpt>
					<trkpt lat="47.989380" lon="-4.477490">
						<ele>13</ele>
						<time>2026-06-27T20:57:54Z</time>
					</trkpt>
					<trkpt lat="47.990130" lon="-4.477520">
						<ele>10</ele>
						<time>2026-06-27T20:58:07Z</time>
					</trkpt>
					<trkpt lat="47.990320" lon="-4.477550">
						<ele>10</ele>
						<time>2026-06-27T20:58:10Z</time>
					</trkpt>
					<trkpt lat="47.990590" lon="-4.477660">
						<ele>9</ele>
						<time>2026-06-27T20:58:15Z</time>
					</trkpt>
					<trkpt lat="47.990780" lon="-4.477790">
						<ele>9</ele>
						<time>2026-06-27T20:58:19Z</time>
					</trkpt>
					<trkpt lat="47.992250" lon="-4.479450">
						<ele>15</ele>
						<time>2026-06-27T20:58:52Z</time>
					</trkpt>
					<trkpt lat="47.993770" lon="-4.481080">
						<ele>29</ele>
						<time>2026-06-27T20:59:25Z</time>
					</trkpt>
					<trkpt lat="47.994300" lon="-4.481540">
						<ele>33</ele>
						<time>2026-06-27T20:59:36Z</time>
					</trkpt>
					<trkpt lat="47.994590" lon="-4.481760">
						<ele>35</ele>
						<time>2026-06-27T20:59:42Z</time>
					</trkpt>
					<trkpt lat="47.995210" lon="-4.482380">
						<ele>37</ele>
						<time>2026-06-27T20:59:55Z</time>
					</trkpt>
					<trkpt lat="47.995340" lon="-4.482530">
						<ele>38</ele>
						<time>2026-06-27T20:59:58Z</time>
					</trkpt>
					<trkpt lat="47.996690" lon="-4.484440">
						<ele>47</ele>
						<time>2026-06-27T21:00:31Z</time>
					</trkpt>
					<trkpt lat="47.996820" lon="-4.484660">
						<ele>47</ele>
						<time>2026-06-27T21:00:35Z</time>
					</trkpt>
					<trkpt lat="47.997050" lon="-4.485220">
						<ele>48</ele>
						<time>2026-06-27T21:00:42Z</time>
					</trkpt>
					<trkpt lat="47.997210" lon="-4.485790">
						<ele>48</ele>
						<time>2026-06-27T21:00:50Z</time>
					</trkpt>
					<trkpt lat="47.997570" lon="-4.486740">
						<ele>49</ele>
						<time>2026-06-27T21:01:03Z</time>
					</trkpt>
					<trkpt lat="47.997660" lon="-4.486830">
						<ele>49</ele>
						<time>2026-06-27T21:01:05Z</time>
					</trkpt>
					<trkpt lat="47.997700" lon="-4.486840">
						<ele>49</ele>
						<time>2026-06-27T21:01:05Z</time>
					</trkpt>
					<trkpt lat="47.997830" lon="-4.486770">
						<ele>50</ele>
						<time>2026-06-27T21:01:08Z</time>
					</trkpt>
					<trkpt lat="47.998970" lon="-4.485860">
						<ele>60</ele>
						<time>2026-06-27T21:01:31Z</time>
					</trkpt>
					<trkpt lat="47.999100" lon="-4.485720">
						<ele>61</ele>
						<time>2026-06-27T21:01:34Z</time>
					</trkpt>
					<trkpt lat="47.999300" lon="-4.485440">
						<ele>63</ele>
						<time>2026-06-27T21:01:39Z</time>
					</trkpt>
					<trkpt lat="47.999870" lon="-4.484580">
						<ele>68</ele>
						<time>2026-06-27T21:01:53Z</time>
					</trkpt>
					<trkpt lat="47.999990" lon="-4.484460">
						<ele>70</ele>
						<time>2026-06-27T21:01:56Z</time>
					</trkpt>
					<trkpt lat="48.000100" lon="-4.484390">
						<ele>70</ele>
						<time>2026-06-27T21:01:58Z</time>
					</trkpt>
					<trkpt lat="48.000240" lon="-4.484340">
						<ele>71</ele>
						<time>2026-06-27T21:02:00Z</time>
					</trkpt>
					<trkpt lat="48.000360" lon="-4.484330">
						<ele>71</ele>
						<time>2026-06-27T21:02:02Z</time>
					</trkpt>
					<trkpt lat="48.000500" lon="-4.484360">
						<ele>71</ele>
						<time>2026-06-27T21:02:05Z</time>
					</trkpt>
					<trkpt lat="48.000990" lon="-4.484630">
						<ele>72</ele>
						<time>2026-06-27T21:02:14Z</time>
					</trkpt>
					<trkpt lat="48.002570" lon="-4.485180">
						<ele>77</ele>
						<time>2026-06-27T21:02:43Z</time>
					</trkpt>
					<trkpt lat="48.002780" lon="-4.485210">
						<ele>78</ele>
						<time>2026-06-27T21:02:47Z</time>
					</trkpt>
					<trkpt lat="48.004130" lon="-4.485130">
						<ele>85</ele>
						<time>2026-06-27T21:03:11Z</time>
					</trkpt>
					<trkpt lat="48.004150" lon="-4.485150">
						<ele>86</ele>
						<time>2026-06-27T21:03:11Z</time>
					</trkpt>
					<trkpt lat="48.004170" lon="-4.486590">
						<ele>84</ele>
						<time>2026-06-27T21:03:28Z</time>
					</trkpt>
					<trkpt lat="48.004020" lon="-4.488360">
						<ele>81</ele>
						<time>2026-06-27T21:03:50Z</time>
					</trkpt>
					<trkpt lat="48.003770" lon="-4.490360">
						<ele>71</ele>
						<time>2026-06-27T21:04:14Z</time>
					</trkpt>
					<trkpt lat="48.003770" lon="-4.490690">
						<ele>70</ele>
						<time>2026-06-27T21:04:18Z</time>
					</trkpt>
					<trkpt lat="48.003840" lon="-4.491030">
						<ele>69</ele>
						<time>2026-06-27T21:04:22Z</time>
					</trkpt>
					<trkpt lat="48.004540" lon="-4.493330">
						<ele>63</ele>
						<time>2026-06-27T21:04:52Z</time>
					</trkpt>
					<trkpt lat="48.005000" lon="-4.495480">
						<ele>54</ele>
						<time>2026-06-27T21:05:19Z</time>
					</trkpt>
					<trkpt lat="48.005190" lon="-4.496290">
						<ele>51</ele>
						<time>2026-06-27T21:05:29Z</time>
					</trkpt>
					<trkpt lat="48.005220" lon="-4.496340">
						<ele>51</ele>
						<time>2026-06-27T21:05:30Z</time>
					</trkpt>
					<trkpt lat="48.008470" lon="-4.494520">
						<ele>67</ele>
						<time>2026-06-27T21:06:32Z</time>
					</trkpt>
					<trkpt lat="48.008650" lon="-4.494350">
						<ele>68</ele>
						<time>2026-06-27T21:06:36Z</time>
					</trkpt>
					<trkpt lat="48.008910" lon="-4.493920">
						<ele>70</ele>
						<time>2026-06-27T21:06:43Z</time>
					</trkpt>
					<trkpt lat="48.009110" lon="-4.493730">
						<ele>71</ele>
						<time>2026-06-27T21:06:47Z</time>
					</trkpt>
					<trkpt lat="48.009360" lon="-4.493540">
						<ele>71</ele>
						<time>2026-06-27T21:06:52Z</time>
					</trkpt>
					<trkpt lat="48.009520" lon="-4.493450">
						<ele>72</ele>
						<time>2026-06-27T21:06:55Z</time>
					</trkpt>
					<trkpt lat="48.009470" lon="-4.493360">
						<ele>72</ele>
						<time>2026-06-27T21:06:56Z</time>
					</trkpt>
					<trkpt lat="48.009270" lon="-4.493190">
						<ele>71</ele>
						<time>2026-06-27T21:07:00Z</time>
					</trkpt>
					<trkpt lat="48.009160" lon="-4.493020">
						<ele>71</ele>
						<time>2026-06-27T21:07:03Z</time>
					</trkpt>
					<trkpt lat="48.009070" lon="-4.492520">
						<ele>72</ele>
						<time>2026-06-27T21:07:09Z</time>
					</trkpt>
					<trkpt lat="48.009020" lon="-4.492360">
						<ele>73</ele>
						<time>2026-06-27T21:07:11Z</time>
					</trkpt>
					<trkpt lat="48.008950" lon="-4.492260">
						<ele>73</ele>
						<time>2026-06-27T21:07:13Z</time>
					</trkpt>
					<trkpt lat="48.008730" lon="-4.492050">
						<ele>74</ele>
						<time>2026-06-27T21:07:18Z</time>
					</trkpt>
					<trkpt lat="48.008380" lon="-4.491460">
						<ele>76</ele>
						<time>2026-06-27T21:07:27Z</time>
					</trkpt>
					<trkpt lat="48.008340" lon="-4.491410">
						<ele>76</ele>
						<time>2026-06-27T21:07:28Z</time>
					</trkpt>
					<trkpt lat="48.008190" lon="-4.491350">
						<ele>76</ele>
						<time>2026-06-27T21:07:31Z</time>
					</trkpt>
					<trkpt lat="48.008000" lon="-4.491380">
						<ele>76</ele>
						<time>2026-06-27T21:07:34Z</time>
					</trkpt>
					<trkpt lat="48.007880" lon="-4.491430">
						<ele>76</ele>
						<time>2026-06-27T21:07:36Z</time>
					</trkpt>
					<trkpt lat="48.007850" lon="-4.491350">
						<ele>76</ele>
						<time>2026-06-27T21:07:37Z</time>
					</trkpt>
					<trkpt lat="48.007770" lon="-4.490280">
						<ele>79</ele>
						<time>2026-06-27T21:07:50Z</time>
					</trkpt>
					<trkpt lat="48.007720" lon="-4.489930">
						<ele>80</ele>
						<time>2026-06-27T21:07:55Z</time>
					</trkpt>
					<trkpt lat="48.007360" lon="-4.487920">
						<ele>84</ele>
						<time>2026-06-27T21:08:19Z</time>
					</trkpt>
					<trkpt lat="48.007070" lon="-4.486440">
						<ele>86</ele>
						<time>2026-06-27T21:08:38Z</time>
					</trkpt>
					<trkpt lat="48.006840" lon="-4.485410">
						<ele>87</ele>
						<time>2026-06-27T21:08:51Z</time>
					</trkpt>
					<trkpt lat="48.006860" lon="-4.485310">
						<ele>87</ele>
						<time>2026-06-27T21:08:52Z</time>
					</trkpt>
					<trkpt lat="48.007310" lon="-4.485140">
						<ele>88</ele>
						<time>2026-06-27T21:09:00Z</time>
					</trkpt>
					<trkpt lat="48.008180" lon="-4.485000">
						<ele>87</ele>
						<time>2026-06-27T21:09:16Z</time>
					</trkpt>
					<trkpt lat="48.008350" lon="-4.485000">
						<ele>87</ele>
						<time>2026-06-27T21:09:19Z</time>
					</trkpt>
					<trkpt lat="48.008650" lon="-4.485040">
						<ele>87</ele>
						<time>2026-06-27T21:09:24Z</time>
					</trkpt>
					<trkpt lat="48.008940" lon="-4.485110">
						<ele>88</ele>
						<time>2026-06-27T21:09:29Z</time>
					</trkpt>
					<trkpt lat="48.010240" lon="-4.485230">
						<ele>91</ele>
						<time>2026-06-27T21:09:52Z</time>
					</trkpt>
					<trkpt lat="48.013700" lon="-4.485650">
						<ele>99</ele>
						<time>2026-06-27T21:10:54Z</time>
					</trkpt>
					<trkpt lat="48.013790" lon="-4.485640">
						<ele>100</ele>
						<time>2026-06-27T21:10:56Z</time>
					</trkpt>
					<trkpt lat="48.013830" lon="-4.485680">
						<ele>100</ele>
						<time>2026-06-27T21:10:57Z</time>
					</trkpt>
					<trkpt lat="48.013860" lon="-4.485530">
						<ele>100</ele>
						<time>2026-06-27T21:10:59Z</time>
					</trkpt>
					<trkpt lat="48.013640" lon="-4.484320">
						<ele>100</ele>
						<time>2026-06-27T21:11:13Z</time>
					</trkpt>
					<trkpt lat="48.013280" lon="-4.484330">
						<ele>100</ele>
						<time>2026-06-27T21:11:20Z</time>
					</trkpt>
					<trkpt lat="48.013010" lon="-4.484310">
						<ele>99</ele>
						<time>2026-06-27T21:11:25Z</time>
					</trkpt>
					<trkpt lat="48.012790" lon="-4.484200">
						<ele>99</ele>
						<time>2026-06-27T21:11:29Z</time>
					</trkpt>
					<trkpt lat="48.012630" lon="-4.484070">
						<ele>98</ele>
						<time>2026-06-27T21:11:32Z</time>
					</trkpt>
					<trkpt lat="48.012350" lon="-4.483750">
						<ele>98</ele>
						<time>2026-06-27T21:11:38Z</time>
					</trkpt>
					<trkpt lat="48.009600" lon="-4.480020">
						<ele>94</ele>
						<time>2026-06-27T21:12:44Z</time>
					</trkpt>
					<trkpt lat="48.009210" lon="-4.479530">
						<ele>93</ele>
						<time>2026-06-27T21:12:53Z</time>
					</trkpt>
					<trkpt lat="48.008630" lon="-4.478730">
						<ele>93</ele>
						<time>2026-06-27T21:13:08Z</time>
					</trkpt>
					<trkpt lat="48.008090" lon="-4.478060">
						<ele>93</ele>
						<time>2026-06-27T21:13:20Z</time>
					</trkpt>
					<trkpt lat="48.007820" lon="-4.477760">
						<ele>93</ele>
						<time>2026-06-27T21:13:26Z</time>
					</trkpt>
					<trkpt lat="48.007230" lon="-4.477210">
						<ele>94</ele>
						<time>2026-06-27T21:13:38Z</time>
					</trkpt>
					<trkpt lat="48.006750" lon="-4.476810">
						<ele>93</ele>
						<time>2026-06-27T21:13:48Z</time>
					</trkpt>
					<trkpt lat="48.005290" lon="-4.475770">
						<ele>90</ele>
						<time>2026-06-27T21:14:17Z</time>
					</trkpt>
					<trkpt lat="48.004870" lon="-4.475350">
						<ele>90</ele>
						<time>2026-06-27T21:14:26Z</time>
					</trkpt>
					<trkpt lat="48.004560" lon="-4.474860">
						<ele>90</ele>
						<time>2026-06-27T21:14:34Z</time>
					</trkpt>
					<trkpt lat="48.003860" lon="-4.473570">
						<ele>91</ele>
						<time>2026-06-27T21:14:54Z</time>
					</trkpt>
					<trkpt lat="48.003680" lon="-4.473290">
						<ele>91</ele>
						<time>2026-06-27T21:14:58Z</time>
					</trkpt>
					<trkpt lat="48.002470" lon="-4.471740">
						<ele>89</ele>
						<time>2026-06-27T21:15:27Z</time>
					</trkpt>
					<trkpt lat="48.000130" lon="-4.468930">
						<ele>79</ele>
						<time>2026-06-27T21:16:20Z</time>
					</trkpt>
					<trkpt lat="47.999780" lon="-4.468560">
						<ele>77</ele>
						<time>2026-06-27T21:16:28Z</time>
					</trkpt>
					<trkpt lat="47.999550" lon="-4.468410">
						<ele>77</ele>
						<time>2026-06-27T21:16:32Z</time>
					</trkpt>
					<trkpt lat="47.999220" lon="-4.468260">
						<ele>76</ele>
						<time>2026-06-27T21:16:38Z</time>
					</trkpt>
					<trkpt lat="47.997990" lon="-4.468030">
						<ele>71</ele>
						<time>2026-06-27T21:17:00Z</time>
					</trkpt>
					<trkpt lat="47.996640" lon="-4.467740">
						<ele>66</ele>
						<time>2026-06-27T21:17:25Z</time>
					</trkpt>
					<trkpt lat="47.996270" lon="-4.467690">
						<ele>65</ele>
						<time>2026-06-27T21:17:31Z</time>
					</trkpt>
					<trkpt lat="47.995920" lon="-4.467690">
						<ele>63</ele>
						<time>2026-06-27T21:17:37Z</time>
					</trkpt>
					<trkpt lat="47.995440" lon="-4.467780">
						<ele>62</ele>
						<time>2026-06-27T21:17:46Z</time>
					</trkpt>
					<trkpt lat="47.994580" lon="-4.468030">
						<ele>61</ele>
						<time>2026-06-27T21:18:02Z</time>
					</trkpt>
					<trkpt lat="47.994300" lon="-4.468050">
						<ele>61</ele>
						<time>2026-06-27T21:18:07Z</time>
					</trkpt>
					<trkpt lat="47.994040" lon="-4.467990">
						<ele>61</ele>
						<time>2026-06-27T21:18:11Z</time>
					</trkpt>
					<trkpt lat="47.993730" lon="-4.467870">
						<ele>60</ele>
						<time>2026-06-27T21:18:17Z</time>
					</trkpt>
					<trkpt lat="47.993560" lon="-4.467770">
						<ele>60</ele>
						<time>2026-06-27T21:18:20Z</time>
					</trkpt>
					<trkpt lat="47.993370" lon="-4.467590">
						<ele>60</ele>
						<time>2026-06-27T21:18:24Z</time>
					</trkpt>
					<trkpt lat="47.993140" lon="-4.467290">
						<ele>59</ele>
						<time>2026-06-27T21:18:30Z</time>
					</trkpt>
					<trkpt lat="47.992330" lon="-4.466010">
						<ele>54</ele>
						<time>2026-06-27T21:18:51Z</time>
					</trkpt>
					<trkpt lat="47.992190" lon="-4.465830">
						<ele>53</ele>
						<time>2026-06-27T21:18:54Z</time>
					</trkpt>
					<trkpt lat="47.991990" lon="-4.465630">
						<ele>51</ele>
						<time>2026-06-27T21:18:58Z</time>
					</trkpt>
					<trkpt lat="47.991760" lon="-4.465550">
						<ele>49</ele>
						<time>2026-06-27T21:19:02Z</time>
					</trkpt>
					<trkpt lat="47.990480" lon="-4.465430">
						<ele>39</ele>
						<time>2026-06-27T21:19:25Z</time>
					</trkpt>
					<trkpt lat="47.989630" lon="-4.465460">
						<ele>37</ele>
						<time>2026-06-27T21:19:40Z</time>
					</trkpt>
					<trkpt lat="47.989300" lon="-4.465550">
						<ele>36</ele>
						<time>2026-06-27T21:19:46Z</time>
					</trkpt>
					<trkpt lat="47.988600" lon="-4.465820">
						<ele>32</ele>
						<time>2026-06-27T21:19:59Z</time>
					</trkpt>
					<trkpt lat="47.988290" lon="-4.465870">
						<ele>30</ele>
						<time>2026-06-27T21:20:05Z</time>
					</trkpt>
					<trkpt lat="47.988080" lon="-4.465830">
						<ele>28</ele>
						<time>2026-06-27T21:20:09Z</time>
					</trkpt>
					<trkpt lat="47.987940" lon="-4.465770">
						<ele>27</ele>
						<time>2026-06-27T21:20:11Z</time>
					</trkpt>
					<trkpt lat="47.987690" lon="-4.465600">
						<ele>25</ele>
						<time>2026-06-27T21:20:16Z</time>
					</trkpt>
					<trkpt lat="47.987450" lon="-4.465390">
						<ele>23</ele>
						<time>2026-06-27T21:20:21Z</time>
					</trkpt>
					<trkpt lat="47.987110" lon="-4.465160">
						<ele>22</ele>
						<time>2026-06-27T21:20:28Z</time>
					</trkpt>
					<trkpt lat="47.987010" lon="-4.465230">
						<ele>21</ele>
						<time>2026-06-27T21:20:30Z</time>
					</trkpt>
					<trkpt lat="47.986680" lon="-4.465360">
						<ele>21</ele>
						<time>2026-06-27T21:20:36Z</time>
					</trkpt>
					<trkpt lat="47.986640" lon="-4.465510">
						<ele>21</ele>
						<time>2026-06-27T21:20:38Z</time>
					</trkpt>
					<trkpt lat="47.986630" lon="-4.465870">
						<ele>23</ele>
						<time>2026-06-27T21:20:42Z</time>
					</trkpt>
					<trkpt lat="47.986670" lon="-4.466470">
						<ele>25</ele>
						<time>2026-06-27T21:20:49Z</time>
					</trkpt>
					<trkpt lat="47.987220" lon="-4.469420">
						<ele>30</ele>
						<time>2026-06-27T21:21:26Z</time>
					</trkpt>
					<trkpt lat="47.987570" lon="-4.471560">
						<ele>29</ele>
						<time>2026-06-27T21:21:52Z</time>
					</trkpt>
					<trkpt lat="47.987880" lon="-4.473660">
						<ele>29</ele>
						<time>2026-06-27T21:22:17Z</time>
					</trkpt>
					<trkpt lat="47.987940" lon="-4.473930">
						<ele>29</ele>
						<time>2026-06-27T21:22:21Z</time>
					</trkpt>
					<trkpt lat="47.988290" lon="-4.474980">
						<ele>29</ele>
						<time>2026-06-27T21:22:35Z</time>
					</trkpt>
					<trkpt lat="47.988860" lon="-4.476970">
						<ele>15</ele>
						<time>2026-06-27T21:23:01Z</time>
					</trkpt>
					<trkpt lat="47.988990" lon="-4.477230">
						<ele>14</ele>
						<time>2026-06-27T21:23:04Z</time>
					</trkpt>
					<trkpt lat="47.989070" lon="-4.477320">
						<ele>14</ele>
						<time>2026-06-27T21:23:06Z</time>
					</trkpt>
					<trkpt lat="47.989230" lon="-4.477430">
						<ele>14</ele>
						<time>2026-06-27T21:23:09Z</time>
					</trkpt>
					<trkpt lat="47.989380" lon="-4.477490">
						<ele>13</ele>
						<time>2026-06-27T21:23:12Z</time>
					</trkpt>
					<trkpt lat="47.990130" lon="-4.477520">
						<ele>10</ele>
						<time>2026-06-27T21:23:25Z</time>
					</trkpt>
					<trkpt lat="47.990320" lon="-4.477550">
						<ele>10</ele>
						<time>2026-06-27T21:23:29Z</time>
					</trkpt>
					<trkpt lat="47.990590" lon="-4.477660">
						<ele>9</ele>
						<time>2026-06-27T21:23:34Z</time>
					</trkpt>
					<trkpt lat="47.990780" lon="-4.477790">
						<ele>9</ele>
						<time>2026-06-27T21:23:38Z</time>
					</trkpt>
					<trkpt lat="47.992250" lon="-4.479450">
						<ele>15</ele>
						<time>2026-06-27T21:24:10Z</time>
					</trkpt>
					<trkpt lat="47.993770" lon="-4.481080">
						<ele>29</ele>
						<time>2026-06-27T21:24:44Z</time>
					</trkpt>
					<trkpt lat="47.994300" lon="-4.481540">
						<ele>33</ele>
						<time>2026-06-27T21:24:54Z</time>
					</trkpt>
					<trkpt lat="47.994590" lon="-4.481760">
						<ele>35</ele>
						<time>2026-06-27T21:25:00Z</time>
					</trkpt>
					<trkpt lat="47.995210" lon="-4.482380">
						<ele>37</ele>
						<time>2026-06-27T21:25:14Z</time>
					</trkpt>
					<trkpt lat="47.995340" lon="-4.482530">
						<ele>38</ele>
						<time>2026-06-27T21:25:16Z</time>
					</trkpt>
					<trkpt lat="47.996690" lon="-4.484440">
						<ele>47</ele>
						<time>2026-06-27T21:25:50Z</time>
					</trkpt>
					<trkpt lat="47.996820" lon="-4.484660">
						<ele>47</ele>
						<time>2026-06-27T21:25:53Z</time>
					</trkpt>
					<trkpt lat="47.997050" lon="-4.485220">
						<ele>48</ele>
						<time>2026-06-27T21:26:01Z</time>
					</trkpt>
					<trkpt lat="47.997210" lon="-4.485790">
						<ele>48</ele>
						<time>2026-06-27T21:26:08Z</time>
					</trkpt>
					<trkpt lat="47.997570" lon="-4.486740">
						<ele>49</ele>
						<time>2026-06-27T21:26:21Z</time>
					</trkpt>
					<trkpt lat="47.997660" lon="-4.486830">
						<ele>49</ele>
						<time>2026-06-27T21:26:23Z</time>
					</trkpt>
					<trkpt lat="47.997700" lon="-4.486840">
						<ele>49</ele>
						<time>2026-06-27T21:26:24Z</time>
					</trkpt>
					<trkpt lat="47.997830" lon="-4.486770">
						<ele>50</ele>
						<time>2026-06-27T21:26:26Z</time>
					</trkpt>
					<trkpt lat="47.998970" lon="-4.485860">
						<ele>60</ele>
						<time>2026-06-27T21:26:49Z</time>
					</trkpt>
					<trkpt lat="47.999100" lon="-4.485720">
						<ele>61</ele>
						<time>2026-06-27T21:26:52Z</time>
					</trkpt>
					<trkpt lat="47.999300" lon="-4.485440">
						<ele>63</ele>
						<time>2026-06-27T21:26:57Z</time>
					</trkpt>
					<trkpt lat="47.999870" lon="-4.484580">
						<ele>68</ele>
						<time>2026-06-27T21:27:11Z</time>
					</trkpt>
					<trkpt lat="47.999990" lon="-4.484460">
						<ele>70</ele>
						<time>2026-06-27T21:27:14Z</time>
					</trkpt>
					<trkpt lat="48.000100" lon="-4.484390">
						<ele>70</ele>
						<time>2026-06-27T21:27:16Z</time>
					</trkpt>
					<trkpt lat="48.000240" lon="-4.484340">
						<ele>71</ele>
						<time>2026-06-27T21:27:19Z</time>
					</trkpt>
					<trkpt lat="48.000360" lon="-4.484330">
						<ele>71</ele>
						<time>2026-06-27T21:27:21Z</time>
					</trkpt>
					<trkpt lat="48.000500" lon="-4.484360">
						<ele>71</ele>
						<time>2026-06-27T21:27:23Z</time>
					</trkpt>
					<trkpt lat="48.000990" lon="-4.484630">
						<ele>72</ele>
						<time>2026-06-27T21:27:33Z</time>
					</trkpt>
					<trkpt lat="48.002570" lon="-4.485180">
						<ele>77</ele>
						<time>2026-06-27T21:28:02Z</time>
					</trkpt>
					<trkpt lat="48.002780" lon="-4.485210">
						<ele>78</ele>
						<time>2026-06-27T21:28:05Z</time>
					</trkpt>
					<trkpt lat="48.004130" lon="-4.485130">
						<ele>85</ele>
						<time>2026-06-27T21:28:29Z</time>
					</trkpt>
					<trkpt lat="48.004150" lon="-4.485150">
						<ele>86</ele>
						<time>2026-06-27T21:28:30Z</time>
					</trkpt>
					<trkpt lat="48.004170" lon="-4.486590">
						<ele>84</ele>
						<time>2026-06-27T21:28:47Z</time>
					</trkpt>
					<trkpt lat="48.004020" lon="-4.488360">
						<ele>81</ele>
						<time>2026-06-27T21:29:08Z</time>
					</trkpt>
					<trkpt lat="48.003770" lon="-4.490360">
						<ele>71</ele>
						<time>2026-06-27T21:29:32Z</time>
					</trkpt>
					<trkpt lat="48.003770" lon="-4.490690">
						<ele>70</ele>
						<time>2026-06-27T21:29:36Z</time>
					</trkpt>
					<trkpt lat="48.003840" lon="-4.491030">
						<ele>69</ele>
						<time>2026-06-27T21:29:41Z</time>
					</trkpt>
					<trkpt lat="48.004540" lon="-4.493330">
						<ele>63</ele>
						<time>2026-06-27T21:30:11Z</time>
					</trkpt>
					<trkpt lat="48.005000" lon="-4.495480">
						<ele>54</ele>
						<time>2026-06-27T21:30:37Z</time>
					</trkpt>
					<trkpt lat="48.005190" lon="-4.496290">
						<ele>51</ele>
						<time>2026-06-27T21:30:48Z</time>
					</trkpt>
					<trkpt lat="48.005220" lon="-4.496340">
						<ele>51</ele>
						<time>2026-06-27T21:30:49Z</time>
					</trkpt>
					<trkpt lat="48.008470" lon="-4.494520">
						<ele>67</ele>
						<time>2026-06-27T21:31:50Z</time>
					</trkpt>
					<trkpt lat="48.008650" lon="-4.494350">
						<ele>68</ele>
						<time>2026-06-27T21:31:54Z</time>
					</trkpt>
					<trkpt lat="48.008910" lon="-4.493920">
						<ele>70</ele>
						<time>2026-06-27T21:32:01Z</time>
					</trkpt>
					<trkpt lat="48.009110" lon="-4.493730">
						<ele>71</ele>
						<time>2026-06-27T21:32:05Z</time>
					</trkpt>
					<trkpt lat="48.009360" lon="-4.493540">
						<ele>71</ele>
						<time>2026-06-27T21:32:10Z</time>
					</trkpt>
					<trkpt lat="48.009520" lon="-4.493450">
						<ele>72</ele>
						<time>2026-06-27T21:32:13Z</time>
					</trkpt>
					<trkpt lat="48.009470" lon="-4.493360">
						<ele>72</ele>
						<time>2026-06-27T21:32:15Z</time>
					</trkpt>
					<trkpt lat="48.009270" lon="-4.493190">
						<ele>71</ele>
						<time>2026-06-27T21:32:19Z</time>
					</trkpt>
					<trkpt lat="48.009160" lon="-4.493020">
						<ele>71</ele>
						<time>2026-06-27T21:32:21Z</time>
					</trkpt>
					<trkpt lat="48.009070" lon="-4.492520">
						<ele>72</ele>
						<time>2026-06-27T21:32:28Z</time>
					</trkpt>
					<trkpt lat="48.009020" lon="-4.492360">
						<ele>73</ele>
						<time>2026-06-27T21:32:30Z</time>
					</trkpt>
					<trkpt lat="48.008950" lon="-4.492260">
						<ele>73</ele>
						<time>2026-06-27T21:32:31Z</time>
					</trkpt>
					<trkpt lat="48.008730" lon="-4.492050">
						<ele>74</ele>
						<time>2026-06-27T21:32:36Z</time>
					</trkpt>
					<trkpt lat="48.008380" lon="-4.491460">
						<ele>76</ele>
						<time>2026-06-27T21:32:46Z</time>
					</trkpt>
					<trkpt lat="48.008340" lon="-4.491410">
						<ele>76</ele>
						<time>2026-06-27T21:32:46Z</time>
					</trkpt>
					<trkpt lat="48.008190" lon="-4.491350">
						<ele>76</ele>
						<time>2026-06-27T21:32:49Z</time>
					</trkpt>
					<trkpt lat="48.008000" lon="-4.491380">
						<ele>76</ele>
						<time>2026-06-27T21:32:53Z</time>
					</trkpt>
					<trkpt lat="48.007880" lon="-4.491430">
						<ele>76</ele>
						<time>2026-06-27T21:32:55Z</time>
					</trkpt>
					<trkpt lat="48.007850" lon="-4.491350">
						<ele>76</ele>
						<time>2026-06-27T21:32:56Z</time>
					</trkpt>
					<trkpt lat="48.007770" lon="-4.490280">
						<ele>79</ele>
						<time>2026-06-27T21:33:09Z</time>
					</trkpt>
					<trkpt lat="48.007720" lon="-4.489930">
						<ele>80</ele>
						<time>2026-06-27T21:33:13Z</time>
					</trkpt>
					<trkpt lat="48.007360" lon="-4.487920">
						<ele>84</ele>
						<time>2026-06-27T21:33:38Z</time>
					</trkpt>
					<trkpt lat="48.007070" lon="-4.486440">
						<ele>86</ele>
						<time>2026-06-27T21:33:56Z</time>
					</trkpt>
					<trkpt lat="48.006840" lon="-4.485410">
						<ele>87</ele>
						<time>2026-06-27T21:34:09Z</time>
					</trkpt>
					<trkpt lat="48.006860" lon="-4.485310">
						<ele>87</ele>
						<time>2026-06-27T21:34:10Z</time>
					</trkpt>
					<trkpt lat="48.007310" lon="-4.485140">
						<ele>88</ele>
						<time>2026-06-27T21:34:19Z</time>
					</trkpt>
					<trkpt lat="48.008180" lon="-4.485000">
						<ele>87</ele>
						<time>2026-06-27T21:34:34Z</time>
					</trkpt>
					<trkpt lat="48.008350" lon="-4.485000">
						<ele>87</ele>
						<time>2026-06-27T21:34:37Z</time>
					</trkpt>
					<trkpt lat="48.008650" lon="-4.485040">
						<ele>87</ele>
						<time>2026-06-27T21:34:42Z</time>
					</trkpt>
					<trkpt lat="48.008940" lon="-4.485110">
						<ele>88</ele>
						<time>2026-06-27T21:34:48Z</time>
					</trkpt>
					<trkpt lat="48.010240" lon="-4.485230">
						<ele>91</ele>
						<time>2026-06-27T21:35:11Z</time>
					</trkpt>
					<trkpt lat="48.013700" lon="-4.485650">
						<ele>99</ele>
						<time>2026-06-27T21:36:13Z</time>
					</trkpt>
					<trkpt lat="48.013790" lon="-4.485640">
						<ele>100</ele>
						<time>2026-06-27T21:36:14Z</time>
					</trkpt>
					<trkpt lat="48.013830" lon="-4.485680">
						<ele>100</ele>
						<time>2026-06-27T21:36:15Z</time>
					</trkpt>
					<trkpt lat="48.013860" lon="-4.485530">
						<ele>100</ele>
						<time>2026-06-27T21:36:17Z</time>
					</trkpt>
					<trkpt lat="48.013640" lon="-4.484320">
						<ele>100</ele>
						<time>2026-06-27T21:36:32Z</time>
					</trkpt>
					<trkpt lat="48.013280" lon="-4.484330">
						<ele>100</ele>
						<time>2026-06-27T21:36:38Z</time>
					</trkpt>
					<trkpt lat="48.013010" lon="-4.484310">
						<ele>99</ele>
						<time>2026-06-27T21:36:43Z</time>
					</trkpt>
					<trkpt lat="48.012790" lon="-4.484200">
						<ele>99</ele>
						<time>2026-06-27T21:36:47Z</time>
					</trkpt>
					<trkpt lat="48.012630" lon="-4.484070">
						<ele>98</ele>
						<time>2026-06-27T21:36:50Z</time>
					</trkpt>
					<trkpt lat="48.012350" lon="-4.483750">
						<ele>98</ele>
						<time>2026-06-27T21:36:57Z</time>
					</trkpt>
					<trkpt lat="48.009600" lon="-4.480020">
						<ele>94</ele>
						<time>2026-06-27T21:38:03Z</time>
					</trkpt>
					<trkpt lat="48.009210" lon="-4.479530">
						<ele>93</ele>
						<time>2026-06-27T21:38:12Z</time>
					</trkpt>
					<trkpt lat="48.008630" lon="-4.478730">
						<ele>93</ele>
						<time>2026-06-27T21:38:26Z</time>
					</trkpt>
					<trkpt lat="48.008090" lon="-4.478060">
						<ele>93</ele>
						<time>2026-06-27T21:38:38Z</time>
					</trkpt>
					<trkpt lat="48.007820" lon="-4.477760">
						<ele>93</ele>
						<time>2026-06-27T21:38:44Z</time>
					</trkpt>
					<trkpt lat="48.007230" lon="-4.477210">
						<ele>94</ele>
						<time>2026-06-27T21:38:57Z</time>
					</trkpt>
					<trkpt lat="48.006750" lon="-4.476810">
						<ele>93</ele>
						<time>2026-06-27T21:39:07Z</time>
					</trkpt>
					<trkpt lat="48.005290" lon="-4.475770">
						<ele>90</ele>
						<time>2026-06-27T21:39:35Z</time>
					</trkpt>
					<trkpt lat="48.004870" lon="-4.475350">
						<ele>90</ele>
						<time>2026-06-27T21:39:44Z</time>
					</trkpt>
					<trkpt lat="48.004560" lon="-4.474860">
						<ele>90</ele>
						<time>2026-06-27T21:39:52Z</time>
					</trkpt>
					<trkpt lat="48.003860" lon="-4.473570">
						<ele>91</ele>
						<time>2026-06-27T21:40:12Z</time>
					</trkpt>
					<trkpt lat="48.003680" lon="-4.473290">
						<ele>91</ele>
						<time>2026-06-27T21:40:17Z</time>
					</trkpt>
					<trkpt lat="48.002470" lon="-4.471740">
						<ele>89</ele>
						<time>2026-06-27T21:40:45Z</time>
					</trkpt>
					<trkpt lat="48.000130" lon="-4.468930">
						<ele>79</ele>
						<time>2026-06-27T21:41:39Z</time>
					</trkpt>
					<trkpt lat="47.999780" lon="-4.468560">
						<ele>77</ele>
						<time>2026-06-27T21:41:46Z</time>
					</trkpt>
					<trkpt lat="47.999550" lon="-4.468410">
						<ele>77</ele>
						<time>2026-06-27T21:41:51Z</time>
					</trkpt>
					<trkpt lat="47.999220" lon="-4.468260">
						<ele>76</ele>
						<time>2026-06-27T21:41:57Z</time>
					</trkpt>
					<trkpt lat="47.997990" lon="-4.468030">
						<ele>71</ele>
						<time>2026-06-27T21:42:19Z</time>
					</trkpt>
					<trkpt lat="47.996640" lon="-4.467740">
						<ele>66</ele>
						<time>2026-06-27T21:42:43Z</time>
					</trkpt>
					<trkpt lat="47.996270" lon="-4.467690">
						<ele>65</ele>
						<time>2026-06-27T21:42:50Z</time>
					</trkpt>
					<trkpt lat="47.995920" lon="-4.467690">
						<ele>63</ele>
						<time>2026-06-27T21:42:56Z</time>
					</trkpt>
					<trkpt lat="47.995440" lon="-4.467780">
						<ele>62</ele>
						<time>2026-06-27T21:43:05Z</time>
					</trkpt>
					<trkpt lat="47.994580" lon="-4.468030">
						<ele>61</ele>
						<time>2026-06-27T21:43:20Z</time>
					</trkpt>
					<trkpt lat="47.994300" lon="-4.468050">
						<ele>61</ele>
						<time>2026-06-27T21:43:25Z</time>
					</trkpt>
					<trkpt lat="47.994040" lon="-4.467990">
						<ele>61</ele>
						<time>2026-06-27T21:43:30Z</time>
					</trkpt>
					<trkpt lat="47.993730" lon="-4.467870">
						<ele>60</ele>
						<time>2026-06-27T21:43:35Z</time>
					</trkpt>
					<trkpt lat="47.993560" lon="-4.467770">
						<ele>60</ele>
						<time>2026-06-27T21:43:39Z</time>
					</trkpt>
					<trkpt lat="47.993370" lon="-4.467590">
						<ele>60</ele>
						<time>2026-06-27T21:43:43Z</time>
					</trkpt>
					<trkpt lat="47.993140" lon="-4.467290">
						<ele>59</ele>
						<time>2026-06-27T21:43:48Z</time>
					</trkpt>
					<trkpt lat="47.992330" lon="-4.466010">
						<ele>54</ele>
						<time>2026-06-27T21:44:09Z</time>
					</trkpt>
					<trkpt lat="47.992190" lon="-4.465830">
						<ele>53</ele>
						<time>2026-06-27T21:44:12Z</time>
					</trkpt>
					<trkpt lat="47.991990" lon="-4.465630">
						<ele>51</ele>
						<time>2026-06-27T21:44:17Z</time>
					</trkpt>
					<trkpt lat="47.991760" lon="-4.465550">
						<ele>49</ele>
						<time>2026-06-27T21:44:21Z</time>
					</trkpt>
					<trkpt lat="47.990480" lon="-4.465430">
						<ele>39</ele>
						<time>2026-06-27T21:44:44Z</time>
					</trkpt>
					<trkpt lat="47.989630" lon="-4.465460">
						<ele>37</ele>
						<time>2026-06-27T21:44:59Z</time>
					</trkpt>
					<trkpt lat="47.989300" lon="-4.465550">
						<ele>36</ele>
						<time>2026-06-27T21:45:05Z</time>
					</trkpt>
					<trkpt lat="47.988600" lon="-4.465820">
						<ele>32</ele>
						<time>2026-06-27T21:45:18Z</time>
					</trkpt>
					<trkpt lat="47.988290" lon="-4.465870">
						<ele>30</ele>
						<time>2026-06-27T21:45:23Z</time>
					</trkpt>
					<trkpt lat="47.988080" lon="-4.465830">
						<ele>28</ele>
						<time>2026-06-27T21:45:27Z</time>
					</trkpt>
					<trkpt lat="47.987940" lon="-4.465770">
						<ele>27</ele>
						<time>2026-06-27T21:45:30Z</time>
					</trkpt>
					<trkpt lat="47.987690" lon="-4.465600">
						<ele>25</ele>
						<time>2026-06-27T21:45:34Z</time>
					</trkpt>
					<trkpt lat="47.987450" lon="-4.465390">
						<ele>23</ele>
						<time>2026-06-27T21:45:39Z</time>
					</trkpt>
					<trkpt lat="47.987110" lon="-4.465160">
						<ele>22</ele>
						<time>2026-06-27T21:45:46Z</time>
					</trkpt>
					<trkpt lat="47.987010" lon="-4.465230">
						<ele>21</ele>
						<time>2026-06-27T21:45:48Z</time>
					</trkpt>
					<trkpt lat="47.986680" lon="-4.465360">
						<ele>21</ele>
						<time>2026-06-27T21:45:54Z</time>
					</trkpt>
					<trkpt lat="47.986640" lon="-4.465510">
						<ele>21</ele>
						<time>2026-06-27T21:45:56Z</time>
					</trkpt>
					<trkpt lat="47.986630" lon="-4.465870">
						<ele>23</ele>
						<time>2026-06-27T21:46:00Z</time>
					</trkpt>
					<trkpt lat="47.986670" lon="-4.466470">
						<ele>25</ele>
						<time>2026-06-27T21:46:08Z</time>
					</trkpt>
					<trkpt lat="47.987220" lon="-4.469420">
						<ele>30</ele>
						<time>2026-06-27T21:46:44Z</time>
					</trkpt>
					<trkpt lat="47.987570" lon="-4.471560">
						<ele>29</ele>
						<time>2026-06-27T21:47:10Z</time>
					</trkpt>
					<trkpt lat="47.987880" lon="-4.473660">
						<ele>29</ele>
						<time>2026-06-27T21:47:36Z</time>
					</trkpt>
					<trkpt lat="47.987940" lon="-4.473930">
						<ele>29</ele>
						<time>2026-06-27T21:47:39Z</time>
					</trkpt>
					<trkpt lat="47.988290" lon="-4.474980">
						<ele>29</ele>
						<time>2026-06-27T21:47:53Z</time>
					</trkpt>
					<trkpt lat="47.988860" lon="-4.476970">
						<ele>15</ele>
						<time>2026-06-27T21:48:19Z</time>
					</trkpt>
					<trkpt lat="47.988990" lon="-4.477230">
						<ele>14</ele>
						<time>2026-06-27T21:48:23Z</time>
					</trkpt>
					<trkpt lat="47.989070" lon="-4.477320">
						<ele>14</ele>
						<time>2026-06-27T21:48:25Z</time>
					</trkpt>
					<trkpt lat="47.989230" lon="-4.477430">
						<ele>14</ele>
						<time>2026-06-27T21:48:28Z</time>
					</trkpt>
					<trkpt lat="47.989380" lon="-4.477490">
						<ele>13</ele>
						<time>2026-06-27T21:48:30Z</time>
					</trkpt>
					<trkpt lat="47.990130" lon="-4.477520">
						<ele>10</ele>
						<time>2026-06-27T21:48:44Z</time>
					</trkpt>
					<trkpt lat="47.990320" lon="-4.477550">
						<ele>10</ele>
						<time>2026-06-27T21:48:47Z</time>
					</trkpt>
					<trkpt lat="47.990590" lon="-4.477660">
						<ele>9</ele>
						<time>2026-06-27T21:48:52Z</time>
					</trkpt>
					<trkpt lat="47.990780" lon="-4.477790">
						<ele>9</ele>
						<time>2026-06-27T21:48:56Z</time>
					</trkpt>
					<trkpt lat="47.992250" lon="-4.479450">
						<ele>15</ele>
						<time>2026-06-27T21:49:29Z</time>
					</trkpt>
					<trkpt lat="47.993770" lon="-4.481080">
						<ele>29</ele>
						<time>2026-06-27T21:50:02Z</time>
					</trkpt>
					<trkpt lat="47.994300" lon="-4.481540">
						<ele>33</ele>
						<time>2026-06-27T21:50:13Z</time>
					</trkpt>
					<trkpt lat="47.994590" lon="-4.481760">
						<ele>35</ele>
						<time>2026-06-27T21:50:19Z</time>
					</trkpt>
					<trkpt lat="47.995210" lon="-4.482380">
						<ele>37</ele>
						<time>2026-06-27T21:50:32Z</time>
					</trkpt>
					<trkpt lat="47.995340" lon="-4.482530">
						<ele>38</ele>
						<time>2026-06-27T21:50:35Z</time>
					</trkpt>
					<trkpt lat="47.996690" lon="-4.484440">
						<ele>47</ele>
						<time>2026-06-27T21:51:08Z</time>
					</trkpt>
					<trkpt lat="47.996820" lon="-4.484660">
						<ele>47</ele>
						<time>2026-06-27T21:51:11Z</time>
					</trkpt>
					<trkpt lat="47.997050" lon="-4.485220">
						<ele>48</ele>
						<time>2026-06-27T21:51:19Z</time>
					</trkpt>
					<trkpt lat="47.997210" lon="-4.485790">
						<ele>48</ele>
						<time>2026-06-27T21:51:27Z</time>
					</trkpt>
					<trkpt lat="47.997570" lon="-4.486740">
						<ele>49</ele>
						<time>2026-06-27T21:51:40Z</time>
					</trkpt>
					<trkpt lat="47.997660" lon="-4.486830">
						<ele>49</ele>
						<time>2026-06-27T21:51:42Z</time>
					</trkpt>
					<trkpt lat="47.997700" lon="-4.486840">
						<ele>49</ele>
						<time>2026-06-27T21:51:42Z</time>
					</trkpt>
					<trkpt lat="47.997830" lon="-4.486770">
						<ele>50</ele>
						<time>2026-06-27T21:51:45Z</time>
					</trkpt>
					<trkpt lat="47.998970" lon="-4.485860">
						<ele>60</ele>
						<time>2026-06-27T21:52:08Z</time>
					</trkpt>
					<trkpt lat="47.999100" lon="-4.485720">
						<ele>61</ele>
						<time>2026-06-27T21:52:11Z</time>
					</trkpt>
					<trkpt lat="47.999300" lon="-4.485440">
						<ele>63</ele>
						<time>2026-06-27T21:52:15Z</time>
					</trkpt>
					<trkpt lat="47.999870" lon="-4.484580">
						<ele>68</ele>
						<time>2026-06-27T21:52:30Z</time>
					</trkpt>
					<trkpt lat="47.999990" lon="-4.484460">
						<ele>70</ele>
						<time>2026-06-27T21:52:32Z</time>
					</trkpt>
					<trkpt lat="48.000100" lon="-4.484390">
						<ele>70</ele>
						<time>2026-06-27T21:52:35Z</time>
					</trkpt>
					<trkpt lat="48.000240" lon="-4.484340">
						<ele>71</ele>
						<time>2026-06-27T21:52:37Z</time>
					</trkpt>
					<trkpt lat="48.000360" lon="-4.484330">
						<ele>71</ele>
						<time>2026-06-27T21:52:39Z</time>
					</trkpt>
					<trkpt lat="48.000500" lon="-4.484360">
						<ele>71</ele>
						<time>2026-06-27T21:52:42Z</time>
					</trkpt>
					<trkpt lat="48.000990" lon="-4.484630">
						<ele>72</ele>
						<time>2026-06-27T21:52:51Z</time>
					</trkpt>
					<trkpt lat="48.002570" lon="-4.485180">
						<ele>77</ele>
						<time>2026-06-27T21:53:20Z</time>
					</trkpt>
					<trkpt lat="48.002780" lon="-4.485210">
						<ele>78</ele>
						<time>2026-06-27T21:53:24Z</time>
					</trkpt>
					<trkpt lat="48.004130" lon="-4.485130">
						<ele>85</ele>
						<time>2026-06-27T21:53:48Z</time>
					</trkpt>
					<trkpt lat="48.004150" lon="-4.485150">
						<ele>86</ele>
						<time>2026-06-27T21:53:48Z</time>
					</trkpt>
					<trkpt lat="48.004170" lon="-4.486590">
						<ele>84</ele>
						<time>2026-06-27T21:54:05Z</time>
					</trkpt>
					<trkpt lat="48.004020" lon="-4.488360">
						<ele>81</ele>
						<time>2026-06-27T21:54:27Z</time>
					</trkpt>
					<trkpt lat="48.003770" lon="-4.490360">
						<ele>71</ele>
						<time>2026-06-27T21:54:51Z</time>
					</trkpt>
					<trkpt lat="48.003770" lon="-4.490690">
						<ele>70</ele>
						<time>2026-06-27T21:54:55Z</time>
					</trkpt>
					<trkpt lat="48.003840" lon="-4.491030">
						<ele>69</ele>
						<time>2026-06-27T21:54:59Z</time>
					</trkpt>
					<trkpt lat="48.004540" lon="-4.493330">
						<ele>63</ele>
						<time>2026-06-27T21:55:29Z</time>
					</trkpt>
					<trkpt lat="48.005000" lon="-4.495480">
						<ele>54</ele>
						<time>2026-06-27T21:55:56Z</time>
					</trkpt>
					<trkpt lat="48.005190" lon="-4.496290">
						<ele>51</ele>
						<time>2026-06-27T21:56:06Z</time>
					</trkpt>
					<trkpt lat="48.005220" lon="-4.496340">
						<ele>51</ele>
						<time>2026-06-27T21:56:07Z</time>
					</trkpt>
					<trkpt lat="48.008470" lon="-4.494520">
						<ele>67</ele>
						<time>2026-06-27T21:57:09Z</time>
					</trkpt>
					<trkpt lat="48.008650" lon="-4.494350">
						<ele>68</ele>
						<time>2026-06-27T21:57:12Z</time>
					</trkpt>
					<trkpt lat="48.008910" lon="-4.493920">
						<ele>70</ele>
						<time>2026-06-27T21:57:19Z</time>
					</trkpt>
					<trkpt lat="48.009110" lon="-4.493730">
						<ele>71</ele>
						<time>2026-06-27T21:57:24Z</time>
					</trkpt>
					<trkpt lat="48.009360" lon="-4.493540">
						<ele>71</ele>
						<time>2026-06-27T21:57:29Z</time>
					</trkpt>
					<trkpt lat="48.009520" lon="-4.493450">
						<ele>72</ele>
						<time>2026-06-27T21:57:32Z</time>
					</trkpt>
					<trkpt lat="48.009470" lon="-4.493360">
						<ele>72</ele>
						<time>2026-06-27T21:57:33Z</time>
					</trkpt>
					<trkpt lat="48.009270" lon="-4.493190">
						<ele>71</ele>
						<time>2026-06-27T21:57:37Z</time>
					</trkpt>
					<trkpt lat="48.009160" lon="-4.493020">
						<ele>71</ele>
						<time>2026-06-27T21:57:40Z</time>
					</trkpt>
					<trkpt lat="48.009070" lon="-4.492520">
						<ele>72</ele>
						<time>2026-06-27T21:57:46Z</time>
					</trkpt>
					<trkpt lat="48.009020" lon="-4.492360">
						<ele>73</ele>
						<time>2026-06-27T21:57:48Z</time>
					</trkpt>
					<trkpt lat="48.008950" lon="-4.492260">
						<ele>73</ele>
						<time>2026-06-27T21:57:50Z</time>
					</trkpt>
					<trkpt lat="48.008730" lon="-4.492050">
						<ele>74</ele>
						<time>2026-06-27T21:57:55Z</time>
					</trkpt>
					<trkpt lat="48.008380" lon="-4.491460">
						<ele>76</ele>
						<time>2026-06-27T21:58:04Z</time>
					</trkpt>
					<trkpt lat="48.008340" lon="-4.491410">
						<ele>76</ele>
						<time>2026-06-27T21:58:05Z</time>
					</trkpt>
					<trkpt lat="48.008190" lon="-4.491350">
						<ele>76</ele>
						<time>2026-06-27T21:58:08Z</time>
					</trkpt>
					<trkpt lat="48.008000" lon="-4.491380">
						<ele>76</ele>
						<time>2026-06-27T21:58:11Z</time>
					</trkpt>
					<trkpt lat="48.007880" lon="-4.491430">
						<ele>76</ele>
						<time>2026-06-27T21:58:13Z</time>
					</trkpt>
					<trkpt lat="48.007850" lon="-4.491350">
						<ele>76</ele>
						<time>2026-06-27T21:58:14Z</time>
					</trkpt>
					<trkpt lat="48.007770" lon="-4.490280">
						<ele>79</ele>
						<time>2026-06-27T21:58:27Z</time>
					</trkpt>
					<trkpt lat="48.007720" lon="-4.489930">
						<ele>80</ele>
						<time>2026-06-27T21:58:31Z</time>
					</trkpt>
					<trkpt lat="48.007360" lon="-4.487920">
						<ele>84</ele>
						<time>2026-06-27T21:58:56Z</time>
					</trkpt>
					<trkpt lat="48.007070" lon="-4.486440">
						<ele>86</ele>
						<time>2026-06-27T21:59:15Z</time>
					</trkpt>
					<trkpt lat="48.006840" lon="-4.485410">
						<ele>87</ele>
						<time>2026-06-27T21:59:27Z</time>
					</trkpt>
					<trkpt lat="48.006860" lon="-4.485310">
						<ele>87</ele>
						<time>2026-06-27T21:59:29Z</time>
					</trkpt>
					<trkpt lat="48.007310" lon="-4.485140">
						<ele>88</ele>
						<time>2026-06-27T21:59:37Z</time>
					</trkpt>
					<trkpt lat="48.008180" lon="-4.485000">
						<ele>87</ele>
						<time>2026-06-27T21:59:53Z</time>
					</trkpt>
					<trkpt lat="48.008350" lon="-4.485000">
						<ele>87</ele>
						<time>2026-06-27T21:59:56Z</time>
					</trkpt>
					<trkpt lat="48.008650" lon="-4.485040">
						<ele>87</ele>
						<time>2026-06-27T22:00:01Z</time>
					</trkpt>
					<trkpt lat="48.008940" lon="-4.485110">
						<ele>88</ele>
						<time>2026-06-27T22:00:06Z</time>
					</trkpt>
					<trkpt lat="48.010240" lon="-4.485230">
						<ele>91</ele>
						<time>2026-06-27T22:00:29Z</time>
					</trkpt>
					<trkpt lat="48.013700" lon="-4.485650">
						<ele>99</ele>
						<time>2026-06-27T22:01:31Z</time>
					</trkpt>
					<trkpt lat="48.013790" lon="-4.485640">
						<ele>100</ele>
						<time>2026-06-27T22:01:33Z</time>
					</trkpt>
					<trkpt lat="48.013830" lon="-4.485680">
						<ele>100</ele>
						<time>2026-06-27T22:01:34Z</time>
					</trkpt>
					<trkpt lat="48.013860" lon="-4.485530">
						<ele>100</ele>
						<time>2026-06-27T22:01:35Z</time>
					</trkpt>
					<trkpt lat="48.013640" lon="-4.484320">
						<ele>100</ele>
						<time>2026-06-27T22:01:50Z</time>
					</trkpt>
					<trkpt lat="48.013280" lon="-4.484330">
						<ele>100</ele>
						<time>2026-06-27T22:01:57Z</time>
					</trkpt>
					<trkpt lat="48.013010" lon="-4.484310">
						<ele>99</ele>
						<time>2026-06-27T22:02:02Z</time>
					</trkpt>
					<trkpt lat="48.012790" lon="-4.484200">
						<ele>99</ele>
						<time>2026-06-27T22:02:06Z</time>
					</trkpt>
					<trkpt lat="48.012630" lon="-4.484070">
						<ele>98</ele>
						<time>2026-06-27T22:02:09Z</time>
					</trkpt>
					<trkpt lat="48.012350" lon="-4.483750">
						<ele>98</ele>
						<time>2026-06-27T22:02:15Z</time>
					</trkpt>
					<trkpt lat="48.009600" lon="-4.480020">
						<ele>94</ele>
						<time>2026-06-27T22:03:21Z</time>
					</trkpt>
					<trkpt lat="48.009210" lon="-4.479530">
						<ele>93</ele>
						<time>2026-06-27T22:03:30Z</time>
					</trkpt>
					<trkpt lat="48.008630" lon="-4.478730">
						<ele>93</ele>
						<time>2026-06-27T22:03:44Z</time>
					</trkpt>
					<trkpt lat="48.008090" lon="-4.478060">
						<ele>93</ele>
						<time>2026-06-27T22:03:57Z</time>
					</trkpt>
					<trkpt lat="48.007820" lon="-4.477760">
						<ele>93</ele>
						<time>2026-06-27T22:04:03Z</time>
					</trkpt>
					<trkpt lat="48.007230" lon="-4.477210">
						<ele>94</ele>
						<time>2026-06-27T22:04:15Z</time>
					</trkpt>
					<trkpt lat="48.006750" lon="-4.476810">
						<ele>93</ele>
						<time>2026-06-27T22:04:25Z</time>
					</trkpt>
					<trkpt lat="48.005290" lon="-4.475770">
						<ele>90</ele>
						<time>2026-06-27T22:04:54Z</time>
					</trkpt>
					<trkpt lat="48.004870" lon="-4.475350">
						<ele>90</ele>
						<time>2026-06-27T22:05:03Z</time>
					</trkpt>
					<trkpt lat="48.004560" lon="-4.474860">
						<ele>90</ele>
						<time>2026-06-27T22:05:11Z</time>
					</trkpt>
					<trkpt lat="48.003860" lon="-4.473570">
						<ele>91</ele>
						<time>2026-06-27T22:05:31Z</time>
					</trkpt>
					<trkpt lat="48.003680" lon="-4.473290">
						<ele>91</ele>
						<time>2026-06-27T22:05:35Z</time>
					</trkpt>
					<trkpt lat="48.002470" lon="-4.471740">
						<ele>89</ele>
						<time>2026-06-27T22:06:04Z</time>
					</trkpt>
					<trkpt lat="48.000130" lon="-4.468930">
						<ele>79</ele>
						<time>2026-06-27T22:06:57Z</time>
					</trkpt>
					<trkpt lat="47.999780" lon="-4.468560">
						<ele>77</ele>
						<time>2026-06-27T22:07:05Z</time>
					</trkpt>
					<trkpt lat="47.999550" lon="-4.468410">
						<ele>77</ele>
						<time>2026-06-27T22:07:09Z</time>
					</trkpt>
					<trkpt lat="47.999220" lon="-4.468260">
						<ele>76</ele>
						<time>2026-06-27T22:07:15Z</time>
					</trkpt>
					<trkpt lat="47.997990" lon="-4.468030">
						<ele>71</ele>
						<time>2026-06-27T22:07:37Z</time>
					</trkpt>
					<trkpt lat="47.996640" lon="-4.467740">
						<ele>66</ele>
						<time>2026-06-27T22:08:02Z</time>
					</trkpt>
					<trkpt lat="47.996270" lon="-4.467690">
						<ele>65</ele>
						<time>2026-06-27T22:08:08Z</time>
					</trkpt>
					<trkpt lat="47.995920" lon="-4.467690">
						<ele>63</ele>
						<time>2026-06-27T22:08:14Z</time>
					</trkpt>
					<trkpt lat="47.995440" lon="-4.467780">
						<ele>62</ele>
						<time>2026-06-27T22:08:23Z</time>
					</trkpt>
					<trkpt lat="47.994580" lon="-4.468030">
						<ele>61</ele>
						<time>2026-06-27T22:08:39Z</time>
					</trkpt>
					<trkpt lat="47.994300" lon="-4.468050">
						<ele>61</ele>
						<time>2026-06-27T22:08:44Z</time>
					</trkpt>
					<trkpt lat="47.994040" lon="-4.467990">
						<ele>61</ele>
						<time>2026-06-27T22:08:48Z</time>
					</trkpt>
					<trkpt lat="47.993730" lon="-4.467870">
						<ele>60</ele>
						<time>2026-06-27T22:08:54Z</time>
					</trkpt>
					<trkpt lat="47.993560" lon="-4.467770">
						<ele>60</ele>
						<time>2026-06-27T22:08:57Z</time>
					</trkpt>
					<trkpt lat="47.993370" lon="-4.467590">
						<ele>60</ele>
						<time>2026-06-27T22:09:01Z</time>
					</trkpt>
					<trkpt lat="47.993140" lon="-4.467290">
						<ele>59</ele>
						<time>2026-06-27T22:09:07Z</time>
					</trkpt>
					<trkpt lat="47.992330" lon="-4.466010">
						<ele>54</ele>
						<time>2026-06-27T22:09:28Z</time>
					</trkpt>
					<trkpt lat="47.992190" lon="-4.465830">
						<ele>53</ele>
						<time>2026-06-27T22:09:31Z</time>
					</trkpt>
					<trkpt lat="47.991990" lon="-4.465630">
						<ele>51</ele>
						<time>2026-06-27T22:09:35Z</time>
					</trkpt>
					<trkpt lat="47.991760" lon="-4.465550">
						<ele>49</ele>
						<time>2026-06-27T22:09:39Z</time>
					</trkpt>
					<trkpt lat="47.990480" lon="-4.465430">
						<ele>39</ele>
						<time>2026-06-27T22:10:02Z</time>
					</trkpt>
					<trkpt lat="47.989630" lon="-4.465460">
						<ele>37</ele>
						<time>2026-06-27T22:10:17Z</time>
					</trkpt>
					<trkpt lat="47.989300" lon="-4.465550">
						<ele>36</ele>
						<time>2026-06-27T22:10:23Z</time>
					</trkpt>
					<trkpt lat="47.988600" lon="-4.465820">
						<ele>32</ele>
						<time>2026-06-27T22:10:36Z</time>
					</trkpt>
					<trkpt lat="47.988290" lon="-4.465870">
						<ele>30</ele>
						<time>2026-06-27T22:10:42Z</time>
					</trkpt>
					<trkpt lat="47.988080" lon="-4.465830">
						<ele>28</ele>
						<time>2026-06-27T22:10:45Z</time>
					</trkpt>
					<trkpt lat="47.987940" lon="-4.465770">
						<ele>27</ele>
						<time>2026-06-27T22:10:48Z</time>
					</trkpt>
					<trkpt lat="47.987690" lon="-4.465600">
						<ele>25</ele>
						<time>2026-06-27T22:10:53Z</time>
					</trkpt>
					<trkpt lat="47.987450" lon="-4.465390">
						<ele>23</ele>
						<time>2026-06-27T22:10:58Z</time>
					</trkpt>
					<trkpt lat="47.987110" lon="-4.465160">
						<ele>22</ele>
						<time>2026-06-27T22:11:05Z</time>
					</trkpt>
					<trkpt lat="47.987010" lon="-4.465230">
						<ele>21</ele>
						<time>2026-06-27T22:11:06Z</time>
					</trkpt>
					<trkpt lat="47.986680" lon="-4.465360">
						<ele>21</ele>
						<time>2026-06-27T22:11:13Z</time>
					</trkpt>
					<trkpt lat="47.986640" lon="-4.465510">
						<ele>21</ele>
						<time>2026-06-27T22:11:14Z</time>
					</trkpt>
					<trkpt lat="47.986630" lon="-4.465870">
						<ele>23</ele>
						<time>2026-06-27T22:11:19Z</time>
					</trkpt>
					<trkpt lat="47.986670" lon="-4.466470">
						<ele>25</ele>
						<time>2026-06-27T22:11:26Z</time>
					</trkpt>
					<trkpt lat="47.987220" lon="-4.469420">
						<ele>30</ele>
						<time>2026-06-27T22:12:02Z</time>
					</trkpt>
					<trkpt lat="47.987570" lon="-4.471560">
						<ele>29</ele>
						<time>2026-06-27T22:12:29Z</time>
					</trkpt>
					<trkpt lat="47.987880" lon="-4.473660">
						<ele>29</ele>
						<time>2026-06-27T22:12:54Z</time>
					</trkpt>
					<trkpt lat="47.987940" lon="-4.473930">
						<ele>29</ele>
						<time>2026-06-27T22:12:58Z</time>
					</trkpt>
					<trkpt lat="47.988290" lon="-4.474980">
						<ele>29</ele>
						<time>2026-06-27T22:13:12Z</time>
					</trkpt>
					<trkpt lat="47.988860" lon="-4.476970">
						<ele>15</ele>
						<time>2026-06-27T22:13:37Z</time>
					</trkpt>
					<trkpt lat="47.988990" lon="-4.477230">
						<ele>14</ele>
						<time>2026-06-27T22:13:41Z</time>
					</trkpt>
					<trkpt lat="47.989070" lon="-4.477320">
						<ele>14</ele>
						<time>2026-06-27T22:13:43Z</time>
					</trkpt>
					<trkpt lat="47.989230" lon="-4.477430">
						<ele>14</ele>
						<time>2026-06-27T22:13:46Z</time>
					</trkpt>
					<trkpt lat="47.989380" lon="-4.477490">
						<ele>13</ele>
						<time>2026-06-27T22:13:49Z</time>
					</trkpt>
					<trkpt lat="47.990130" lon="-4.477520">
						<ele>10</ele>
						<time>2026-06-27T22:14:02Z</time>
					</trkpt>
					<trkpt lat="47.990320" lon="-4.477550">
						<ele>10</ele>
						<time>2026-06-27T22:14:06Z</time>
					</trkpt>
					<trkpt lat="47.990590" lon="-4.477660">
						<ele>9</ele>
						<time>2026-06-27T22:14:11Z</time>
					</trkpt>
					<trkpt lat="47.990780" lon="-4.477790">
						<ele>9</ele>
						<time>2026-06-27T22:14:14Z</time>
					</trkpt>
					<trkpt lat="47.992250" lon="-4.479450">
						<ele>15</ele>
						<time>2026-06-27T22:14:47Z</time>
					</trkpt>
					<trkpt lat="47.993770" lon="-4.481080">
						<ele>29</ele>
						<time>2026-06-27T22:15:20Z</time>
					</trkpt>
					<trkpt lat="47.994300" lon="-4.481540">
						<ele>33</ele>
						<time>2026-06-27T22:15:31Z</time>
					</trkpt>
					<trkpt lat="47.994590" lon="-4.481760">
						<ele>35</ele>
						<time>2026-06-27T22:15:37Z</time>
					</trkpt>
					<trkpt lat="47.995210" lon="-4.482380">
						<ele>37</ele>
						<time>2026-06-27T22:15:50Z</time>
					</trkpt>
					<trkpt lat="47.995340" lon="-4.482530">
						<ele>38</ele>
						<time>2026-06-27T22:15:53Z</time>
					</trkpt>
					<trkpt lat="47.996690" lon="-4.484440">
						<ele>47</ele>
						<time>2026-06-27T22:16:26Z</time>
					</trkpt>
					<trkpt lat="47.996820" lon="-4.484660">
						<ele>47</ele>
						<time>2026-06-27T22:16:30Z</time>
					</trkpt>
					<trkpt lat="47.997050" lon="-4.485220">
						<ele>48</ele>
						<time>2026-06-27T22:16:38Z</time>
					</trkpt>
					<trkpt lat="47.997210" lon="-4.485790">
						<ele>48</ele>
						<time>2026-06-27T22:16:45Z</time>
					</trkpt>
					<trkpt lat="47.997570" lon="-4.486740">
						<ele>49</ele>
						<time>2026-06-27T22:16:58Z</time>
					</trkpt>
					<trkpt lat="47.997660" lon="-4.486830">
						<ele>49</ele>
						<time>2026-06-27T22:17:00Z</time>
					</trkpt>
					<trkpt lat="47.997700" lon="-4.486840">
						<ele>49</ele>
						<time>2026-06-27T22:17:01Z</time>
					</trkpt>
					<trkpt lat="47.997830" lon="-4.486770">
						<ele>50</ele>
						<time>2026-06-27T22:17:03Z</time>
					</trkpt>
					<trkpt lat="47.998970" lon="-4.485860">
						<ele>60</ele>
						<time>2026-06-27T22:17:26Z</time>
					</trkpt>
					<trkpt lat="47.999100" lon="-4.485720">
						<ele>61</ele>
						<time>2026-06-27T22:17:29Z</time>
					</trkpt>
					<trkpt lat="47.999300" lon="-4.485440">
						<ele>63</ele>
						<time>2026-06-27T22:17:34Z</time>
					</trkpt>
					<trkpt lat="47.999870" lon="-4.484580">
						<ele>68</ele>
						<time>2026-06-27T22:17:48Z</time>
					</trkpt>
					<trkpt lat="47.999990" lon="-4.484460">
						<ele>70</ele>
						<time>2026-06-27T22:17:51Z</time>
					</trkpt>
					<trkpt lat="48.000100" lon="-4.484390">
						<ele>70</ele>
						<time>2026-06-27T22:17:53Z</time>
					</trkpt>
					<trkpt lat="48.000240" lon="-4.484340">
						<ele>71</ele>
						<time>2026-06-27T22:17:56Z</time>
					</trkpt>
					<trkpt lat="48.000360" lon="-4.484330">
						<ele>71</ele>
						<time>2026-06-27T22:17:58Z</time>
					</trkpt>
					<trkpt lat="48.000500" lon="-4.484360">
						<ele>71</ele>
						<time>2026-06-27T22:18:00Z</time>
					</trkpt>
					<trkpt lat="48.000990" lon="-4.484630">
						<ele>72</ele>
						<time>2026-06-27T22:18:10Z</time>
					</trkpt>
					<trkpt lat="48.002570" lon="-4.485180">
						<ele>77</ele>
						<time>2026-06-27T22:18:38Z</time>
					</trkpt>
					<trkpt lat="48.002780" lon="-4.485210">
						<ele>78</ele>
						<time>2026-06-27T22:18:42Z</time>
					</trkpt>
					<trkpt lat="48.004130" lon="-4.485130">
						<ele>85</ele>
						<time>2026-06-27T22:19:06Z</time>
					</trkpt>
					<trkpt lat="48.004150" lon="-4.485150">
						<ele>86</ele>
						<time>2026-06-27T22:19:07Z</time>
					</trkpt>
					<trkpt lat="48.004170" lon="-4.486590">
						<ele>84</ele>
						<time>2026-06-27T22:19:24Z</time>
					</trkpt>
					<trkpt lat="48.004020" lon="-4.488360">
						<ele>81</ele>
						<time>2026-06-27T22:19:45Z</time>
					</trkpt>
					<trkpt lat="48.003770" lon="-4.490360">
						<ele>71</ele>
						<time>2026-06-27T22:20:09Z</time>
					</trkpt>
					<trkpt lat="48.003770" lon="-4.490690">
						<ele>70</ele>
						<time>2026-06-27T22:20:13Z</time>
					</trkpt>
					<trkpt lat="48.003840" lon="-4.491030">
						<ele>69</ele>
						<time>2026-06-27T22:20:17Z</time>
					</trkpt>
					<trkpt lat="48.004540" lon="-4.493330">
						<ele>63</ele>
						<time>2026-06-27T22:20:47Z</time>
					</trkpt>
					<trkpt lat="48.005000" lon="-4.495480">
						<ele>54</ele>
						<time>2026-06-27T22:21:14Z</time>
					</trkpt>
					<trkpt lat="48.005190" lon="-4.496290">
						<ele>51</ele>
						<time>2026-06-27T22:21:25Z</time>
					</trkpt>
					<trkpt lat="48.005220" lon="-4.496340">
						<ele>51</ele>
						<time>2026-06-27T22:21:25Z</time>
					</trkpt>
					<trkpt lat="48.008470" lon="-4.494520">
						<ele>67</ele>
						<time>2026-06-27T22:22:27Z</time>
					</trkpt>
					<trkpt lat="48.008650" lon="-4.494350">
						<ele>68</ele>
						<time>2026-06-27T22:22:31Z</time>
					</trkpt>
					<trkpt lat="48.008910" lon="-4.493920">
						<ele>70</ele>
						<time>2026-06-27T22:22:38Z</time>
					</trkpt>
					<trkpt lat="48.009110" lon="-4.493730">
						<ele>71</ele>
						<time>2026-06-27T22:22:42Z</time>
					</trkpt>
					<trkpt lat="48.009360" lon="-4.493540">
						<ele>71</ele>
						<time>2026-06-27T22:22:47Z</time>
					</trkpt>
					<trkpt lat="48.009520" lon="-4.493450">
						<ele>72</ele>
						<time>2026-06-27T22:22:50Z</time>
					</trkpt>
					<trkpt lat="48.009470" lon="-4.493360">
						<ele>72</ele>
						<time>2026-06-27T22:22:51Z</time>
					</trkpt>
					<trkpt lat="48.009270" lon="-4.493190">
						<ele>71</ele>
						<time>2026-06-27T22:22:56Z</time>
					</trkpt>
					<trkpt lat="48.009160" lon="-4.493020">
						<ele>71</ele>
						<time>2026-06-27T22:22:58Z</time>
					</trkpt>
					<trkpt lat="48.009070" lon="-4.492520">
						<ele>72</ele>
						<time>2026-06-27T22:23:05Z</time>
					</trkpt>
					<trkpt lat="48.009020" lon="-4.492360">
						<ele>73</ele>
						<time>2026-06-27T22:23:07Z</time>
					</trkpt>
					<trkpt lat="48.008950" lon="-4.492260">
						<ele>73</ele>
						<time>2026-06-27T22:23:08Z</time>
					</trkpt>
					<trkpt lat="48.008730" lon="-4.492050">
						<ele>74</ele>
						<time>2026-06-27T22:23:13Z</time>
					</trkpt>
					<trkpt lat="48.008380" lon="-4.491460">
						<ele>76</ele>
						<time>2026-06-27T22:23:22Z</time>
					</trkpt>
					<trkpt lat="48.008340" lon="-4.491410">
						<ele>76</ele>
						<time>2026-06-27T22:23:23Z</time>
					</trkpt>
					<trkpt lat="48.008190" lon="-4.491350">
						<ele>76</ele>
						<time>2026-06-27T22:23:26Z</time>
					</trkpt>
					<trkpt lat="48.008000" lon="-4.491380">
						<ele>76</ele>
						<time>2026-06-27T22:23:29Z</time>
					</trkpt>
					<trkpt lat="48.007880" lon="-4.491430">
						<ele>76</ele>
						<time>2026-06-27T22:23:32Z</time>
					</trkpt>
					<trkpt lat="48.007850" lon="-4.491350">
						<ele>76</ele>
						<time>2026-06-27T22:23:33Z</time>
					</trkpt>
					<trkpt lat="48.007770" lon="-4.490280">
						<ele>79</ele>
						<time>2026-06-27T22:23:46Z</time>
					</trkpt>
					<trkpt lat="48.007720" lon="-4.489930">
						<ele>80</ele>
						<time>2026-06-27T22:23:50Z</time>
					</trkpt>
					<trkpt lat="48.007360" lon="-4.487920">
						<ele>84</ele>
						<time>2026-06-27T22:24:15Z</time>
					</trkpt>
					<trkpt lat="48.007070" lon="-4.486440">
						<ele>86</ele>
						<time>2026-06-27T22:24:33Z</time>
					</trkpt>
					<trkpt lat="48.006840" lon="-4.485410">
						<ele>87</ele>
						<time>2026-06-27T22:24:46Z</time>
					</trkpt>
					<trkpt lat="48.006860" lon="-4.485310">
						<ele>87</ele>
						<time>2026-06-27T22:24:47Z</time>
					</trkpt>
					<trkpt lat="48.007310" lon="-4.485140">
						<ele>88</ele>
						<time>2026-06-27T22:24:55Z</time>
					</trkpt>
					<trkpt lat="48.008180" lon="-4.485000">
						<ele>87</ele>
						<time>2026-06-27T22:25:11Z</time>
					</trkpt>
					<trkpt lat="48.008350" lon="-4.485000">
						<ele>87</ele>
						<time>2026-06-27T22:25:14Z</time>
					</trkpt>
					<trkpt lat="48.008650" lon="-4.485040">
						<ele>87</ele>
						<time>2026-06-27T22:25:19Z</time>
					</trkpt>
					<trkpt lat="48.008940" lon="-4.485110">
						<ele>88</ele>
						<time>2026-06-27T22:25:25Z</time>
					</trkpt>
					<trkpt lat="48.010240" lon="-4.485230">
						<ele>91</ele>
						<time>2026-06-27T22:25:48Z</time>
					</trkpt>
					<trkpt lat="48.013700" lon="-4.485650">
						<ele>99</ele>
						<time>2026-06-27T22:26:50Z</time>
					</trkpt>
					<trkpt lat="48.013790" lon="-4.485640">
						<ele>100</ele>
						<time>2026-06-27T22:26:51Z</time>
					</trkpt>
					<trkpt lat="48.013830" lon="-4.485680">
						<ele>100</ele>
						<time>2026-06-27T22:26:52Z</time>
					</trkpt>
					<trkpt lat="48.013850" lon="-4.485630">
						<ele>100</ele>
						<time>2026-06-27T22:26:53Z</time>
					</trkpt>
					<trkpt lat="48.013860" lon="-4.485530">
						<ele>100</ele>
						<time>2026-06-27T22:26:54Z</time>
					</trkpt>
					<trkpt lat="48.013640" lon="-4.484320">
						<ele>100</ele>
						<time>2026-06-27T22:27:09Z</time>
					</trkpt>
					<trkpt lat="48.013280" lon="-4.484330">
						<ele>100</ele>
						<time>2026-06-27T22:27:15Z</time>
					</trkpt>
					<trkpt lat="48.013010" lon="-4.484310">
						<ele>99</ele>
						<time>2026-06-27T22:27:20Z</time>
					</trkpt>
					<trkpt lat="48.012790" lon="-4.484200">
						<ele>99</ele>
						<time>2026-06-27T22:27:24Z</time>
					</trkpt>
					<trkpt lat="48.012630" lon="-4.484070">
						<ele>98</ele>
						<time>2026-06-27T22:27:27Z</time>
					</trkpt>
					<trkpt lat="48.012350" lon="-4.483750">
						<ele>98</ele>
						<time>2026-06-27T22:27:34Z</time>
					</trkpt>
					<trkpt lat="48.011970" lon="-4.483210">
						<ele>99</ele>
						<time>2026-06-27T22:27:43Z</time>
					</trkpt>
					<trkpt lat="48.010020" lon="-4.480600">
						<ele>95</ele>
						<time>2026-06-27T22:28:30Z</time>
					</trkpt>
					</trkseg>
				</trk>
			</gpx>